<?xml version="1.0" encoding="UTF-8" standalone="no" ?>
<gpx xmlns="http://www.topografix.com/GPX/1/1" xmlns:xsi="http://www.w3.org/2001/XMLSchema-instance" xsi:schemaLocation="http://www.topografix.com/GPX/1/1 http://www.topografix.com/GPX/1/1/gpx.xsd" version="1.1" creator="VisuGPX - https://www.visugpx.com">
  <metadata>
    <name>83 - Me - Entrecasteaux</name>
    <desc><![CDATA[ENTRECASTEAUX, Forêt communale les Terriers, le Défens de Valpeironne
2025-02-05]]></desc>
  </metadata>
  <trk>
    <name><![CDATA[2025-02-05-Me-Entrecasteaux-JF]]></name>
    <extensions>
      <line xmlns="http://www.topografix.com/GPX/gpx_style/0/2">
        <width>4</width>
      </line>
    </extensions>
    <trkseg>
      <trkpt lat="43.51727" lon="6.24123">
        <ele>165.1</ele>
        <time>2025-02-05T12:53:37.000Z</time>
      </trkpt>
      <trkpt lat="43.51727" lon="6.24122">
        <ele>165.1</ele>
        <time>2025-02-05T12:53:38.000Z</time>
      </trkpt>
      <trkpt lat="43.5173" lon="6.24117">
        <ele>165</ele>
        <time>2025-02-05T12:53:58.000Z</time>
      </trkpt>
      <trkpt lat="43.51732" lon="6.24111">
        <ele>165.4</ele>
        <time>2025-02-05T12:54:43.000Z</time>
      </trkpt>
      <trkpt lat="43.51731" lon="6.24118">
        <ele>164.9</ele>
        <time>2025-02-05T12:55:13.000Z</time>
      </trkpt>
      <trkpt lat="43.51727" lon="6.24115">
        <ele>164.8</ele>
        <time>2025-02-05T12:55:51.000Z</time>
      </trkpt>
      <trkpt lat="43.51724" lon="6.2411">
        <ele>163.7</ele>
        <time>2025-02-05T12:57:33.000Z</time>
      </trkpt>
      <trkpt lat="43.51719" lon="6.24109">
        <ele>164.1</ele>
        <time>2025-02-05T12:57:42.000Z</time>
      </trkpt>
      <trkpt lat="43.51714" lon="6.2411">
        <ele>164.1</ele>
        <time>2025-02-05T12:57:53.000Z</time>
      </trkpt>
      <trkpt lat="43.51716" lon="6.24104">
        <ele>162.8</ele>
        <time>2025-02-05T13:01:54.000Z</time>
      </trkpt>
      <trkpt lat="43.51712" lon="6.24108">
        <ele>162.7</ele>
        <time>2025-02-05T13:02:12.000Z</time>
      </trkpt>
      <trkpt lat="43.51708" lon="6.24105">
        <ele>162.8</ele>
        <time>2025-02-05T13:02:26.000Z</time>
      </trkpt>
      <trkpt lat="43.51703" lon="6.24103">
        <ele>163.2</ele>
        <time>2025-02-05T13:02:36.000Z</time>
      </trkpt>
      <trkpt lat="43.51699" lon="6.24101">
        <ele>163.3</ele>
        <time>2025-02-05T13:02:42.000Z</time>
      </trkpt>
      <trkpt lat="43.51694" lon="6.24098">
        <ele>163.3</ele>
        <time>2025-02-05T13:02:51.000Z</time>
      </trkpt>
      <trkpt lat="43.5169" lon="6.24094">
        <ele>163.6</ele>
        <time>2025-02-05T13:02:59.000Z</time>
      </trkpt>
      <trkpt lat="43.51686" lon="6.24091">
        <ele>164.4</ele>
        <time>2025-02-05T13:03:10.000Z</time>
      </trkpt>
      <trkpt lat="43.51682" lon="6.24088">
        <ele>164.8</ele>
        <time>2025-02-05T13:03:16.000Z</time>
      </trkpt>
      <trkpt lat="43.5168" lon="6.24081">
        <ele>165</ele>
        <time>2025-02-05T13:03:22.000Z</time>
      </trkpt>
      <trkpt lat="43.51682" lon="6.24075">
        <ele>165</ele>
        <time>2025-02-05T13:03:29.000Z</time>
      </trkpt>
      <trkpt lat="43.51682" lon="6.24068">
        <ele>165</ele>
        <time>2025-02-05T13:03:34.000Z</time>
      </trkpt>
      <trkpt lat="43.51683" lon="6.24061">
        <ele>165.3</ele>
        <time>2025-02-05T13:03:39.000Z</time>
      </trkpt>
      <trkpt lat="43.51685" lon="6.24055">
        <ele>165.3</ele>
        <time>2025-02-05T13:03:43.000Z</time>
      </trkpt>
      <trkpt lat="43.51684" lon="6.24048">
        <ele>165.2</ele>
        <time>2025-02-05T13:03:47.000Z</time>
      </trkpt>
      <trkpt lat="43.51684" lon="6.24042">
        <ele>165.4</ele>
        <time>2025-02-05T13:03:55.000Z</time>
      </trkpt>
      <trkpt lat="43.51683" lon="6.24036">
        <ele>165.4</ele>
        <time>2025-02-05T13:04:03.000Z</time>
      </trkpt>
      <trkpt lat="43.51685" lon="6.2403">
        <ele>165.6</ele>
        <time>2025-02-05T13:04:11.000Z</time>
      </trkpt>
      <trkpt lat="43.51688" lon="6.24026">
        <ele>165.4</ele>
        <time>2025-02-05T13:04:28.000Z</time>
      </trkpt>
      <trkpt lat="43.51689" lon="6.24018">
        <ele>165.2</ele>
        <time>2025-02-05T13:04:58.000Z</time>
      </trkpt>
      <trkpt lat="43.51689" lon="6.24012">
        <ele>165.4</ele>
        <time>2025-02-05T13:05:06.000Z</time>
      </trkpt>
      <trkpt lat="43.51693" lon="6.24007">
        <ele>165.3</ele>
        <time>2025-02-05T13:05:14.000Z</time>
      </trkpt>
      <trkpt lat="43.51695" lon="6.24001">
        <ele>165.4</ele>
        <time>2025-02-05T13:05:21.000Z</time>
      </trkpt>
      <trkpt lat="43.51697" lon="6.23995">
        <ele>165.4</ele>
        <time>2025-02-05T13:05:26.000Z</time>
      </trkpt>
      <trkpt lat="43.51699" lon="6.23989">
        <ele>165.7</ele>
        <time>2025-02-05T13:05:37.000Z</time>
      </trkpt>
      <trkpt lat="43.517" lon="6.23982">
        <ele>165.8</ele>
        <time>2025-02-05T13:05:43.000Z</time>
      </trkpt>
      <trkpt lat="43.51702" lon="6.23975">
        <ele>166</ele>
        <time>2025-02-05T13:05:48.000Z</time>
      </trkpt>
      <trkpt lat="43.51705" lon="6.23969">
        <ele>166.2</ele>
        <time>2025-02-05T13:05:52.000Z</time>
      </trkpt>
      <trkpt lat="43.51707" lon="6.23963">
        <ele>166.3</ele>
        <time>2025-02-05T13:05:57.000Z</time>
      </trkpt>
      <trkpt lat="43.5171" lon="6.23957">
        <ele>166.7</ele>
        <time>2025-02-05T13:06:03.000Z</time>
      </trkpt>
      <trkpt lat="43.51712" lon="6.2395">
        <ele>166.9</ele>
        <time>2025-02-05T13:06:07.000Z</time>
      </trkpt>
      <trkpt lat="43.51714" lon="6.23943">
        <ele>167.3</ele>
        <time>2025-02-05T13:06:11.000Z</time>
      </trkpt>
      <trkpt lat="43.51716" lon="6.23936">
        <ele>167.5</ele>
        <time>2025-02-05T13:06:15.000Z</time>
      </trkpt>
      <trkpt lat="43.51718" lon="6.2393">
        <ele>167.8</ele>
        <time>2025-02-05T13:06:19.000Z</time>
      </trkpt>
      <trkpt lat="43.51719" lon="6.23923">
        <ele>168</ele>
        <time>2025-02-05T13:06:24.000Z</time>
      </trkpt>
      <trkpt lat="43.5172" lon="6.23916">
        <ele>168.8</ele>
        <time>2025-02-05T13:06:31.000Z</time>
      </trkpt>
      <trkpt lat="43.51724" lon="6.23909">
        <ele>169</ele>
        <time>2025-02-05T13:06:36.000Z</time>
      </trkpt>
      <trkpt lat="43.51727" lon="6.23904">
        <ele>169.4</ele>
        <time>2025-02-05T13:06:40.000Z</time>
      </trkpt>
      <trkpt lat="43.5173" lon="6.23897">
        <ele>169.9</ele>
        <time>2025-02-05T13:06:47.000Z</time>
      </trkpt>
      <trkpt lat="43.51735" lon="6.23894">
        <ele>170.1</ele>
        <time>2025-02-05T13:06:51.000Z</time>
      </trkpt>
      <trkpt lat="43.51739" lon="6.23889">
        <ele>170.5</ele>
        <time>2025-02-05T13:06:56.000Z</time>
      </trkpt>
      <trkpt lat="43.51744" lon="6.23887">
        <ele>170.6</ele>
        <time>2025-02-05T13:07:00.000Z</time>
      </trkpt>
      <trkpt lat="43.51749" lon="6.23884">
        <ele>170.7</ele>
        <time>2025-02-05T13:07:03.000Z</time>
      </trkpt>
      <trkpt lat="43.51755" lon="6.23882">
        <ele>170.9</ele>
        <time>2025-02-05T13:07:07.000Z</time>
      </trkpt>
      <trkpt lat="43.51759" lon="6.23879">
        <ele>171.1</ele>
        <time>2025-02-05T13:07:11.000Z</time>
      </trkpt>
      <trkpt lat="43.51764" lon="6.23878">
        <ele>171.3</ele>
        <time>2025-02-05T13:07:15.000Z</time>
      </trkpt>
      <trkpt lat="43.51769" lon="6.23878">
        <ele>171.6</ele>
        <time>2025-02-05T13:07:23.000Z</time>
      </trkpt>
      <trkpt lat="43.51769" lon="6.23886">
        <ele>171.7</ele>
        <time>2025-02-05T13:07:29.000Z</time>
      </trkpt>
      <trkpt lat="43.5177" lon="6.23892">
        <ele>171.8</ele>
        <time>2025-02-05T13:07:34.000Z</time>
      </trkpt>
      <trkpt lat="43.51771" lon="6.23898">
        <ele>172.3</ele>
        <time>2025-02-05T13:07:39.000Z</time>
      </trkpt>
      <trkpt lat="43.51773" lon="6.23904">
        <ele>172.7</ele>
        <time>2025-02-05T13:07:44.000Z</time>
      </trkpt>
      <trkpt lat="43.51775" lon="6.23911">
        <ele>173.2</ele>
        <time>2025-02-05T13:07:50.000Z</time>
      </trkpt>
      <trkpt lat="43.51776" lon="6.23917">
        <ele>173.5</ele>
        <time>2025-02-05T13:07:54.000Z</time>
      </trkpt>
      <trkpt lat="43.51777" lon="6.23924">
        <ele>173.7</ele>
        <time>2025-02-05T13:07:58.000Z</time>
      </trkpt>
      <trkpt lat="43.51778" lon="6.23931">
        <ele>174</ele>
        <time>2025-02-05T13:08:02.000Z</time>
      </trkpt>
      <trkpt lat="43.51778" lon="6.23938">
        <ele>174.3</ele>
        <time>2025-02-05T13:08:06.000Z</time>
      </trkpt>
      <trkpt lat="43.51779" lon="6.23944">
        <ele>174.8</ele>
        <time>2025-02-05T13:08:10.000Z</time>
      </trkpt>
      <trkpt lat="43.51779" lon="6.23951">
        <ele>174.9</ele>
        <time>2025-02-05T13:08:14.000Z</time>
      </trkpt>
      <trkpt lat="43.51781" lon="6.23958">
        <ele>175.1</ele>
        <time>2025-02-05T13:08:18.000Z</time>
      </trkpt>
      <trkpt lat="43.5178" lon="6.23965">
        <ele>175.4</ele>
        <time>2025-02-05T13:08:23.000Z</time>
      </trkpt>
      <trkpt lat="43.51782" lon="6.23972">
        <ele>175.8</ele>
        <time>2025-02-05T13:08:27.000Z</time>
      </trkpt>
      <trkpt lat="43.51783" lon="6.23979">
        <ele>176.2</ele>
        <time>2025-02-05T13:08:31.000Z</time>
      </trkpt>
      <trkpt lat="43.51786" lon="6.23985">
        <ele>176.5</ele>
        <time>2025-02-05T13:08:35.000Z</time>
      </trkpt>
      <trkpt lat="43.51788" lon="6.2399">
        <ele>176.7</ele>
        <time>2025-02-05T13:08:39.000Z</time>
      </trkpt>
      <trkpt lat="43.51792" lon="6.23995">
        <ele>177.5</ele>
        <time>2025-02-05T13:08:44.000Z</time>
      </trkpt>
      <trkpt lat="43.51796" lon="6.24">
        <ele>178</ele>
        <time>2025-02-05T13:08:50.000Z</time>
      </trkpt>
      <trkpt lat="43.51797" lon="6.24006">
        <ele>178.4</ele>
        <time>2025-02-05T13:08:55.000Z</time>
      </trkpt>
      <trkpt lat="43.51798" lon="6.24013">
        <ele>178.6</ele>
        <time>2025-02-05T13:08:59.000Z</time>
      </trkpt>
      <trkpt lat="43.51799" lon="6.2402">
        <ele>178.8</ele>
        <time>2025-02-05T13:09:03.000Z</time>
      </trkpt>
      <trkpt lat="43.518" lon="6.24028">
        <ele>179</ele>
        <time>2025-02-05T13:09:08.000Z</time>
      </trkpt>
      <trkpt lat="43.51799" lon="6.24034">
        <ele>179.3</ele>
        <time>2025-02-05T13:09:12.000Z</time>
      </trkpt>
      <trkpt lat="43.51799" lon="6.24042">
        <ele>179.6</ele>
        <time>2025-02-05T13:09:17.000Z</time>
      </trkpt>
      <trkpt lat="43.51799" lon="6.24048">
        <ele>179.8</ele>
        <time>2025-02-05T13:09:21.000Z</time>
      </trkpt>
      <trkpt lat="43.518" lon="6.24056">
        <ele>179.8</ele>
        <time>2025-02-05T13:09:26.000Z</time>
      </trkpt>
      <trkpt lat="43.518" lon="6.24064">
        <ele>180</ele>
        <time>2025-02-05T13:09:31.000Z</time>
      </trkpt>
      <trkpt lat="43.51803" lon="6.24071">
        <ele>180</ele>
        <time>2025-02-05T13:09:36.000Z</time>
      </trkpt>
      <trkpt lat="43.51807" lon="6.24074">
        <ele>180.1</ele>
        <time>2025-02-05T13:09:41.000Z</time>
      </trkpt>
      <trkpt lat="43.51812" lon="6.24077">
        <ele>180.2</ele>
        <time>2025-02-05T13:09:45.000Z</time>
      </trkpt>
      <trkpt lat="43.51815" lon="6.2408">
        <ele>180.3</ele>
        <time>2025-02-05T13:09:51.000Z</time>
      </trkpt>
      <trkpt lat="43.51819" lon="6.24085">
        <ele>180.2</ele>
        <time>2025-02-05T13:09:58.000Z</time>
      </trkpt>
      <trkpt lat="43.51823" lon="6.24089">
        <ele>180.2</ele>
        <time>2025-02-05T13:10:03.000Z</time>
      </trkpt>
      <trkpt lat="43.51827" lon="6.24092">
        <ele>180.4</ele>
        <time>2025-02-05T13:10:07.000Z</time>
      </trkpt>
      <trkpt lat="43.51832" lon="6.24095">
        <ele>180.6</ele>
        <time>2025-02-05T13:10:12.000Z</time>
      </trkpt>
      <trkpt lat="43.51836" lon="6.241">
        <ele>180.8</ele>
        <time>2025-02-05T13:10:17.000Z</time>
      </trkpt>
      <trkpt lat="43.51839" lon="6.24105">
        <ele>180.8</ele>
        <time>2025-02-05T13:10:21.000Z</time>
      </trkpt>
      <trkpt lat="43.51842" lon="6.2411">
        <ele>180.7</ele>
        <time>2025-02-05T13:10:26.000Z</time>
      </trkpt>
      <trkpt lat="43.51843" lon="6.24116">
        <ele>181.2</ele>
        <time>2025-02-05T13:10:31.000Z</time>
      </trkpt>
      <trkpt lat="43.51847" lon="6.24122">
        <ele>181.1</ele>
        <time>2025-02-05T13:10:36.000Z</time>
      </trkpt>
      <trkpt lat="43.5185" lon="6.24128">
        <ele>181</ele>
        <time>2025-02-05T13:10:40.000Z</time>
      </trkpt>
      <trkpt lat="43.51852" lon="6.24134">
        <ele>180.7</ele>
        <time>2025-02-05T13:10:46.000Z</time>
      </trkpt>
      <trkpt lat="43.51854" lon="6.2414">
        <ele>180.5</ele>
        <time>2025-02-05T13:10:51.000Z</time>
      </trkpt>
      <trkpt lat="43.51857" lon="6.24147">
        <ele>180.4</ele>
        <time>2025-02-05T13:10:56.000Z</time>
      </trkpt>
      <trkpt lat="43.5186" lon="6.2415">
        <ele>180.1</ele>
        <time>2025-02-05T13:11:00.000Z</time>
      </trkpt>
      <trkpt lat="43.51861" lon="6.24157">
        <ele>179.2</ele>
        <time>2025-02-05T13:11:05.000Z</time>
      </trkpt>
      <trkpt lat="43.51862" lon="6.24163">
        <ele>178.7</ele>
        <time>2025-02-05T13:11:09.000Z</time>
      </trkpt>
      <trkpt lat="43.51863" lon="6.24169">
        <ele>178.1</ele>
        <time>2025-02-05T13:11:13.000Z</time>
      </trkpt>
      <trkpt lat="43.51864" lon="6.24176">
        <ele>177.3</ele>
        <time>2025-02-05T13:11:20.000Z</time>
      </trkpt>
      <trkpt lat="43.51864" lon="6.24183">
        <ele>176.4</ele>
        <time>2025-02-05T13:11:26.000Z</time>
      </trkpt>
      <trkpt lat="43.51865" lon="6.24191">
        <ele>176.1</ele>
        <time>2025-02-05T13:11:31.000Z</time>
      </trkpt>
      <trkpt lat="43.51868" lon="6.24197">
        <ele>175.7</ele>
        <time>2025-02-05T13:11:35.000Z</time>
      </trkpt>
      <trkpt lat="43.51868" lon="6.24204">
        <ele>174.8</ele>
        <time>2025-02-05T13:11:40.000Z</time>
      </trkpt>
      <trkpt lat="43.51867" lon="6.24211">
        <ele>173.8</ele>
        <time>2025-02-05T13:11:46.000Z</time>
      </trkpt>
      <trkpt lat="43.51867" lon="6.24218">
        <ele>173.1</ele>
        <time>2025-02-05T13:11:51.000Z</time>
      </trkpt>
      <trkpt lat="43.51867" lon="6.24224">
        <ele>172.5</ele>
        <time>2025-02-05T13:11:55.000Z</time>
      </trkpt>
      <trkpt lat="43.51871" lon="6.2423">
        <ele>171.7</ele>
        <time>2025-02-05T13:11:59.000Z</time>
      </trkpt>
      <trkpt lat="43.51872" lon="6.24238">
        <ele>171.1</ele>
        <time>2025-02-05T13:12:03.000Z</time>
      </trkpt>
      <trkpt lat="43.51872" lon="6.24244">
        <ele>169.9</ele>
        <time>2025-02-05T13:12:09.000Z</time>
      </trkpt>
      <trkpt lat="43.51872" lon="6.24251">
        <ele>168.9</ele>
        <time>2025-02-05T13:12:14.000Z</time>
      </trkpt>
      <trkpt lat="43.51872" lon="6.24258">
        <ele>167.9</ele>
        <time>2025-02-05T13:12:20.000Z</time>
      </trkpt>
      <trkpt lat="43.5187" lon="6.24264">
        <ele>167</ele>
        <time>2025-02-05T13:12:26.000Z</time>
      </trkpt>
      <trkpt lat="43.51869" lon="6.24271">
        <ele>165.9</ele>
        <time>2025-02-05T13:12:34.000Z</time>
      </trkpt>
      <trkpt lat="43.51868" lon="6.24277">
        <ele>165.1</ele>
        <time>2025-02-05T13:12:40.000Z</time>
      </trkpt>
      <trkpt lat="43.51867" lon="6.24284">
        <ele>164.9</ele>
        <time>2025-02-05T13:12:46.000Z</time>
      </trkpt>
      <trkpt lat="43.51866" lon="6.2429">
        <ele>164.6</ele>
        <time>2025-02-05T13:12:51.000Z</time>
      </trkpt>
      <trkpt lat="43.51866" lon="6.24297">
        <ele>164.1</ele>
        <time>2025-02-05T13:12:56.000Z</time>
      </trkpt>
      <trkpt lat="43.51865" lon="6.24304">
        <ele>163.7</ele>
        <time>2025-02-05T13:13:01.000Z</time>
      </trkpt>
      <trkpt lat="43.51864" lon="6.24311">
        <ele>163.4</ele>
        <time>2025-02-05T13:13:05.000Z</time>
      </trkpt>
      <trkpt lat="43.51862" lon="6.24317">
        <ele>163.2</ele>
        <time>2025-02-05T13:13:10.000Z</time>
      </trkpt>
      <trkpt lat="43.51861" lon="6.24325">
        <ele>163.1</ele>
        <time>2025-02-05T13:13:15.000Z</time>
      </trkpt>
      <trkpt lat="43.51859" lon="6.24331">
        <ele>162.9</ele>
        <time>2025-02-05T13:13:20.000Z</time>
      </trkpt>
      <trkpt lat="43.51856" lon="6.24337">
        <ele>162.9</ele>
        <time>2025-02-05T13:13:25.000Z</time>
      </trkpt>
      <trkpt lat="43.51853" lon="6.24343">
        <ele>162.7</ele>
        <time>2025-02-05T13:13:30.000Z</time>
      </trkpt>
      <trkpt lat="43.5185" lon="6.24348">
        <ele>162.6</ele>
        <time>2025-02-05T13:13:35.000Z</time>
      </trkpt>
      <trkpt lat="43.51847" lon="6.24355">
        <ele>162.4</ele>
        <time>2025-02-05T13:13:40.000Z</time>
      </trkpt>
      <trkpt lat="43.51846" lon="6.24361">
        <ele>162.3</ele>
        <time>2025-02-05T13:13:44.000Z</time>
      </trkpt>
      <trkpt lat="43.51844" lon="6.24368">
        <ele>162.2</ele>
        <time>2025-02-05T13:13:49.000Z</time>
      </trkpt>
      <trkpt lat="43.51842" lon="6.24374">
        <ele>162</ele>
        <time>2025-02-05T13:13:54.000Z</time>
      </trkpt>
      <trkpt lat="43.51839" lon="6.2438">
        <ele>161.8</ele>
        <time>2025-02-05T13:13:59.000Z</time>
      </trkpt>
      <trkpt lat="43.51837" lon="6.24385">
        <ele>161.7</ele>
        <time>2025-02-05T13:14:03.000Z</time>
      </trkpt>
      <trkpt lat="43.51834" lon="6.2439">
        <ele>161.8</ele>
        <time>2025-02-05T13:14:07.000Z</time>
      </trkpt>
      <trkpt lat="43.51832" lon="6.24398">
        <ele>161.8</ele>
        <time>2025-02-05T13:14:12.000Z</time>
      </trkpt>
      <trkpt lat="43.51832" lon="6.24406">
        <ele>161.7</ele>
        <time>2025-02-05T13:14:16.000Z</time>
      </trkpt>
      <trkpt lat="43.51831" lon="6.24413">
        <ele>161.7</ele>
        <time>2025-02-05T13:14:20.000Z</time>
      </trkpt>
      <trkpt lat="43.51831" lon="6.24421">
        <ele>162.1</ele>
        <time>2025-02-05T13:14:25.000Z</time>
      </trkpt>
      <trkpt lat="43.5183" lon="6.24427">
        <ele>162.3</ele>
        <time>2025-02-05T13:14:30.000Z</time>
      </trkpt>
      <trkpt lat="43.51829" lon="6.24434">
        <ele>162.6</ele>
        <time>2025-02-05T13:14:34.000Z</time>
      </trkpt>
      <trkpt lat="43.51828" lon="6.24441">
        <ele>163.2</ele>
        <time>2025-02-05T13:14:40.000Z</time>
      </trkpt>
      <trkpt lat="43.51826" lon="6.24447">
        <ele>163.2</ele>
        <time>2025-02-05T13:14:44.000Z</time>
      </trkpt>
      <trkpt lat="43.51821" lon="6.24451">
        <ele>163.1</ele>
        <time>2025-02-05T13:14:48.000Z</time>
      </trkpt>
      <trkpt lat="43.51816" lon="6.24453">
        <ele>163</ele>
        <time>2025-02-05T13:14:52.000Z</time>
      </trkpt>
      <trkpt lat="43.51811" lon="6.24453">
        <ele>162.8</ele>
        <time>2025-02-05T13:14:57.000Z</time>
      </trkpt>
      <trkpt lat="43.51806" lon="6.2445">
        <ele>162.2</ele>
        <time>2025-02-05T13:15:01.000Z</time>
      </trkpt>
      <trkpt lat="43.51802" lon="6.24447">
        <ele>161.6</ele>
        <time>2025-02-05T13:15:05.000Z</time>
      </trkpt>
      <trkpt lat="43.51797" lon="6.24446">
        <ele>160.5</ele>
        <time>2025-02-05T13:15:11.000Z</time>
      </trkpt>
      <trkpt lat="43.51793" lon="6.2445">
        <ele>160</ele>
        <time>2025-02-05T13:15:16.000Z</time>
      </trkpt>
      <trkpt lat="43.51789" lon="6.24455">
        <ele>159.3</ele>
        <time>2025-02-05T13:15:21.000Z</time>
      </trkpt>
      <trkpt lat="43.51785" lon="6.24459">
        <ele>158.9</ele>
        <time>2025-02-05T13:15:25.000Z</time>
      </trkpt>
      <trkpt lat="43.51781" lon="6.24464">
        <ele>158.6</ele>
        <time>2025-02-05T13:15:30.000Z</time>
      </trkpt>
      <trkpt lat="43.51778" lon="6.24467">
        <ele>158.3</ele>
        <time>2025-02-05T13:15:35.000Z</time>
      </trkpt>
      <trkpt lat="43.51773" lon="6.24471">
        <ele>158.3</ele>
        <time>2025-02-05T13:15:40.000Z</time>
      </trkpt>
      <trkpt lat="43.5177" lon="6.24476">
        <ele>158.5</ele>
        <time>2025-02-05T13:15:45.000Z</time>
      </trkpt>
      <trkpt lat="43.51766" lon="6.2448">
        <ele>158.5</ele>
        <time>2025-02-05T13:15:49.000Z</time>
      </trkpt>
      <trkpt lat="43.51762" lon="6.24485">
        <ele>158.4</ele>
        <time>2025-02-05T13:15:54.000Z</time>
      </trkpt>
      <trkpt lat="43.51759" lon="6.24488">
        <ele>158.4</ele>
        <time>2025-02-05T13:15:58.000Z</time>
      </trkpt>
      <trkpt lat="43.51754" lon="6.24493">
        <ele>158.3</ele>
        <time>2025-02-05T13:16:03.000Z</time>
      </trkpt>
      <trkpt lat="43.5175" lon="6.24496">
        <ele>158.3</ele>
        <time>2025-02-05T13:16:08.000Z</time>
      </trkpt>
      <trkpt lat="43.51745" lon="6.24496">
        <ele>158.4</ele>
        <time>2025-02-05T13:16:13.000Z</time>
      </trkpt>
      <trkpt lat="43.5174" lon="6.24497">
        <ele>158.5</ele>
        <time>2025-02-05T13:16:18.000Z</time>
      </trkpt>
      <trkpt lat="43.51736" lon="6.24499">
        <ele>158.4</ele>
        <time>2025-02-05T13:16:23.000Z</time>
      </trkpt>
      <trkpt lat="43.51731" lon="6.24502">
        <ele>158.3</ele>
        <time>2025-02-05T13:16:28.000Z</time>
      </trkpt>
      <trkpt lat="43.51727" lon="6.24503">
        <ele>158</ele>
        <time>2025-02-05T13:16:35.000Z</time>
      </trkpt>
      <trkpt lat="43.51722" lon="6.24503">
        <ele>157.7</ele>
        <time>2025-02-05T13:16:41.000Z</time>
      </trkpt>
      <trkpt lat="43.51717" lon="6.24502">
        <ele>157.5</ele>
        <time>2025-02-05T13:16:45.000Z</time>
      </trkpt>
      <trkpt lat="43.51713" lon="6.24501">
        <ele>157.5</ele>
        <time>2025-02-05T13:16:48.000Z</time>
      </trkpt>
      <trkpt lat="43.51707" lon="6.245">
        <ele>157.6</ele>
        <time>2025-02-05T13:16:52.000Z</time>
      </trkpt>
      <trkpt lat="43.51702" lon="6.24497">
        <ele>157.7</ele>
        <time>2025-02-05T13:16:56.000Z</time>
      </trkpt>
      <trkpt lat="43.51696" lon="6.24495">
        <ele>157.4</ele>
        <time>2025-02-05T13:17:05.000Z</time>
      </trkpt>
      <trkpt lat="43.51692" lon="6.24492">
        <ele>157.5</ele>
        <time>2025-02-05T13:17:10.000Z</time>
      </trkpt>
      <trkpt lat="43.51687" lon="6.2449">
        <ele>157.7</ele>
        <time>2025-02-05T13:17:14.000Z</time>
      </trkpt>
      <trkpt lat="43.51683" lon="6.24488">
        <ele>157.8</ele>
        <time>2025-02-05T13:17:17.000Z</time>
      </trkpt>
      <trkpt lat="43.51678" lon="6.24486">
        <ele>157.9</ele>
        <time>2025-02-05T13:17:21.000Z</time>
      </trkpt>
      <trkpt lat="43.51672" lon="6.24484">
        <ele>157.9</ele>
        <time>2025-02-05T13:17:25.000Z</time>
      </trkpt>
      <trkpt lat="43.51666" lon="6.24483">
        <ele>157.8</ele>
        <time>2025-02-05T13:17:30.000Z</time>
      </trkpt>
      <trkpt lat="43.51662" lon="6.24483">
        <ele>157.9</ele>
        <time>2025-02-05T13:17:34.000Z</time>
      </trkpt>
      <trkpt lat="43.51657" lon="6.24483">
        <ele>157.8</ele>
        <time>2025-02-05T13:17:42.000Z</time>
      </trkpt>
      <trkpt lat="43.51653" lon="6.24483">
        <ele>157.9</ele>
        <time>2025-02-05T13:17:47.000Z</time>
      </trkpt>
      <trkpt lat="43.51648" lon="6.24481">
        <ele>157.8</ele>
        <time>2025-02-05T13:17:53.000Z</time>
      </trkpt>
      <trkpt lat="43.51651" lon="6.24486">
        <ele>158</ele>
        <time>2025-02-05T13:18:11.000Z</time>
      </trkpt>
      <trkpt lat="43.51648" lon="6.24481">
        <ele>157.8</ele>
        <time>2025-02-05T13:18:24.000Z</time>
      </trkpt>
      <trkpt lat="43.51653" lon="6.24481">
        <ele>158.9</ele>
        <time>2025-02-05T13:18:45.000Z</time>
      </trkpt>
      <trkpt lat="43.51657" lon="6.24484">
        <ele>159.1</ele>
        <time>2025-02-05T13:18:51.000Z</time>
      </trkpt>
      <trkpt lat="43.51659" lon="6.24489">
        <ele>159.5</ele>
        <time>2025-02-05T13:18:58.000Z</time>
      </trkpt>
      <trkpt lat="43.51656" lon="6.24494">
        <ele>161.2</ele>
        <time>2025-02-05T13:19:14.000Z</time>
      </trkpt>
      <trkpt lat="43.51654" lon="6.24501">
        <ele>162.4</ele>
        <time>2025-02-05T13:19:24.000Z</time>
      </trkpt>
      <trkpt lat="43.51649" lon="6.24505">
        <ele>163.3</ele>
        <time>2025-02-05T13:19:32.000Z</time>
      </trkpt>
      <trkpt lat="43.51647" lon="6.24511">
        <ele>164.2</ele>
        <time>2025-02-05T13:19:40.000Z</time>
      </trkpt>
      <trkpt lat="43.51651" lon="6.24507">
        <ele>167.4</ele>
        <time>2025-02-05T13:20:04.000Z</time>
      </trkpt>
      <trkpt lat="43.51655" lon="6.24508">
        <ele>168.4</ele>
        <time>2025-02-05T13:20:12.000Z</time>
      </trkpt>
      <trkpt lat="43.51657" lon="6.24514">
        <ele>170.2</ele>
        <time>2025-02-05T13:20:24.000Z</time>
      </trkpt>
      <trkpt lat="43.51656" lon="6.2452">
        <ele>171.7</ele>
        <time>2025-02-05T13:20:35.000Z</time>
      </trkpt>
      <trkpt lat="43.51654" lon="6.24526">
        <ele>172.4</ele>
        <time>2025-02-05T13:20:45.000Z</time>
      </trkpt>
      <trkpt lat="43.51653" lon="6.24532">
        <ele>173.1</ele>
        <time>2025-02-05T13:20:52.000Z</time>
      </trkpt>
      <trkpt lat="43.51649" lon="6.24537">
        <ele>173.9</ele>
        <time>2025-02-05T13:21:00.000Z</time>
      </trkpt>
      <trkpt lat="43.51647" lon="6.24543">
        <ele>174.8</ele>
        <time>2025-02-05T13:21:06.000Z</time>
      </trkpt>
      <trkpt lat="43.51648" lon="6.2455">
        <ele>175.4</ele>
        <time>2025-02-05T13:21:11.000Z</time>
      </trkpt>
      <trkpt lat="43.51648" lon="6.24557">
        <ele>176.3</ele>
        <time>2025-02-05T13:21:18.000Z</time>
      </trkpt>
      <trkpt lat="43.5165" lon="6.24564">
        <ele>177.4</ele>
        <time>2025-02-05T13:21:26.000Z</time>
      </trkpt>
      <trkpt lat="43.51653" lon="6.24572">
        <ele>178.6</ele>
        <time>2025-02-05T13:21:34.000Z</time>
      </trkpt>
      <trkpt lat="43.51657" lon="6.24577">
        <ele>179.2</ele>
        <time>2025-02-05T13:21:41.000Z</time>
      </trkpt>
      <trkpt lat="43.51657" lon="6.24583">
        <ele>180.5</ele>
        <time>2025-02-05T13:21:50.000Z</time>
      </trkpt>
      <trkpt lat="43.51659" lon="6.24589">
        <ele>181.7</ele>
        <time>2025-02-05T13:22:00.000Z</time>
      </trkpt>
      <trkpt lat="43.5166" lon="6.24596">
        <ele>182.5</ele>
        <time>2025-02-05T13:22:09.000Z</time>
      </trkpt>
      <trkpt lat="43.51662" lon="6.24602">
        <ele>183.1</ele>
        <time>2025-02-05T13:22:14.000Z</time>
      </trkpt>
      <trkpt lat="43.51666" lon="6.24607">
        <ele>183.7</ele>
        <time>2025-02-05T13:22:19.000Z</time>
      </trkpt>
      <trkpt lat="43.5167" lon="6.24611">
        <ele>184.8</ele>
        <time>2025-02-05T13:22:25.000Z</time>
      </trkpt>
      <trkpt lat="43.51674" lon="6.24615">
        <ele>185.6</ele>
        <time>2025-02-05T13:22:31.000Z</time>
      </trkpt>
      <trkpt lat="43.51678" lon="6.24618">
        <ele>186.9</ele>
        <time>2025-02-05T13:22:40.000Z</time>
      </trkpt>
      <trkpt lat="43.51682" lon="6.2462">
        <ele>188</ele>
        <time>2025-02-05T13:22:47.000Z</time>
      </trkpt>
      <trkpt lat="43.51687" lon="6.24623">
        <ele>189</ele>
        <time>2025-02-05T13:22:55.000Z</time>
      </trkpt>
      <trkpt lat="43.51691" lon="6.24627">
        <ele>190</ele>
        <time>2025-02-05T13:23:05.000Z</time>
      </trkpt>
      <trkpt lat="43.51693" lon="6.24633">
        <ele>190.6</ele>
        <time>2025-02-05T13:23:09.000Z</time>
      </trkpt>
      <trkpt lat="43.51697" lon="6.24637">
        <ele>191.1</ele>
        <time>2025-02-05T13:23:12.000Z</time>
      </trkpt>
      <trkpt lat="43.51699" lon="6.24643">
        <ele>191.9</ele>
        <time>2025-02-05T13:23:17.000Z</time>
      </trkpt>
      <trkpt lat="43.51699" lon="6.2465">
        <ele>192.6</ele>
        <time>2025-02-05T13:23:22.000Z</time>
      </trkpt>
      <trkpt lat="43.51697" lon="6.24656">
        <ele>193.3</ele>
        <time>2025-02-05T13:23:28.000Z</time>
      </trkpt>
      <trkpt lat="43.51695" lon="6.24663">
        <ele>194.2</ele>
        <time>2025-02-05T13:23:35.000Z</time>
      </trkpt>
      <trkpt lat="43.51694" lon="6.24669">
        <ele>195.1</ele>
        <time>2025-02-05T13:23:42.000Z</time>
      </trkpt>
      <trkpt lat="43.51695" lon="6.24675">
        <ele>196</ele>
        <time>2025-02-05T13:23:50.000Z</time>
      </trkpt>
      <trkpt lat="43.51699" lon="6.24681">
        <ele>196.4</ele>
        <time>2025-02-05T13:23:55.000Z</time>
      </trkpt>
      <trkpt lat="43.51704" lon="6.24683">
        <ele>196.9</ele>
        <time>2025-02-05T13:24:09.000Z</time>
      </trkpt>
      <trkpt lat="43.517" lon="6.24686">
        <ele>197.3</ele>
        <time>2025-02-05T13:24:32.000Z</time>
      </trkpt>
      <trkpt lat="43.51705" lon="6.24685">
        <ele>197.6</ele>
        <time>2025-02-05T13:25:06.000Z</time>
      </trkpt>
      <trkpt lat="43.5171" lon="6.24684">
        <ele>197.7</ele>
        <time>2025-02-05T13:25:10.000Z</time>
      </trkpt>
      <trkpt lat="43.51715" lon="6.24685">
        <ele>198</ele>
        <time>2025-02-05T13:25:15.000Z</time>
      </trkpt>
      <trkpt lat="43.5172" lon="6.24685">
        <ele>198.2</ele>
        <time>2025-02-05T13:25:21.000Z</time>
      </trkpt>
      <trkpt lat="43.51725" lon="6.24686">
        <ele>198.6</ele>
        <time>2025-02-05T13:25:27.000Z</time>
      </trkpt>
      <trkpt lat="43.51729" lon="6.24688">
        <ele>198.9</ele>
        <time>2025-02-05T13:25:31.000Z</time>
      </trkpt>
      <trkpt lat="43.51734" lon="6.2469">
        <ele>199.2</ele>
        <time>2025-02-05T13:25:36.000Z</time>
      </trkpt>
      <trkpt lat="43.51739" lon="6.24693">
        <ele>199.7</ele>
        <time>2025-02-05T13:25:41.000Z</time>
      </trkpt>
      <trkpt lat="43.51744" lon="6.24694">
        <ele>200.4</ele>
        <time>2025-02-05T13:25:46.000Z</time>
      </trkpt>
      <trkpt lat="43.51748" lon="6.24696">
        <ele>200.8</ele>
        <time>2025-02-05T13:25:51.000Z</time>
      </trkpt>
      <trkpt lat="43.51753" lon="6.24696">
        <ele>201.6</ele>
        <time>2025-02-05T13:25:57.000Z</time>
      </trkpt>
      <trkpt lat="43.51759" lon="6.24698">
        <ele>202.3</ele>
        <time>2025-02-05T13:26:02.000Z</time>
      </trkpt>
      <trkpt lat="43.51763" lon="6.24699">
        <ele>203</ele>
        <time>2025-02-05T13:26:08.000Z</time>
      </trkpt>
      <trkpt lat="43.51768" lon="6.24699">
        <ele>203.5</ele>
        <time>2025-02-05T13:26:15.000Z</time>
      </trkpt>
      <trkpt lat="43.51774" lon="6.247">
        <ele>204.4</ele>
        <time>2025-02-05T13:26:21.000Z</time>
      </trkpt>
      <trkpt lat="43.51779" lon="6.24701">
        <ele>205.2</ele>
        <time>2025-02-05T13:26:27.000Z</time>
      </trkpt>
      <trkpt lat="43.51784" lon="6.24703">
        <ele>206.3</ele>
        <time>2025-02-05T13:26:33.000Z</time>
      </trkpt>
      <trkpt lat="43.51789" lon="6.24704">
        <ele>207.1</ele>
        <time>2025-02-05T13:26:40.000Z</time>
      </trkpt>
      <trkpt lat="43.51794" lon="6.24705">
        <ele>208.5</ele>
        <time>2025-02-05T13:26:47.000Z</time>
      </trkpt>
      <trkpt lat="43.51798" lon="6.24703">
        <ele>209.5</ele>
        <time>2025-02-05T13:26:53.000Z</time>
      </trkpt>
      <trkpt lat="43.51803" lon="6.24702">
        <ele>210.3</ele>
        <time>2025-02-05T13:26:59.000Z</time>
      </trkpt>
      <trkpt lat="43.51807" lon="6.24707">
        <ele>211.6</ele>
        <time>2025-02-05T13:27:09.000Z</time>
      </trkpt>
      <trkpt lat="43.51808" lon="6.24713">
        <ele>213.1</ele>
        <time>2025-02-05T13:27:19.000Z</time>
      </trkpt>
      <trkpt lat="43.51809" lon="6.2472">
        <ele>213.8</ele>
        <time>2025-02-05T13:27:24.000Z</time>
      </trkpt>
      <trkpt lat="43.5181" lon="6.24726">
        <ele>215</ele>
        <time>2025-02-05T13:27:30.000Z</time>
      </trkpt>
      <trkpt lat="43.51813" lon="6.24732">
        <ele>215.8</ele>
        <time>2025-02-05T13:27:37.000Z</time>
      </trkpt>
      <trkpt lat="43.51817" lon="6.24734">
        <ele>216.2</ele>
        <time>2025-02-05T13:27:43.000Z</time>
      </trkpt>
      <trkpt lat="43.51821" lon="6.24737">
        <ele>216.5</ele>
        <time>2025-02-05T13:27:51.000Z</time>
      </trkpt>
      <trkpt lat="43.51823" lon="6.24743">
        <ele>217.1</ele>
        <time>2025-02-05T13:27:58.000Z</time>
      </trkpt>
      <trkpt lat="43.51826" lon="6.24749">
        <ele>217.2</ele>
        <time>2025-02-05T13:28:04.000Z</time>
      </trkpt>
      <trkpt lat="43.51831" lon="6.2475">
        <ele>218.3</ele>
        <time>2025-02-05T13:28:16.000Z</time>
      </trkpt>
      <trkpt lat="43.51836" lon="6.24751">
        <ele>219.8</ele>
        <time>2025-02-05T13:28:27.000Z</time>
      </trkpt>
      <trkpt lat="43.5184" lon="6.24754">
        <ele>220.9</ele>
        <time>2025-02-05T13:28:35.000Z</time>
      </trkpt>
      <trkpt lat="43.51841" lon="6.2476">
        <ele>221.9</ele>
        <time>2025-02-05T13:28:43.000Z</time>
      </trkpt>
      <trkpt lat="43.51845" lon="6.24766">
        <ele>222.2</ele>
        <time>2025-02-05T13:28:47.000Z</time>
      </trkpt>
      <trkpt lat="43.51848" lon="6.2477">
        <ele>223</ele>
        <time>2025-02-05T13:28:53.000Z</time>
      </trkpt>
      <trkpt lat="43.5185" lon="6.24777">
        <ele>224.3</ele>
        <time>2025-02-05T13:29:01.000Z</time>
      </trkpt>
      <trkpt lat="43.51852" lon="6.24783">
        <ele>225.4</ele>
        <time>2025-02-05T13:29:09.000Z</time>
      </trkpt>
      <trkpt lat="43.51854" lon="6.24789">
        <ele>226.2</ele>
        <time>2025-02-05T13:29:15.000Z</time>
      </trkpt>
      <trkpt lat="43.51856" lon="6.24797">
        <ele>226.6</ele>
        <time>2025-02-05T13:29:20.000Z</time>
      </trkpt>
      <trkpt lat="43.51856" lon="6.24804">
        <ele>227.5</ele>
        <time>2025-02-05T13:29:29.000Z</time>
      </trkpt>
      <trkpt lat="43.51857" lon="6.2481">
        <ele>228.3</ele>
        <time>2025-02-05T13:29:35.000Z</time>
      </trkpt>
      <trkpt lat="43.5186" lon="6.24816">
        <ele>229</ele>
        <time>2025-02-05T13:29:40.000Z</time>
      </trkpt>
      <trkpt lat="43.51859" lon="6.24823">
        <ele>230.1</ele>
        <time>2025-02-05T13:29:48.000Z</time>
      </trkpt>
      <trkpt lat="43.51862" lon="6.24829">
        <ele>231</ele>
        <time>2025-02-05T13:29:56.000Z</time>
      </trkpt>
      <trkpt lat="43.51867" lon="6.24832">
        <ele>231.8</ele>
        <time>2025-02-05T13:30:02.000Z</time>
      </trkpt>
      <trkpt lat="43.5187" lon="6.24837">
        <ele>233.1</ele>
        <time>2025-02-05T13:30:10.000Z</time>
      </trkpt>
      <trkpt lat="43.51873" lon="6.24842">
        <ele>233.9</ele>
        <time>2025-02-05T13:30:16.000Z</time>
      </trkpt>
      <trkpt lat="43.51876" lon="6.24847">
        <ele>234.5</ele>
        <time>2025-02-05T13:30:21.000Z</time>
      </trkpt>
      <trkpt lat="43.51877" lon="6.24853">
        <ele>234.9</ele>
        <time>2025-02-05T13:30:26.000Z</time>
      </trkpt>
      <trkpt lat="43.51879" lon="6.2486">
        <ele>235.8</ele>
        <time>2025-02-05T13:30:35.000Z</time>
      </trkpt>
      <trkpt lat="43.51882" lon="6.24866">
        <ele>236.5</ele>
        <time>2025-02-05T13:30:42.000Z</time>
      </trkpt>
      <trkpt lat="43.51884" lon="6.24871">
        <ele>237.1</ele>
        <time>2025-02-05T13:30:46.000Z</time>
      </trkpt>
      <trkpt lat="43.51887" lon="6.24876">
        <ele>238</ele>
        <time>2025-02-05T13:30:53.000Z</time>
      </trkpt>
      <trkpt lat="43.51891" lon="6.2488">
        <ele>238.7</ele>
        <time>2025-02-05T13:31:00.000Z</time>
      </trkpt>
      <trkpt lat="43.51895" lon="6.24884">
        <ele>239.4</ele>
        <time>2025-02-05T13:31:05.000Z</time>
      </trkpt>
      <trkpt lat="43.51898" lon="6.24888">
        <ele>240.2</ele>
        <time>2025-02-05T13:31:11.000Z</time>
      </trkpt>
      <trkpt lat="43.51902" lon="6.24893">
        <ele>241.2</ele>
        <time>2025-02-05T13:31:18.000Z</time>
      </trkpt>
      <trkpt lat="43.51904" lon="6.24899">
        <ele>241.9</ele>
        <time>2025-02-05T13:31:23.000Z</time>
      </trkpt>
      <trkpt lat="43.51906" lon="6.24905">
        <ele>242.4</ele>
        <time>2025-02-05T13:31:28.000Z</time>
      </trkpt>
      <trkpt lat="43.51908" lon="6.24912">
        <ele>243</ele>
        <time>2025-02-05T13:31:33.000Z</time>
      </trkpt>
      <trkpt lat="43.51911" lon="6.24917">
        <ele>243.5</ele>
        <time>2025-02-05T13:31:38.000Z</time>
      </trkpt>
      <trkpt lat="43.51916" lon="6.24919">
        <ele>244.4</ele>
        <time>2025-02-05T13:31:44.000Z</time>
      </trkpt>
      <trkpt lat="43.51921" lon="6.24917">
        <ele>245</ele>
        <time>2025-02-05T13:31:49.000Z</time>
      </trkpt>
      <trkpt lat="43.51925" lon="6.24918">
        <ele>245.9</ele>
        <time>2025-02-05T13:31:55.000Z</time>
      </trkpt>
      <trkpt lat="43.51926" lon="6.24924">
        <ele>246.5</ele>
        <time>2025-02-05T13:32:00.000Z</time>
      </trkpt>
      <trkpt lat="43.51931" lon="6.24928">
        <ele>247.3</ele>
        <time>2025-02-05T13:32:08.000Z</time>
      </trkpt>
      <trkpt lat="43.51934" lon="6.24932">
        <ele>247.9</ele>
        <time>2025-02-05T13:32:13.000Z</time>
      </trkpt>
      <trkpt lat="43.51939" lon="6.24934">
        <ele>248.3</ele>
        <time>2025-02-05T13:32:16.000Z</time>
      </trkpt>
      <trkpt lat="43.51944" lon="6.24937">
        <ele>248.7</ele>
        <time>2025-02-05T13:32:20.000Z</time>
      </trkpt>
      <trkpt lat="43.51949" lon="6.2494">
        <ele>249.3</ele>
        <time>2025-02-05T13:32:25.000Z</time>
      </trkpt>
      <trkpt lat="43.51949" lon="6.24947">
        <ele>249.8</ele>
        <time>2025-02-05T13:32:30.000Z</time>
      </trkpt>
      <trkpt lat="43.51954" lon="6.24948">
        <ele>250.2</ele>
        <time>2025-02-05T13:32:34.000Z</time>
      </trkpt>
      <trkpt lat="43.51959" lon="6.24949">
        <ele>250.4</ele>
        <time>2025-02-05T13:32:37.000Z</time>
      </trkpt>
      <trkpt lat="43.51962" lon="6.24944">
        <ele>251.2</ele>
        <time>2025-02-05T13:32:44.000Z</time>
      </trkpt>
      <trkpt lat="43.51967" lon="6.24943">
        <ele>251.9</ele>
        <time>2025-02-05T13:32:51.000Z</time>
      </trkpt>
      <trkpt lat="43.51971" lon="6.24944">
        <ele>252.8</ele>
        <time>2025-02-05T13:32:56.000Z</time>
      </trkpt>
      <trkpt lat="43.51976" lon="6.24943">
        <ele>254.3</ele>
        <time>2025-02-05T13:33:04.000Z</time>
      </trkpt>
      <trkpt lat="43.5198" lon="6.2494">
        <ele>255.4</ele>
        <time>2025-02-05T13:33:11.000Z</time>
      </trkpt>
      <trkpt lat="43.51985" lon="6.24937">
        <ele>256.1</ele>
        <time>2025-02-05T13:33:16.000Z</time>
      </trkpt>
      <trkpt lat="43.5199" lon="6.24937">
        <ele>256.7</ele>
        <time>2025-02-05T13:33:20.000Z</time>
      </trkpt>
      <trkpt lat="43.51995" lon="6.24937">
        <ele>257.8</ele>
        <time>2025-02-05T13:33:29.000Z</time>
      </trkpt>
      <trkpt lat="43.52" lon="6.24936">
        <ele>258.6</ele>
        <time>2025-02-05T13:33:36.000Z</time>
      </trkpt>
      <trkpt lat="43.52005" lon="6.24936">
        <ele>260.1</ele>
        <time>2025-02-05T13:33:47.000Z</time>
      </trkpt>
      <trkpt lat="43.52007" lon="6.24943">
        <ele>260.5</ele>
        <time>2025-02-05T13:33:51.000Z</time>
      </trkpt>
      <trkpt lat="43.52011" lon="6.24946">
        <ele>261</ele>
        <time>2025-02-05T13:33:55.000Z</time>
      </trkpt>
      <trkpt lat="43.52013" lon="6.24952">
        <ele>261.4</ele>
        <time>2025-02-05T13:33:59.000Z</time>
      </trkpt>
      <trkpt lat="43.52014" lon="6.24958">
        <ele>261.8</ele>
        <time>2025-02-05T13:34:03.000Z</time>
      </trkpt>
      <trkpt lat="43.52018" lon="6.24961">
        <ele>262.9</ele>
        <time>2025-02-05T13:34:13.000Z</time>
      </trkpt>
      <trkpt lat="43.52022" lon="6.24965">
        <ele>263.9</ele>
        <time>2025-02-05T13:34:22.000Z</time>
      </trkpt>
      <trkpt lat="43.52024" lon="6.24971">
        <ele>264.4</ele>
        <time>2025-02-05T13:34:27.000Z</time>
      </trkpt>
      <trkpt lat="43.52028" lon="6.24975">
        <ele>265.1</ele>
        <time>2025-02-05T13:34:34.000Z</time>
      </trkpt>
      <trkpt lat="43.52031" lon="6.24981">
        <ele>266</ele>
        <time>2025-02-05T13:34:44.000Z</time>
      </trkpt>
      <trkpt lat="43.52035" lon="6.24986">
        <ele>266.5</ele>
        <time>2025-02-05T13:34:51.000Z</time>
      </trkpt>
      <trkpt lat="43.52039" lon="6.24991">
        <ele>267.2</ele>
        <time>2025-02-05T13:34:59.000Z</time>
      </trkpt>
      <trkpt lat="43.5204" lon="6.24998">
        <ele>267.5</ele>
        <time>2025-02-05T13:35:03.000Z</time>
      </trkpt>
      <trkpt lat="43.52042" lon="6.25004">
        <ele>268.1</ele>
        <time>2025-02-05T13:35:08.000Z</time>
      </trkpt>
      <trkpt lat="43.52044" lon="6.25011">
        <ele>268.6</ele>
        <time>2025-02-05T13:35:14.000Z</time>
      </trkpt>
      <trkpt lat="43.52046" lon="6.25016">
        <ele>268.9</ele>
        <time>2025-02-05T13:35:20.000Z</time>
      </trkpt>
      <trkpt lat="43.5205" lon="6.25021">
        <ele>269.5</ele>
        <time>2025-02-05T13:35:27.000Z</time>
      </trkpt>
      <trkpt lat="43.52053" lon="6.25027">
        <ele>270.1</ele>
        <time>2025-02-05T13:35:33.000Z</time>
      </trkpt>
      <trkpt lat="43.52056" lon="6.25032">
        <ele>270.7</ele>
        <time>2025-02-05T13:35:39.000Z</time>
      </trkpt>
      <trkpt lat="43.52059" lon="6.25037">
        <ele>271.2</ele>
        <time>2025-02-05T13:35:44.000Z</time>
      </trkpt>
      <trkpt lat="43.52062" lon="6.25041">
        <ele>271.9</ele>
        <time>2025-02-05T13:35:50.000Z</time>
      </trkpt>
      <trkpt lat="43.52064" lon="6.25047">
        <ele>273</ele>
        <time>2025-02-05T13:35:58.000Z</time>
      </trkpt>
      <trkpt lat="43.52067" lon="6.25053">
        <ele>273.9</ele>
        <time>2025-02-05T13:36:05.000Z</time>
      </trkpt>
      <trkpt lat="43.52068" lon="6.25059">
        <ele>274.5</ele>
        <time>2025-02-05T13:36:11.000Z</time>
      </trkpt>
      <trkpt lat="43.5207" lon="6.25066">
        <ele>275.9</ele>
        <time>2025-02-05T13:36:21.000Z</time>
      </trkpt>
      <trkpt lat="43.52073" lon="6.25071">
        <ele>277.4</ele>
        <time>2025-02-05T13:36:31.000Z</time>
      </trkpt>
      <trkpt lat="43.52076" lon="6.25076">
        <ele>278.1</ele>
        <time>2025-02-05T13:36:35.000Z</time>
      </trkpt>
      <trkpt lat="43.52079" lon="6.25081">
        <ele>278.8</ele>
        <time>2025-02-05T13:36:41.000Z</time>
      </trkpt>
      <trkpt lat="43.52083" lon="6.25084">
        <ele>279.6</ele>
        <time>2025-02-05T13:36:48.000Z</time>
      </trkpt>
      <trkpt lat="43.52087" lon="6.25087">
        <ele>280.2</ele>
        <time>2025-02-05T13:36:54.000Z</time>
      </trkpt>
      <trkpt lat="43.52092" lon="6.2509">
        <ele>280.6</ele>
        <time>2025-02-05T13:36:59.000Z</time>
      </trkpt>
      <trkpt lat="43.52097" lon="6.25092">
        <ele>281.1</ele>
        <time>2025-02-05T13:37:05.000Z</time>
      </trkpt>
      <trkpt lat="43.52101" lon="6.25096">
        <ele>281.6</ele>
        <time>2025-02-05T13:37:11.000Z</time>
      </trkpt>
      <trkpt lat="43.52106" lon="6.251">
        <ele>282.1</ele>
        <time>2025-02-05T13:37:17.000Z</time>
      </trkpt>
      <trkpt lat="43.5211" lon="6.25103">
        <ele>282.5</ele>
        <time>2025-02-05T13:37:24.000Z</time>
      </trkpt>
      <trkpt lat="43.52114" lon="6.25105">
        <ele>283.8</ele>
        <time>2025-02-05T13:38:16.000Z</time>
      </trkpt>
      <trkpt lat="43.5211" lon="6.25101">
        <ele>283.9</ele>
        <time>2025-02-05T13:38:53.000Z</time>
      </trkpt>
      <trkpt lat="43.52113" lon="6.25106">
        <ele>284.2</ele>
        <time>2025-02-05T13:39:45.000Z</time>
      </trkpt>
      <trkpt lat="43.52117" lon="6.25103">
        <ele>284.4</ele>
        <time>2025-02-05T13:41:42.000Z</time>
      </trkpt>
      <trkpt lat="43.52122" lon="6.25106">
        <ele>284.5</ele>
        <time>2025-02-05T13:41:57.000Z</time>
      </trkpt>
      <trkpt lat="43.52117" lon="6.25108">
        <ele>284.5</ele>
        <time>2025-02-05T13:42:02.000Z</time>
      </trkpt>
      <trkpt lat="43.52122" lon="6.2511">
        <ele>284.3</ele>
        <time>2025-02-05T13:42:38.000Z</time>
      </trkpt>
      <trkpt lat="43.5212" lon="6.25105">
        <ele>284.3</ele>
        <time>2025-02-05T13:42:53.000Z</time>
      </trkpt>
      <trkpt lat="43.52115" lon="6.25102">
        <ele>284.3</ele>
        <time>2025-02-05T13:43:00.000Z</time>
      </trkpt>
      <trkpt lat="43.52111" lon="6.25107">
        <ele>284.2</ele>
        <time>2025-02-05T13:43:18.000Z</time>
      </trkpt>
      <trkpt lat="43.52107" lon="6.2511">
        <ele>284</ele>
        <time>2025-02-05T13:44:07.000Z</time>
      </trkpt>
      <trkpt lat="43.52112" lon="6.25112">
        <ele>284.4</ele>
        <time>2025-02-05T13:45:19.000Z</time>
      </trkpt>
      <trkpt lat="43.52117" lon="6.25114">
        <ele>284.5</ele>
        <time>2025-02-05T13:45:40.000Z</time>
      </trkpt>
      <trkpt lat="43.52118" lon="6.2512">
        <ele>284.4</ele>
        <time>2025-02-05T13:45:48.000Z</time>
      </trkpt>
      <trkpt lat="43.5212" lon="6.25128">
        <ele>284.4</ele>
        <time>2025-02-05T13:45:53.000Z</time>
      </trkpt>
      <trkpt lat="43.5212" lon="6.25134">
        <ele>284.2</ele>
        <time>2025-02-05T13:45:58.000Z</time>
      </trkpt>
      <trkpt lat="43.5212" lon="6.25141">
        <ele>284.1</ele>
        <time>2025-02-05T13:46:02.000Z</time>
      </trkpt>
      <trkpt lat="43.52119" lon="6.25147">
        <ele>284</ele>
        <time>2025-02-05T13:46:08.000Z</time>
      </trkpt>
      <trkpt lat="43.5212" lon="6.25154">
        <ele>283.8</ele>
        <time>2025-02-05T13:46:13.000Z</time>
      </trkpt>
      <trkpt lat="43.52119" lon="6.25162">
        <ele>283.6</ele>
        <time>2025-02-05T13:46:18.000Z</time>
      </trkpt>
      <trkpt lat="43.5212" lon="6.25169">
        <ele>283.2</ele>
        <time>2025-02-05T13:46:24.000Z</time>
      </trkpt>
      <trkpt lat="43.52121" lon="6.25176">
        <ele>282.8</ele>
        <time>2025-02-05T13:46:31.000Z</time>
      </trkpt>
      <trkpt lat="43.52121" lon="6.25182">
        <ele>282.6</ele>
        <time>2025-02-05T13:46:38.000Z</time>
      </trkpt>
      <trkpt lat="43.5212" lon="6.25189">
        <ele>282.4</ele>
        <time>2025-02-05T13:46:43.000Z</time>
      </trkpt>
      <trkpt lat="43.5212" lon="6.25196">
        <ele>282.4</ele>
        <time>2025-02-05T13:46:47.000Z</time>
      </trkpt>
      <trkpt lat="43.5212" lon="6.25203">
        <ele>282.3</ele>
        <time>2025-02-05T13:46:52.000Z</time>
      </trkpt>
      <trkpt lat="43.52121" lon="6.2521">
        <ele>282.3</ele>
        <time>2025-02-05T13:46:56.000Z</time>
      </trkpt>
      <trkpt lat="43.52122" lon="6.25216">
        <ele>282.3</ele>
        <time>2025-02-05T13:47:00.000Z</time>
      </trkpt>
      <trkpt lat="43.52123" lon="6.25223">
        <ele>282.2</ele>
        <time>2025-02-05T13:47:04.000Z</time>
      </trkpt>
      <trkpt lat="43.52123" lon="6.25229">
        <ele>282.2</ele>
        <time>2025-02-05T13:47:08.000Z</time>
      </trkpt>
      <trkpt lat="43.52124" lon="6.25237">
        <ele>282.2</ele>
        <time>2025-02-05T13:47:13.000Z</time>
      </trkpt>
      <trkpt lat="43.52124" lon="6.25244">
        <ele>282.3</ele>
        <time>2025-02-05T13:47:18.000Z</time>
      </trkpt>
      <trkpt lat="43.52125" lon="6.2525">
        <ele>282.4</ele>
        <time>2025-02-05T13:47:22.000Z</time>
      </trkpt>
      <trkpt lat="43.52127" lon="6.25257">
        <ele>282.5</ele>
        <time>2025-02-05T13:47:27.000Z</time>
      </trkpt>
      <trkpt lat="43.52127" lon="6.25263">
        <ele>282.6</ele>
        <time>2025-02-05T13:47:31.000Z</time>
      </trkpt>
      <trkpt lat="43.52127" lon="6.25271">
        <ele>282.8</ele>
        <time>2025-02-05T13:47:36.000Z</time>
      </trkpt>
      <trkpt lat="43.52127" lon="6.25278">
        <ele>283</ele>
        <time>2025-02-05T13:47:41.000Z</time>
      </trkpt>
      <trkpt lat="43.52126" lon="6.25285">
        <ele>283.2</ele>
        <time>2025-02-05T13:47:45.000Z</time>
      </trkpt>
      <trkpt lat="43.52127" lon="6.25292">
        <ele>283.4</ele>
        <time>2025-02-05T13:47:50.000Z</time>
      </trkpt>
      <trkpt lat="43.52128" lon="6.25299">
        <ele>283.7</ele>
        <time>2025-02-05T13:47:55.000Z</time>
      </trkpt>
      <trkpt lat="43.52128" lon="6.25305">
        <ele>284</ele>
        <time>2025-02-05T13:48:00.000Z</time>
      </trkpt>
      <trkpt lat="43.52127" lon="6.25312">
        <ele>284.3</ele>
        <time>2025-02-05T13:48:04.000Z</time>
      </trkpt>
      <trkpt lat="43.52127" lon="6.25319">
        <ele>284.7</ele>
        <time>2025-02-05T13:48:09.000Z</time>
      </trkpt>
      <trkpt lat="43.52128" lon="6.25325">
        <ele>285</ele>
        <time>2025-02-05T13:48:14.000Z</time>
      </trkpt>
      <trkpt lat="43.52129" lon="6.25332">
        <ele>285.2</ele>
        <time>2025-02-05T13:48:19.000Z</time>
      </trkpt>
      <trkpt lat="43.5213" lon="6.25339">
        <ele>285.3</ele>
        <time>2025-02-05T13:48:23.000Z</time>
      </trkpt>
      <trkpt lat="43.52131" lon="6.25346">
        <ele>285.4</ele>
        <time>2025-02-05T13:48:27.000Z</time>
      </trkpt>
      <trkpt lat="43.52134" lon="6.25353">
        <ele>285.6</ele>
        <time>2025-02-05T13:48:32.000Z</time>
      </trkpt>
      <trkpt lat="43.52137" lon="6.25358">
        <ele>285.7</ele>
        <time>2025-02-05T13:48:35.000Z</time>
      </trkpt>
      <trkpt lat="43.52137" lon="6.25366">
        <ele>285.8</ele>
        <time>2025-02-05T13:48:40.000Z</time>
      </trkpt>
      <trkpt lat="43.52137" lon="6.25373">
        <ele>285.8</ele>
        <time>2025-02-05T13:48:45.000Z</time>
      </trkpt>
      <trkpt lat="43.52137" lon="6.2538">
        <ele>285.8</ele>
        <time>2025-02-05T13:48:51.000Z</time>
      </trkpt>
      <trkpt lat="43.52138" lon="6.25386">
        <ele>285.9</ele>
        <time>2025-02-05T13:48:56.000Z</time>
      </trkpt>
      <trkpt lat="43.52141" lon="6.25393">
        <ele>285.9</ele>
        <time>2025-02-05T13:49:01.000Z</time>
      </trkpt>
      <trkpt lat="43.52143" lon="6.25399">
        <ele>285.8</ele>
        <time>2025-02-05T13:49:06.000Z</time>
      </trkpt>
      <trkpt lat="43.52146" lon="6.25404">
        <ele>285.6</ele>
        <time>2025-02-05T13:49:10.000Z</time>
      </trkpt>
      <trkpt lat="43.5215" lon="6.25408">
        <ele>285.3</ele>
        <time>2025-02-05T13:49:14.000Z</time>
      </trkpt>
      <trkpt lat="43.52151" lon="6.25415">
        <ele>284.9</ele>
        <time>2025-02-05T13:49:20.000Z</time>
      </trkpt>
      <trkpt lat="43.52153" lon="6.25421">
        <ele>284.7</ele>
        <time>2025-02-05T13:49:24.000Z</time>
      </trkpt>
      <trkpt lat="43.52155" lon="6.25427">
        <ele>284.5</ele>
        <time>2025-02-05T13:49:28.000Z</time>
      </trkpt>
      <trkpt lat="43.52156" lon="6.25434">
        <ele>284.3</ele>
        <time>2025-02-05T13:49:32.000Z</time>
      </trkpt>
      <trkpt lat="43.52155" lon="6.2544">
        <ele>283.9</ele>
        <time>2025-02-05T13:49:37.000Z</time>
      </trkpt>
      <trkpt lat="43.52153" lon="6.25446">
        <ele>283.5</ele>
        <time>2025-02-05T13:49:44.000Z</time>
      </trkpt>
      <trkpt lat="43.52154" lon="6.25454">
        <ele>283.4</ele>
        <time>2025-02-05T13:49:49.000Z</time>
      </trkpt>
      <trkpt lat="43.52156" lon="6.2546">
        <ele>283.1</ele>
        <time>2025-02-05T13:49:54.000Z</time>
      </trkpt>
      <trkpt lat="43.52158" lon="6.25466">
        <ele>282.6</ele>
        <time>2025-02-05T13:50:00.000Z</time>
      </trkpt>
      <trkpt lat="43.52161" lon="6.25471">
        <ele>282.2</ele>
        <time>2025-02-05T13:50:06.000Z</time>
      </trkpt>
      <trkpt lat="43.52165" lon="6.25477">
        <ele>281.8</ele>
        <time>2025-02-05T13:50:12.000Z</time>
      </trkpt>
      <trkpt lat="43.52167" lon="6.25484">
        <ele>281.5</ele>
        <time>2025-02-05T13:50:18.000Z</time>
      </trkpt>
      <trkpt lat="43.52169" lon="6.25492">
        <ele>281.4</ele>
        <time>2025-02-05T13:50:24.000Z</time>
      </trkpt>
      <trkpt lat="43.52168" lon="6.255">
        <ele>281.4</ele>
        <time>2025-02-05T13:50:31.000Z</time>
      </trkpt>
      <trkpt lat="43.52167" lon="6.25507">
        <ele>281.5</ele>
        <time>2025-02-05T13:50:36.000Z</time>
      </trkpt>
      <trkpt lat="43.52167" lon="6.25514">
        <ele>282.1</ele>
        <time>2025-02-05T13:50:42.000Z</time>
      </trkpt>
      <trkpt lat="43.52166" lon="6.25521">
        <ele>282.4</ele>
        <time>2025-02-05T13:50:46.000Z</time>
      </trkpt>
      <trkpt lat="43.52166" lon="6.25527">
        <ele>282.9</ele>
        <time>2025-02-05T13:50:51.000Z</time>
      </trkpt>
      <trkpt lat="43.52165" lon="6.25534">
        <ele>283.4</ele>
        <time>2025-02-05T13:50:56.000Z</time>
      </trkpt>
      <trkpt lat="43.52162" lon="6.25539">
        <ele>283.7</ele>
        <time>2025-02-05T13:50:59.000Z</time>
      </trkpt>
      <trkpt lat="43.52159" lon="6.25544">
        <ele>284.4</ele>
        <time>2025-02-05T13:51:05.000Z</time>
      </trkpt>
      <trkpt lat="43.5216" lon="6.25552">
        <ele>285</ele>
        <time>2025-02-05T13:51:11.000Z</time>
      </trkpt>
      <trkpt lat="43.52158" lon="6.25559">
        <ele>285.4</ele>
        <time>2025-02-05T13:51:15.000Z</time>
      </trkpt>
      <trkpt lat="43.52156" lon="6.25565">
        <ele>285.7</ele>
        <time>2025-02-05T13:51:19.000Z</time>
      </trkpt>
      <trkpt lat="43.52154" lon="6.25572">
        <ele>286.1</ele>
        <time>2025-02-05T13:51:24.000Z</time>
      </trkpt>
      <trkpt lat="43.52156" lon="6.25579">
        <ele>286.3</ele>
        <time>2025-02-05T13:51:27.000Z</time>
      </trkpt>
      <trkpt lat="43.52156" lon="6.25586">
        <ele>286.8</ele>
        <time>2025-02-05T13:51:32.000Z</time>
      </trkpt>
      <trkpt lat="43.52154" lon="6.25591">
        <ele>286.9</ele>
        <time>2025-02-05T13:51:36.000Z</time>
      </trkpt>
      <trkpt lat="43.5215" lon="6.25596">
        <ele>287.1</ele>
        <time>2025-02-05T13:51:39.000Z</time>
      </trkpt>
      <trkpt lat="43.52147" lon="6.256">
        <ele>287.3</ele>
        <time>2025-02-05T13:51:41.000Z</time>
      </trkpt>
      <trkpt lat="43.52145" lon="6.25606">
        <ele>287.5</ele>
        <time>2025-02-05T13:51:44.000Z</time>
      </trkpt>
      <trkpt lat="43.52145" lon="6.25612">
        <ele>287.8</ele>
        <time>2025-02-05T13:51:48.000Z</time>
      </trkpt>
      <trkpt lat="43.52144" lon="6.25619">
        <ele>288.4</ele>
        <time>2025-02-05T13:51:56.000Z</time>
      </trkpt>
      <trkpt lat="43.52144" lon="6.25627">
        <ele>288.7</ele>
        <time>2025-02-05T13:52:01.000Z</time>
      </trkpt>
      <trkpt lat="43.52144" lon="6.25634">
        <ele>288.8</ele>
        <time>2025-02-05T13:52:05.000Z</time>
      </trkpt>
      <trkpt lat="43.52141" lon="6.25642">
        <ele>289</ele>
        <time>2025-02-05T13:52:09.000Z</time>
      </trkpt>
      <trkpt lat="43.5214" lon="6.25648">
        <ele>289.1</ele>
        <time>2025-02-05T13:52:13.000Z</time>
      </trkpt>
      <trkpt lat="43.52138" lon="6.25653">
        <ele>289.5</ele>
        <time>2025-02-05T13:52:19.000Z</time>
      </trkpt>
      <trkpt lat="43.52138" lon="6.25661">
        <ele>289.9</ele>
        <time>2025-02-05T13:52:25.000Z</time>
      </trkpt>
      <trkpt lat="43.52138" lon="6.25668">
        <ele>290.2</ele>
        <time>2025-02-05T13:52:30.000Z</time>
      </trkpt>
      <trkpt lat="43.52135" lon="6.25675">
        <ele>290.4</ele>
        <time>2025-02-05T13:52:34.000Z</time>
      </trkpt>
      <trkpt lat="43.52132" lon="6.25682">
        <ele>290.6</ele>
        <time>2025-02-05T13:52:37.000Z</time>
      </trkpt>
      <trkpt lat="43.52133" lon="6.25689">
        <ele>290.8</ele>
        <time>2025-02-05T13:52:41.000Z</time>
      </trkpt>
      <trkpt lat="43.52131" lon="6.25695">
        <ele>290.9</ele>
        <time>2025-02-05T13:52:45.000Z</time>
      </trkpt>
      <trkpt lat="43.5213" lon="6.25703">
        <ele>291</ele>
        <time>2025-02-05T13:52:49.000Z</time>
      </trkpt>
      <trkpt lat="43.52129" lon="6.2571">
        <ele>291.2</ele>
        <time>2025-02-05T13:52:55.000Z</time>
      </trkpt>
      <trkpt lat="43.52129" lon="6.25716">
        <ele>291.2</ele>
        <time>2025-02-05T13:52:59.000Z</time>
      </trkpt>
      <trkpt lat="43.52128" lon="6.25723">
        <ele>291.2</ele>
        <time>2025-02-05T13:53:03.000Z</time>
      </trkpt>
      <trkpt lat="43.52124" lon="6.25729">
        <ele>291.2</ele>
        <time>2025-02-05T13:53:08.000Z</time>
      </trkpt>
      <trkpt lat="43.52123" lon="6.25736">
        <ele>291.2</ele>
        <time>2025-02-05T13:53:12.000Z</time>
      </trkpt>
      <trkpt lat="43.52123" lon="6.25742">
        <ele>291.2</ele>
        <time>2025-02-05T13:53:17.000Z</time>
      </trkpt>
      <trkpt lat="43.52123" lon="6.25751">
        <ele>291.2</ele>
        <time>2025-02-05T13:53:21.000Z</time>
      </trkpt>
      <trkpt lat="43.5212" lon="6.25756">
        <ele>291.2</ele>
        <time>2025-02-05T13:53:24.000Z</time>
      </trkpt>
      <trkpt lat="43.5212" lon="6.25763">
        <ele>291</ele>
        <time>2025-02-05T13:53:29.000Z</time>
      </trkpt>
      <trkpt lat="43.52119" lon="6.25771">
        <ele>290.8</ele>
        <time>2025-02-05T13:53:32.000Z</time>
      </trkpt>
      <trkpt lat="43.52115" lon="6.25776">
        <ele>290.8</ele>
        <time>2025-02-05T13:53:38.000Z</time>
      </trkpt>
      <trkpt lat="43.52115" lon="6.25783">
        <ele>290.8</ele>
        <time>2025-02-05T13:53:43.000Z</time>
      </trkpt>
      <trkpt lat="43.52112" lon="6.25789">
        <ele>290.8</ele>
        <time>2025-02-05T13:53:48.000Z</time>
      </trkpt>
      <trkpt lat="43.52111" lon="6.25796">
        <ele>290.8</ele>
        <time>2025-02-05T13:53:52.000Z</time>
      </trkpt>
      <trkpt lat="43.52111" lon="6.25804">
        <ele>291</ele>
        <time>2025-02-05T13:53:57.000Z</time>
      </trkpt>
      <trkpt lat="43.5211" lon="6.25811">
        <ele>291.2</ele>
        <time>2025-02-05T13:54:01.000Z</time>
      </trkpt>
      <trkpt lat="43.52106" lon="6.25815">
        <ele>291.3</ele>
        <time>2025-02-05T13:54:04.000Z</time>
      </trkpt>
      <trkpt lat="43.52106" lon="6.25823">
        <ele>291.5</ele>
        <time>2025-02-05T13:54:08.000Z</time>
      </trkpt>
      <trkpt lat="43.52104" lon="6.25829">
        <ele>291.7</ele>
        <time>2025-02-05T13:54:13.000Z</time>
      </trkpt>
      <trkpt lat="43.52101" lon="6.25836">
        <ele>291.9</ele>
        <time>2025-02-05T13:54:18.000Z</time>
      </trkpt>
      <trkpt lat="43.52097" lon="6.25841">
        <ele>292.3</ele>
        <time>2025-02-05T13:54:23.000Z</time>
      </trkpt>
      <trkpt lat="43.52095" lon="6.25847">
        <ele>292.5</ele>
        <time>2025-02-05T13:54:26.000Z</time>
      </trkpt>
      <trkpt lat="43.52096" lon="6.25853">
        <ele>292.9</ele>
        <time>2025-02-05T13:54:30.000Z</time>
      </trkpt>
      <trkpt lat="43.52096" lon="6.2586">
        <ele>293.4</ele>
        <time>2025-02-05T13:54:35.000Z</time>
      </trkpt>
      <trkpt lat="43.52094" lon="6.25867">
        <ele>293.9</ele>
        <time>2025-02-05T13:54:39.000Z</time>
      </trkpt>
      <trkpt lat="43.52093" lon="6.25873">
        <ele>294.5</ele>
        <time>2025-02-05T13:54:45.000Z</time>
      </trkpt>
      <trkpt lat="43.52091" lon="6.25881">
        <ele>294.9</ele>
        <time>2025-02-05T13:54:50.000Z</time>
      </trkpt>
      <trkpt lat="43.5209" lon="6.25888">
        <ele>295.8</ele>
        <time>2025-02-05T13:54:58.000Z</time>
      </trkpt>
      <trkpt lat="43.52088" lon="6.25895">
        <ele>296.2</ele>
        <time>2025-02-05T13:55:02.000Z</time>
      </trkpt>
      <trkpt lat="43.52085" lon="6.25902">
        <ele>296.6</ele>
        <time>2025-02-05T13:55:06.000Z</time>
      </trkpt>
      <trkpt lat="43.52083" lon="6.2591">
        <ele>297.2</ele>
        <time>2025-02-05T13:55:12.000Z</time>
      </trkpt>
      <trkpt lat="43.52083" lon="6.25918">
        <ele>297.6</ele>
        <time>2025-02-05T13:55:16.000Z</time>
      </trkpt>
      <trkpt lat="43.52081" lon="6.25924">
        <ele>298</ele>
        <time>2025-02-05T13:55:20.000Z</time>
      </trkpt>
      <trkpt lat="43.52079" lon="6.2593">
        <ele>298.3</ele>
        <time>2025-02-05T13:55:24.000Z</time>
      </trkpt>
      <trkpt lat="43.52079" lon="6.25938">
        <ele>298.8</ele>
        <time>2025-02-05T13:55:29.000Z</time>
      </trkpt>
      <trkpt lat="43.52081" lon="6.25944">
        <ele>299.2</ele>
        <time>2025-02-05T13:55:34.000Z</time>
      </trkpt>
      <trkpt lat="43.52077" lon="6.25949">
        <ele>299.6</ele>
        <time>2025-02-05T13:55:38.000Z</time>
      </trkpt>
      <trkpt lat="43.52075" lon="6.25958">
        <ele>300.4</ele>
        <time>2025-02-05T13:55:45.000Z</time>
      </trkpt>
      <trkpt lat="43.52073" lon="6.25964">
        <ele>300.9</ele>
        <time>2025-02-05T13:55:49.000Z</time>
      </trkpt>
      <trkpt lat="43.52072" lon="6.2597">
        <ele>301.2</ele>
        <time>2025-02-05T13:55:53.000Z</time>
      </trkpt>
      <trkpt lat="43.52073" lon="6.25976">
        <ele>301.5</ele>
        <time>2025-02-05T13:55:57.000Z</time>
      </trkpt>
      <trkpt lat="43.52074" lon="6.25985">
        <ele>301.7</ele>
        <time>2025-02-05T13:56:02.000Z</time>
      </trkpt>
      <trkpt lat="43.52072" lon="6.25991">
        <ele>301.9</ele>
        <time>2025-02-05T13:56:06.000Z</time>
      </trkpt>
      <trkpt lat="43.52069" lon="6.25995">
        <ele>302</ele>
        <time>2025-02-05T13:56:09.000Z</time>
      </trkpt>
      <trkpt lat="43.52063" lon="6.25996">
        <ele>302.1</ele>
        <time>2025-02-05T13:56:14.000Z</time>
      </trkpt>
      <trkpt lat="43.52057" lon="6.25995">
        <ele>302.2</ele>
        <time>2025-02-05T13:56:19.000Z</time>
      </trkpt>
      <trkpt lat="43.52053" lon="6.25994">
        <ele>302.3</ele>
        <time>2025-02-05T13:56:24.000Z</time>
      </trkpt>
      <trkpt lat="43.52047" lon="6.25994">
        <ele>302.2</ele>
        <time>2025-02-05T13:56:31.000Z</time>
      </trkpt>
      <trkpt lat="43.52042" lon="6.25995">
        <ele>302.1</ele>
        <time>2025-02-05T13:56:36.000Z</time>
      </trkpt>
      <trkpt lat="43.52036" lon="6.25996">
        <ele>301.8</ele>
        <time>2025-02-05T13:56:41.000Z</time>
      </trkpt>
      <trkpt lat="43.52031" lon="6.25996">
        <ele>301.6</ele>
        <time>2025-02-05T13:56:45.000Z</time>
      </trkpt>
      <trkpt lat="43.52026" lon="6.25996">
        <ele>301.5</ele>
        <time>2025-02-05T13:56:49.000Z</time>
      </trkpt>
      <trkpt lat="43.52022" lon="6.25996">
        <ele>301.5</ele>
        <time>2025-02-05T13:56:55.000Z</time>
      </trkpt>
      <trkpt lat="43.52017" lon="6.26001">
        <ele>301.5</ele>
        <time>2025-02-05T13:57:01.000Z</time>
      </trkpt>
      <trkpt lat="43.52013" lon="6.26005">
        <ele>301.5</ele>
        <time>2025-02-05T13:57:05.000Z</time>
      </trkpt>
      <trkpt lat="43.52008" lon="6.26005">
        <ele>301.5</ele>
        <time>2025-02-05T13:57:08.000Z</time>
      </trkpt>
      <trkpt lat="43.52004" lon="6.2601">
        <ele>301.5</ele>
        <time>2025-02-05T13:57:11.000Z</time>
      </trkpt>
      <trkpt lat="43.51999" lon="6.26013">
        <ele>301.5</ele>
        <time>2025-02-05T13:57:14.000Z</time>
      </trkpt>
      <trkpt lat="43.51994" lon="6.26016">
        <ele>301.4</ele>
        <time>2025-02-05T13:57:19.000Z</time>
      </trkpt>
      <trkpt lat="43.5199" lon="6.26019">
        <ele>301</ele>
        <time>2025-02-05T13:57:24.000Z</time>
      </trkpt>
      <trkpt lat="43.51986" lon="6.26023">
        <ele>300.7</ele>
        <time>2025-02-05T13:57:27.000Z</time>
      </trkpt>
      <trkpt lat="43.51982" lon="6.26027">
        <ele>300.4</ele>
        <time>2025-02-05T13:57:31.000Z</time>
      </trkpt>
      <trkpt lat="43.51977" lon="6.26032">
        <ele>300</ele>
        <time>2025-02-05T13:57:37.000Z</time>
      </trkpt>
      <trkpt lat="43.51972" lon="6.26035">
        <ele>299.8</ele>
        <time>2025-02-05T13:57:41.000Z</time>
      </trkpt>
      <trkpt lat="43.51967" lon="6.26035">
        <ele>299.5</ele>
        <time>2025-02-05T13:57:46.000Z</time>
      </trkpt>
      <trkpt lat="43.51962" lon="6.26038">
        <ele>299.3</ele>
        <time>2025-02-05T13:57:50.000Z</time>
      </trkpt>
      <trkpt lat="43.51957" lon="6.26042">
        <ele>299.2</ele>
        <time>2025-02-05T13:57:54.000Z</time>
      </trkpt>
      <trkpt lat="43.51952" lon="6.26043">
        <ele>299.1</ele>
        <time>2025-02-05T13:57:57.000Z</time>
      </trkpt>
      <trkpt lat="43.51949" lon="6.2605">
        <ele>299</ele>
        <time>2025-02-05T13:58:02.000Z</time>
      </trkpt>
      <trkpt lat="43.51945" lon="6.26054">
        <ele>298.9</ele>
        <time>2025-02-05T13:58:05.000Z</time>
      </trkpt>
      <trkpt lat="43.51941" lon="6.26058">
        <ele>298</ele>
        <time>2025-02-05T13:58:13.000Z</time>
      </trkpt>
      <trkpt lat="43.51941" lon="6.26066">
        <ele>297.7</ele>
        <time>2025-02-05T13:58:17.000Z</time>
      </trkpt>
      <trkpt lat="43.5194" lon="6.26073">
        <ele>297.7</ele>
        <time>2025-02-05T13:58:20.000Z</time>
      </trkpt>
      <trkpt lat="43.51941" lon="6.26079">
        <ele>297.8</ele>
        <time>2025-02-05T13:58:23.000Z</time>
      </trkpt>
      <trkpt lat="43.51939" lon="6.26086">
        <ele>297.8</ele>
        <time>2025-02-05T13:58:27.000Z</time>
      </trkpt>
      <trkpt lat="43.51936" lon="6.26092">
        <ele>297.8</ele>
        <time>2025-02-05T13:58:31.000Z</time>
      </trkpt>
      <trkpt lat="43.51935" lon="6.26099">
        <ele>297.7</ele>
        <time>2025-02-05T13:58:35.000Z</time>
      </trkpt>
      <trkpt lat="43.51934" lon="6.26105">
        <ele>297.7</ele>
        <time>2025-02-05T13:58:39.000Z</time>
      </trkpt>
      <trkpt lat="43.51933" lon="6.26112">
        <ele>297.5</ele>
        <time>2025-02-05T13:58:46.000Z</time>
      </trkpt>
      <trkpt lat="43.51932" lon="6.26119">
        <ele>297.4</ele>
        <time>2025-02-05T13:58:52.000Z</time>
      </trkpt>
      <trkpt lat="43.5193" lon="6.26127">
        <ele>297.2</ele>
        <time>2025-02-05T13:58:57.000Z</time>
      </trkpt>
      <trkpt lat="43.5193" lon="6.26134">
        <ele>297.1</ele>
        <time>2025-02-05T13:59:01.000Z</time>
      </trkpt>
      <trkpt lat="43.51929" lon="6.2614">
        <ele>296.9</ele>
        <time>2025-02-05T13:59:04.000Z</time>
      </trkpt>
      <trkpt lat="43.5193" lon="6.26147">
        <ele>296.6</ele>
        <time>2025-02-05T13:59:08.000Z</time>
      </trkpt>
      <trkpt lat="43.51927" lon="6.26154">
        <ele>296.3</ele>
        <time>2025-02-05T13:59:12.000Z</time>
      </trkpt>
      <trkpt lat="43.51923" lon="6.26156">
        <ele>295.9</ele>
        <time>2025-02-05T13:59:15.000Z</time>
      </trkpt>
      <trkpt lat="43.51922" lon="6.26164">
        <ele>295.3</ele>
        <time>2025-02-05T13:59:21.000Z</time>
      </trkpt>
      <trkpt lat="43.51921" lon="6.26171">
        <ele>294.8</ele>
        <time>2025-02-05T13:59:25.000Z</time>
      </trkpt>
      <trkpt lat="43.51919" lon="6.26178">
        <ele>294</ele>
        <time>2025-02-05T13:59:31.000Z</time>
      </trkpt>
      <trkpt lat="43.51914" lon="6.2618">
        <ele>292.7</ele>
        <time>2025-02-05T13:59:38.000Z</time>
      </trkpt>
      <trkpt lat="43.51909" lon="6.26184">
        <ele>291.9</ele>
        <time>2025-02-05T13:59:44.000Z</time>
      </trkpt>
      <trkpt lat="43.51904" lon="6.26186">
        <ele>291</ele>
        <time>2025-02-05T13:59:51.000Z</time>
      </trkpt>
      <trkpt lat="43.519" lon="6.26183">
        <ele>290.3</ele>
        <time>2025-02-05T13:59:55.000Z</time>
      </trkpt>
      <trkpt lat="43.51894" lon="6.26181">
        <ele>289.6</ele>
        <time>2025-02-05T13:59:59.000Z</time>
      </trkpt>
      <trkpt lat="43.51889" lon="6.26179">
        <ele>289</ele>
        <time>2025-02-05T14:00:02.000Z</time>
      </trkpt>
      <trkpt lat="43.51885" lon="6.26176">
        <ele>288.6</ele>
        <time>2025-02-05T14:00:06.000Z</time>
      </trkpt>
      <trkpt lat="43.5188" lon="6.26171">
        <ele>287</ele>
        <time>2025-02-05T14:00:12.000Z</time>
      </trkpt>
      <trkpt lat="43.51877" lon="6.26167">
        <ele>287.5</ele>
        <time>2025-02-05T14:00:18.000Z</time>
      </trkpt>
      <trkpt lat="43.51873" lon="6.26162">
        <ele>287</ele>
        <time>2025-02-05T14:00:21.000Z</time>
      </trkpt>
      <trkpt lat="43.51868" lon="6.2616">
        <ele>286.6</ele>
        <time>2025-02-05T14:00:25.000Z</time>
      </trkpt>
      <trkpt lat="43.51865" lon="6.26155">
        <ele>286</ele>
        <time>2025-02-05T14:00:30.000Z</time>
      </trkpt>
      <trkpt lat="43.51861" lon="6.26152">
        <ele>285.5</ele>
        <time>2025-02-05T14:00:34.000Z</time>
      </trkpt>
      <trkpt lat="43.51857" lon="6.26148">
        <ele>284.9</ele>
        <time>2025-02-05T14:00:39.000Z</time>
      </trkpt>
      <trkpt lat="43.51852" lon="6.26144">
        <ele>284.6</ele>
        <time>2025-02-05T14:00:43.000Z</time>
      </trkpt>
      <trkpt lat="43.51848" lon="6.26142">
        <ele>284.3</ele>
        <time>2025-02-05T14:00:48.000Z</time>
      </trkpt>
      <trkpt lat="43.51844" lon="6.26137">
        <ele>283.8</ele>
        <time>2025-02-05T14:00:52.000Z</time>
      </trkpt>
      <trkpt lat="43.51841" lon="6.26131">
        <ele>283.4</ele>
        <time>2025-02-05T14:00:56.000Z</time>
      </trkpt>
      <trkpt lat="43.51838" lon="6.26127">
        <ele>283.2</ele>
        <time>2025-02-05T14:01:00.000Z</time>
      </trkpt>
      <trkpt lat="43.51834" lon="6.26122">
        <ele>282.9</ele>
        <time>2025-02-05T14:01:04.000Z</time>
      </trkpt>
      <trkpt lat="43.5183" lon="6.26117">
        <ele>282.4</ele>
        <time>2025-02-05T14:01:10.000Z</time>
      </trkpt>
      <trkpt lat="43.51827" lon="6.26112">
        <ele>282</ele>
        <time>2025-02-05T14:01:15.000Z</time>
      </trkpt>
      <trkpt lat="43.51823" lon="6.26109">
        <ele>281.7</ele>
        <time>2025-02-05T14:01:20.000Z</time>
      </trkpt>
      <trkpt lat="43.51818" lon="6.26103">
        <ele>281.5</ele>
        <time>2025-02-05T14:01:24.000Z</time>
      </trkpt>
      <trkpt lat="43.51814" lon="6.26101">
        <ele>281.3</ele>
        <time>2025-02-05T14:01:27.000Z</time>
      </trkpt>
      <trkpt lat="43.51809" lon="6.26098">
        <ele>281.1</ele>
        <time>2025-02-05T14:01:30.000Z</time>
      </trkpt>
      <trkpt lat="43.51804" lon="6.26097">
        <ele>280.7</ele>
        <time>2025-02-05T14:01:35.000Z</time>
      </trkpt>
      <trkpt lat="43.51799" lon="6.26093">
        <ele>280.3</ele>
        <time>2025-02-05T14:01:40.000Z</time>
      </trkpt>
      <trkpt lat="43.51794" lon="6.26091">
        <ele>279.8</ele>
        <time>2025-02-05T14:01:47.000Z</time>
      </trkpt>
      <trkpt lat="43.5179" lon="6.26088">
        <ele>279.4</ele>
        <time>2025-02-05T14:01:51.000Z</time>
      </trkpt>
      <trkpt lat="43.51785" lon="6.26086">
        <ele>279.1</ele>
        <time>2025-02-05T14:01:56.000Z</time>
      </trkpt>
      <trkpt lat="43.51781" lon="6.26081">
        <ele>278.7</ele>
        <time>2025-02-05T14:02:00.000Z</time>
      </trkpt>
      <trkpt lat="43.51776" lon="6.26079">
        <ele>278.4</ele>
        <time>2025-02-05T14:02:03.000Z</time>
      </trkpt>
      <trkpt lat="43.51772" lon="6.26075">
        <ele>278.2</ele>
        <time>2025-02-05T14:02:06.000Z</time>
      </trkpt>
      <trkpt lat="43.51767" lon="6.26072">
        <ele>277.7</ele>
        <time>2025-02-05T14:02:10.000Z</time>
      </trkpt>
      <trkpt lat="43.51762" lon="6.26071">
        <ele>277.2</ele>
        <time>2025-02-05T14:02:16.000Z</time>
      </trkpt>
      <trkpt lat="43.51757" lon="6.26067">
        <ele>276.8</ele>
        <time>2025-02-05T14:02:21.000Z</time>
      </trkpt>
      <trkpt lat="43.51754" lon="6.26062">
        <ele>276.5</ele>
        <time>2025-02-05T14:02:25.000Z</time>
      </trkpt>
      <trkpt lat="43.51749" lon="6.26059">
        <ele>276.1</ele>
        <time>2025-02-05T14:02:29.000Z</time>
      </trkpt>
      <trkpt lat="43.51745" lon="6.26057">
        <ele>275.8</ele>
        <time>2025-02-05T14:02:33.000Z</time>
      </trkpt>
      <trkpt lat="43.5174" lon="6.26054">
        <ele>275.6</ele>
        <time>2025-02-05T14:02:38.000Z</time>
      </trkpt>
      <trkpt lat="43.51735" lon="6.26051">
        <ele>275.1</ele>
        <time>2025-02-05T14:02:42.000Z</time>
      </trkpt>
      <trkpt lat="43.51731" lon="6.26047">
        <ele>274.5</ele>
        <time>2025-02-05T14:02:47.000Z</time>
      </trkpt>
      <trkpt lat="43.51725" lon="6.26044">
        <ele>274.2</ele>
        <time>2025-02-05T14:02:51.000Z</time>
      </trkpt>
      <trkpt lat="43.51721" lon="6.26041">
        <ele>273.8</ele>
        <time>2025-02-05T14:02:57.000Z</time>
      </trkpt>
      <trkpt lat="43.51716" lon="6.26038">
        <ele>273.5</ele>
        <time>2025-02-05T14:03:01.000Z</time>
      </trkpt>
      <trkpt lat="43.51712" lon="6.26036">
        <ele>273</ele>
        <time>2025-02-05T14:03:05.000Z</time>
      </trkpt>
      <trkpt lat="43.51707" lon="6.26033">
        <ele>272.7</ele>
        <time>2025-02-05T14:03:10.000Z</time>
      </trkpt>
      <trkpt lat="43.51702" lon="6.26031">
        <ele>272.6</ele>
        <time>2025-02-05T14:03:14.000Z</time>
      </trkpt>
      <trkpt lat="43.51697" lon="6.2603">
        <ele>272.4</ele>
        <time>2025-02-05T14:03:20.000Z</time>
      </trkpt>
      <trkpt lat="43.51693" lon="6.26026">
        <ele>272</ele>
        <time>2025-02-05T14:03:24.000Z</time>
      </trkpt>
      <trkpt lat="43.51689" lon="6.26023">
        <ele>271.8</ele>
        <time>2025-02-05T14:03:28.000Z</time>
      </trkpt>
      <trkpt lat="43.51683" lon="6.26022">
        <ele>271.6</ele>
        <time>2025-02-05T14:03:32.000Z</time>
      </trkpt>
      <trkpt lat="43.51677" lon="6.26019">
        <ele>271.5</ele>
        <time>2025-02-05T14:03:36.000Z</time>
      </trkpt>
      <trkpt lat="43.51673" lon="6.26017">
        <ele>271.2</ele>
        <time>2025-02-05T14:03:40.000Z</time>
      </trkpt>
      <trkpt lat="43.51669" lon="6.26014">
        <ele>271.1</ele>
        <time>2025-02-05T14:03:44.000Z</time>
      </trkpt>
      <trkpt lat="43.51664" lon="6.26012">
        <ele>271</ele>
        <time>2025-02-05T14:03:48.000Z</time>
      </trkpt>
      <trkpt lat="43.5166" lon="6.26009">
        <ele>270.8</ele>
        <time>2025-02-05T14:03:53.000Z</time>
      </trkpt>
      <trkpt lat="43.51656" lon="6.26006">
        <ele>270.8</ele>
        <time>2025-02-05T14:03:56.000Z</time>
      </trkpt>
      <trkpt lat="43.51651" lon="6.26003">
        <ele>270.5</ele>
        <time>2025-02-05T14:04:01.000Z</time>
      </trkpt>
      <trkpt lat="43.51647" lon="6.26">
        <ele>270.4</ele>
        <time>2025-02-05T14:04:05.000Z</time>
      </trkpt>
      <trkpt lat="43.51643" lon="6.25997">
        <ele>270.2</ele>
        <time>2025-02-05T14:04:10.000Z</time>
      </trkpt>
      <trkpt lat="43.51638" lon="6.25995">
        <ele>269.8</ele>
        <time>2025-02-05T14:04:17.000Z</time>
      </trkpt>
      <trkpt lat="43.51633" lon="6.25993">
        <ele>269.7</ele>
        <time>2025-02-05T14:04:23.000Z</time>
      </trkpt>
      <trkpt lat="43.51628" lon="6.25992">
        <ele>269.4</ele>
        <time>2025-02-05T14:04:28.000Z</time>
      </trkpt>
      <trkpt lat="43.51626" lon="6.25986">
        <ele>269.2</ele>
        <time>2025-02-05T14:04:39.000Z</time>
      </trkpt>
      <trkpt lat="43.51625" lon="6.25979">
        <ele>269.3</ele>
        <time>2025-02-05T14:04:50.000Z</time>
      </trkpt>
      <trkpt lat="43.51626" lon="6.25972">
        <ele>269.1</ele>
        <time>2025-02-05T14:04:56.000Z</time>
      </trkpt>
      <trkpt lat="43.51628" lon="6.25965">
        <ele>268.8</ele>
        <time>2025-02-05T14:05:02.000Z</time>
      </trkpt>
      <trkpt lat="43.51628" lon="6.25958">
        <ele>268.4</ele>
        <time>2025-02-05T14:05:08.000Z</time>
      </trkpt>
      <trkpt lat="43.5163" lon="6.25951">
        <ele>268.2</ele>
        <time>2025-02-05T14:05:13.000Z</time>
      </trkpt>
      <trkpt lat="43.51631" lon="6.25944">
        <ele>267.9</ele>
        <time>2025-02-05T14:05:17.000Z</time>
      </trkpt>
      <trkpt lat="43.51631" lon="6.25937">
        <ele>267.3</ele>
        <time>2025-02-05T14:05:22.000Z</time>
      </trkpt>
      <trkpt lat="43.51632" lon="6.2593">
        <ele>266.9</ele>
        <time>2025-02-05T14:05:27.000Z</time>
      </trkpt>
      <trkpt lat="43.51629" lon="6.25924">
        <ele>266.2</ele>
        <time>2025-02-05T14:05:33.000Z</time>
      </trkpt>
      <trkpt lat="43.51626" lon="6.25918">
        <ele>265.8</ele>
        <time>2025-02-05T14:05:37.000Z</time>
      </trkpt>
      <trkpt lat="43.51622" lon="6.25913">
        <ele>265.4</ele>
        <time>2025-02-05T14:05:42.000Z</time>
      </trkpt>
      <trkpt lat="43.51619" lon="6.25908">
        <ele>265</ele>
        <time>2025-02-05T14:05:46.000Z</time>
      </trkpt>
      <trkpt lat="43.51615" lon="6.25903">
        <ele>264.6</ele>
        <time>2025-02-05T14:05:51.000Z</time>
      </trkpt>
      <trkpt lat="43.51612" lon="6.25898">
        <ele>264.2</ele>
        <time>2025-02-05T14:05:56.000Z</time>
      </trkpt>
      <trkpt lat="43.5161" lon="6.25892">
        <ele>263.8</ele>
        <time>2025-02-05T14:06:02.000Z</time>
      </trkpt>
      <trkpt lat="43.51607" lon="6.25887">
        <ele>263.4</ele>
        <time>2025-02-05T14:06:06.000Z</time>
      </trkpt>
      <trkpt lat="43.51605" lon="6.2588">
        <ele>262.9</ele>
        <time>2025-02-05T14:06:11.000Z</time>
      </trkpt>
      <trkpt lat="43.51604" lon="6.25873">
        <ele>262.3</ele>
        <time>2025-02-05T14:06:16.000Z</time>
      </trkpt>
      <trkpt lat="43.51602" lon="6.25867">
        <ele>262</ele>
        <time>2025-02-05T14:06:21.000Z</time>
      </trkpt>
      <trkpt lat="43.51602" lon="6.25859">
        <ele>261.7</ele>
        <time>2025-02-05T14:06:26.000Z</time>
      </trkpt>
      <trkpt lat="43.51601" lon="6.25853">
        <ele>261.5</ele>
        <time>2025-02-05T14:06:32.000Z</time>
      </trkpt>
      <trkpt lat="43.516" lon="6.25846">
        <ele>261</ele>
        <time>2025-02-05T14:06:38.000Z</time>
      </trkpt>
      <trkpt lat="43.51599" lon="6.25839">
        <ele>260.7</ele>
        <time>2025-02-05T14:06:43.000Z</time>
      </trkpt>
      <trkpt lat="43.51597" lon="6.25832">
        <ele>260.4</ele>
        <time>2025-02-05T14:06:47.000Z</time>
      </trkpt>
      <trkpt lat="43.51595" lon="6.25825">
        <ele>260</ele>
        <time>2025-02-05T14:06:52.000Z</time>
      </trkpt>
      <trkpt lat="43.51593" lon="6.25819">
        <ele>259.7</ele>
        <time>2025-02-05T14:06:56.000Z</time>
      </trkpt>
      <trkpt lat="43.51592" lon="6.25812">
        <ele>259.5</ele>
        <time>2025-02-05T14:07:00.000Z</time>
      </trkpt>
      <trkpt lat="43.51592" lon="6.25805">
        <ele>259.1</ele>
        <time>2025-02-05T14:07:04.000Z</time>
      </trkpt>
      <trkpt lat="43.51591" lon="6.25799">
        <ele>258.8</ele>
        <time>2025-02-05T14:07:08.000Z</time>
      </trkpt>
      <trkpt lat="43.51589" lon="6.25793">
        <ele>258.4</ele>
        <time>2025-02-05T14:07:13.000Z</time>
      </trkpt>
      <trkpt lat="43.51588" lon="6.25786">
        <ele>258</ele>
        <time>2025-02-05T14:07:19.000Z</time>
      </trkpt>
      <trkpt lat="43.51586" lon="6.25779">
        <ele>257.7</ele>
        <time>2025-02-05T14:07:24.000Z</time>
      </trkpt>
      <trkpt lat="43.51586" lon="6.25773">
        <ele>257.5</ele>
        <time>2025-02-05T14:07:29.000Z</time>
      </trkpt>
      <trkpt lat="43.51586" lon="6.25766">
        <ele>256.7</ele>
        <time>2025-02-05T14:07:35.000Z</time>
      </trkpt>
      <trkpt lat="43.51585" lon="6.25759">
        <ele>256.3</ele>
        <time>2025-02-05T14:07:40.000Z</time>
      </trkpt>
      <trkpt lat="43.51585" lon="6.25752">
        <ele>256.3</ele>
        <time>2025-02-05T14:07:46.000Z</time>
      </trkpt>
      <trkpt lat="43.51585" lon="6.25745">
        <ele>256</ele>
        <time>2025-02-05T14:07:51.000Z</time>
      </trkpt>
      <trkpt lat="43.51584" lon="6.25738">
        <ele>256</ele>
        <time>2025-02-05T14:07:57.000Z</time>
      </trkpt>
      <trkpt lat="43.51584" lon="6.25731">
        <ele>255.7</ele>
        <time>2025-02-05T14:08:03.000Z</time>
      </trkpt>
      <trkpt lat="43.51582" lon="6.25725">
        <ele>255.2</ele>
        <time>2025-02-05T14:08:08.000Z</time>
      </trkpt>
      <trkpt lat="43.5158" lon="6.25719">
        <ele>255</ele>
        <time>2025-02-05T14:08:13.000Z</time>
      </trkpt>
      <trkpt lat="43.51579" lon="6.25712">
        <ele>254.4</ele>
        <time>2025-02-05T14:08:19.000Z</time>
      </trkpt>
      <trkpt lat="43.51576" lon="6.25706">
        <ele>253.8</ele>
        <time>2025-02-05T14:08:25.000Z</time>
      </trkpt>
      <trkpt lat="43.51576" lon="6.25699">
        <ele>253.2</ele>
        <time>2025-02-05T14:08:33.000Z</time>
      </trkpt>
      <trkpt lat="43.51574" lon="6.25693">
        <ele>252.7</ele>
        <time>2025-02-05T14:08:38.000Z</time>
      </trkpt>
      <trkpt lat="43.51573" lon="6.25686">
        <ele>252.5</ele>
        <time>2025-02-05T14:08:42.000Z</time>
      </trkpt>
      <trkpt lat="43.51571" lon="6.2568">
        <ele>252.3</ele>
        <time>2025-02-05T14:08:47.000Z</time>
      </trkpt>
      <trkpt lat="43.51569" lon="6.25673">
        <ele>252.1</ele>
        <time>2025-02-05T14:08:52.000Z</time>
      </trkpt>
      <trkpt lat="43.51566" lon="6.25668">
        <ele>252</ele>
        <time>2025-02-05T14:08:57.000Z</time>
      </trkpt>
      <trkpt lat="43.51565" lon="6.25661">
        <ele>252</ele>
        <time>2025-02-05T14:09:05.000Z</time>
      </trkpt>
      <trkpt lat="43.51564" lon="6.25654">
        <ele>251.5</ele>
        <time>2025-02-05T14:09:11.000Z</time>
      </trkpt>
      <trkpt lat="43.51565" lon="6.25648">
        <ele>251.2</ele>
        <time>2025-02-05T14:09:18.000Z</time>
      </trkpt>
      <trkpt lat="43.51565" lon="6.2564">
        <ele>250.8</ele>
        <time>2025-02-05T14:09:24.000Z</time>
      </trkpt>
      <trkpt lat="43.51567" lon="6.25635">
        <ele>250.6</ele>
        <time>2025-02-05T14:09:29.000Z</time>
      </trkpt>
      <trkpt lat="43.51568" lon="6.25627">
        <ele>250.3</ele>
        <time>2025-02-05T14:09:35.000Z</time>
      </trkpt>
      <trkpt lat="43.51568" lon="6.2562">
        <ele>249.9</ele>
        <time>2025-02-05T14:09:40.000Z</time>
      </trkpt>
      <trkpt lat="43.51567" lon="6.25613">
        <ele>249.6</ele>
        <time>2025-02-05T14:09:44.000Z</time>
      </trkpt>
      <trkpt lat="43.51568" lon="6.25606">
        <ele>249.3</ele>
        <time>2025-02-05T14:09:49.000Z</time>
      </trkpt>
      <trkpt lat="43.51571" lon="6.256">
        <ele>249.2</ele>
        <time>2025-02-05T14:09:53.000Z</time>
      </trkpt>
      <trkpt lat="43.5157" lon="6.25594">
        <ele>249</ele>
        <time>2025-02-05T14:09:58.000Z</time>
      </trkpt>
      <trkpt lat="43.51571" lon="6.25587">
        <ele>248.9</ele>
        <time>2025-02-05T14:10:03.000Z</time>
      </trkpt>
      <trkpt lat="43.51572" lon="6.2558">
        <ele>249</ele>
        <time>2025-02-05T14:10:09.000Z</time>
      </trkpt>
      <trkpt lat="43.51573" lon="6.25573">
        <ele>248.5</ele>
        <time>2025-02-05T14:10:15.000Z</time>
      </trkpt>
      <trkpt lat="43.51575" lon="6.25567">
        <ele>248.5</ele>
        <time>2025-02-05T14:10:19.000Z</time>
      </trkpt>
      <trkpt lat="43.51577" lon="6.25562">
        <ele>248.3</ele>
        <time>2025-02-05T14:10:23.000Z</time>
      </trkpt>
      <trkpt lat="43.51579" lon="6.25556">
        <ele>248</ele>
        <time>2025-02-05T14:10:28.000Z</time>
      </trkpt>
      <trkpt lat="43.51579" lon="6.2555">
        <ele>247.4</ele>
        <time>2025-02-05T14:10:34.000Z</time>
      </trkpt>
      <trkpt lat="43.51581" lon="6.25544">
        <ele>247.3</ele>
        <time>2025-02-05T14:10:38.000Z</time>
      </trkpt>
      <trkpt lat="43.51583" lon="6.25538">
        <ele>246.8</ele>
        <time>2025-02-05T14:10:42.000Z</time>
      </trkpt>
      <trkpt lat="43.51582" lon="6.25531">
        <ele>246.5</ele>
        <time>2025-02-05T14:10:47.000Z</time>
      </trkpt>
      <trkpt lat="43.51582" lon="6.25525">
        <ele>246.2</ele>
        <time>2025-02-05T14:10:53.000Z</time>
      </trkpt>
      <trkpt lat="43.51582" lon="6.25518">
        <ele>246</ele>
        <time>2025-02-05T14:10:57.000Z</time>
      </trkpt>
      <trkpt lat="43.51584" lon="6.25513">
        <ele>245.7</ele>
        <time>2025-02-05T14:11:04.000Z</time>
      </trkpt>
      <trkpt lat="43.51586" lon="6.25506">
        <ele>245.2</ele>
        <time>2025-02-05T14:11:10.000Z</time>
      </trkpt>
      <trkpt lat="43.51585" lon="6.25499">
        <ele>244.6</ele>
        <time>2025-02-05T14:11:16.000Z</time>
      </trkpt>
      <trkpt lat="43.51585" lon="6.25493">
        <ele>244.3</ele>
        <time>2025-02-05T14:11:22.000Z</time>
      </trkpt>
      <trkpt lat="43.51587" lon="6.25486">
        <ele>244.2</ele>
        <time>2025-02-05T14:11:28.000Z</time>
      </trkpt>
      <trkpt lat="43.51589" lon="6.2548">
        <ele>244.1</ele>
        <time>2025-02-05T14:11:33.000Z</time>
      </trkpt>
      <trkpt lat="43.51587" lon="6.25473">
        <ele>243.9</ele>
        <time>2025-02-05T14:11:38.000Z</time>
      </trkpt>
      <trkpt lat="43.51585" lon="6.25467">
        <ele>243.6</ele>
        <time>2025-02-05T14:11:42.000Z</time>
      </trkpt>
      <trkpt lat="43.51586" lon="6.25461">
        <ele>243.2</ele>
        <time>2025-02-05T14:11:46.000Z</time>
      </trkpt>
      <trkpt lat="43.51587" lon="6.25455">
        <ele>242.7</ele>
        <time>2025-02-05T14:11:53.000Z</time>
      </trkpt>
      <trkpt lat="43.51587" lon="6.25448">
        <ele>242.4</ele>
        <time>2025-02-05T14:11:58.000Z</time>
      </trkpt>
      <trkpt lat="43.51589" lon="6.25442">
        <ele>242.1</ele>
        <time>2025-02-05T14:12:02.000Z</time>
      </trkpt>
      <trkpt lat="43.51588" lon="6.25435">
        <ele>241.8</ele>
        <time>2025-02-05T14:12:07.000Z</time>
      </trkpt>
      <trkpt lat="43.51591" lon="6.25429">
        <ele>241.8</ele>
        <time>2025-02-05T14:12:13.000Z</time>
      </trkpt>
      <trkpt lat="43.51593" lon="6.25424">
        <ele>241.4</ele>
        <time>2025-02-05T14:12:19.000Z</time>
      </trkpt>
      <trkpt lat="43.51597" lon="6.25419">
        <ele>241</ele>
        <time>2025-02-05T14:12:25.000Z</time>
      </trkpt>
      <trkpt lat="43.516" lon="6.25413">
        <ele>240.8</ele>
        <time>2025-02-05T14:12:31.000Z</time>
      </trkpt>
      <trkpt lat="43.51604" lon="6.25409">
        <ele>240.7</ele>
        <time>2025-02-05T14:12:35.000Z</time>
      </trkpt>
      <trkpt lat="43.51607" lon="6.25403">
        <ele>240.7</ele>
        <time>2025-02-05T14:12:40.000Z</time>
      </trkpt>
      <trkpt lat="43.51609" lon="6.25397">
        <ele>240.4</ele>
        <time>2025-02-05T14:12:45.000Z</time>
      </trkpt>
      <trkpt lat="43.51611" lon="6.25392">
        <ele>240.3</ele>
        <time>2025-02-05T14:12:49.000Z</time>
      </trkpt>
      <trkpt lat="43.51613" lon="6.25386">
        <ele>240</ele>
        <time>2025-02-05T14:12:53.000Z</time>
      </trkpt>
      <trkpt lat="43.51615" lon="6.2538">
        <ele>239.8</ele>
        <time>2025-02-05T14:12:58.000Z</time>
      </trkpt>
      <trkpt lat="43.51617" lon="6.25374">
        <ele>239.4</ele>
        <time>2025-02-05T14:13:05.000Z</time>
      </trkpt>
      <trkpt lat="43.5162" lon="6.25369">
        <ele>239.1</ele>
        <time>2025-02-05T14:13:09.000Z</time>
      </trkpt>
      <trkpt lat="43.51624" lon="6.25364">
        <ele>238.6</ele>
        <time>2025-02-05T14:13:14.000Z</time>
      </trkpt>
      <trkpt lat="43.51626" lon="6.25357">
        <ele>238.1</ele>
        <time>2025-02-05T14:13:19.000Z</time>
      </trkpt>
      <trkpt lat="43.51627" lon="6.25351">
        <ele>237.7</ele>
        <time>2025-02-05T14:13:24.000Z</time>
      </trkpt>
      <trkpt lat="43.5163" lon="6.25345">
        <ele>237.1</ele>
        <time>2025-02-05T14:13:30.000Z</time>
      </trkpt>
      <trkpt lat="43.51633" lon="6.2534">
        <ele>236.8</ele>
        <time>2025-02-05T14:13:34.000Z</time>
      </trkpt>
      <trkpt lat="43.51635" lon="6.25335">
        <ele>236.6</ele>
        <time>2025-02-05T14:13:39.000Z</time>
      </trkpt>
      <trkpt lat="43.51637" lon="6.25329">
        <ele>236.2</ele>
        <time>2025-02-05T14:13:45.000Z</time>
      </trkpt>
      <trkpt lat="43.51636" lon="6.25321">
        <ele>236</ele>
        <time>2025-02-05T14:13:50.000Z</time>
      </trkpt>
      <trkpt lat="43.51635" lon="6.25315">
        <ele>235.3</ele>
        <time>2025-02-05T14:13:57.000Z</time>
      </trkpt>
      <trkpt lat="43.51636" lon="6.25308">
        <ele>234.9</ele>
        <time>2025-02-05T14:14:02.000Z</time>
      </trkpt>
      <trkpt lat="43.51637" lon="6.25301">
        <ele>234.6</ele>
        <time>2025-02-05T14:14:08.000Z</time>
      </trkpt>
      <trkpt lat="43.51639" lon="6.25295">
        <ele>234.3</ele>
        <time>2025-02-05T14:14:12.000Z</time>
      </trkpt>
      <trkpt lat="43.5164" lon="6.25288">
        <ele>233.8</ele>
        <time>2025-02-05T14:14:17.000Z</time>
      </trkpt>
      <trkpt lat="43.51641" lon="6.25281">
        <ele>233.2</ele>
        <time>2025-02-05T14:14:23.000Z</time>
      </trkpt>
      <trkpt lat="43.51642" lon="6.25274">
        <ele>232.8</ele>
        <time>2025-02-05T14:14:28.000Z</time>
      </trkpt>
      <trkpt lat="43.51641" lon="6.25268">
        <ele>232.4</ele>
        <time>2025-02-05T14:14:32.000Z</time>
      </trkpt>
      <trkpt lat="43.5164" lon="6.25261">
        <ele>232</ele>
        <time>2025-02-05T14:14:36.000Z</time>
      </trkpt>
      <trkpt lat="43.51642" lon="6.25255">
        <ele>231.7</ele>
        <time>2025-02-05T14:14:40.000Z</time>
      </trkpt>
      <trkpt lat="43.51641" lon="6.25247">
        <ele>231</ele>
        <time>2025-02-05T14:14:45.000Z</time>
      </trkpt>
      <trkpt lat="43.51642" lon="6.2524">
        <ele>230.6</ele>
        <time>2025-02-05T14:14:50.000Z</time>
      </trkpt>
      <trkpt lat="43.51642" lon="6.25233">
        <ele>230.3</ele>
        <time>2025-02-05T14:14:55.000Z</time>
      </trkpt>
      <trkpt lat="43.5164" lon="6.25226">
        <ele>229.9</ele>
        <time>2025-02-05T14:15:00.000Z</time>
      </trkpt>
      <trkpt lat="43.51638" lon="6.2522">
        <ele>229.5</ele>
        <time>2025-02-05T14:15:05.000Z</time>
      </trkpt>
      <trkpt lat="43.51637" lon="6.25213">
        <ele>229.1</ele>
        <time>2025-02-05T14:15:09.000Z</time>
      </trkpt>
      <trkpt lat="43.51637" lon="6.25206">
        <ele>228.2</ele>
        <time>2025-02-05T14:15:15.000Z</time>
      </trkpt>
      <trkpt lat="43.51637" lon="6.252">
        <ele>227.7</ele>
        <time>2025-02-05T14:15:20.000Z</time>
      </trkpt>
      <trkpt lat="43.51636" lon="6.25193">
        <ele>227.4</ele>
        <time>2025-02-05T14:15:26.000Z</time>
      </trkpt>
      <trkpt lat="43.51635" lon="6.25186">
        <ele>226.6</ele>
        <time>2025-02-05T14:15:33.000Z</time>
      </trkpt>
      <trkpt lat="43.51633" lon="6.25179">
        <ele>226.1</ele>
        <time>2025-02-05T14:15:39.000Z</time>
      </trkpt>
      <trkpt lat="43.51632" lon="6.25173">
        <ele>225.7</ele>
        <time>2025-02-05T14:15:43.000Z</time>
      </trkpt>
      <trkpt lat="43.51632" lon="6.25166">
        <ele>225.1</ele>
        <time>2025-02-05T14:15:48.000Z</time>
      </trkpt>
      <trkpt lat="43.5163" lon="6.2516">
        <ele>224.4</ele>
        <time>2025-02-05T14:15:53.000Z</time>
      </trkpt>
      <trkpt lat="43.51628" lon="6.25155">
        <ele>224</ele>
        <time>2025-02-05T14:15:58.000Z</time>
      </trkpt>
      <trkpt lat="43.51627" lon="6.25147">
        <ele>223.6</ele>
        <time>2025-02-05T14:16:05.000Z</time>
      </trkpt>
      <trkpt lat="43.51625" lon="6.25142">
        <ele>223.2</ele>
        <time>2025-02-05T14:16:09.000Z</time>
      </trkpt>
      <trkpt lat="43.51621" lon="6.25136">
        <ele>222.7</ele>
        <time>2025-02-05T14:16:14.000Z</time>
      </trkpt>
      <trkpt lat="43.51619" lon="6.2513">
        <ele>222.2</ele>
        <time>2025-02-05T14:16:18.000Z</time>
      </trkpt>
      <trkpt lat="43.51616" lon="6.25125">
        <ele>221.9</ele>
        <time>2025-02-05T14:16:23.000Z</time>
      </trkpt>
      <trkpt lat="43.51613" lon="6.2512">
        <ele>221.3</ele>
        <time>2025-02-05T14:16:29.000Z</time>
      </trkpt>
      <trkpt lat="43.5161" lon="6.25116">
        <ele>221.1</ele>
        <time>2025-02-05T14:16:33.000Z</time>
      </trkpt>
      <trkpt lat="43.51606" lon="6.25112">
        <ele>220.9</ele>
        <time>2025-02-05T14:16:38.000Z</time>
      </trkpt>
      <trkpt lat="43.51601" lon="6.2511">
        <ele>220.8</ele>
        <time>2025-02-05T14:16:41.000Z</time>
      </trkpt>
      <trkpt lat="43.51597" lon="6.25106">
        <ele>220.2</ele>
        <time>2025-02-05T14:16:47.000Z</time>
      </trkpt>
      <trkpt lat="43.51592" lon="6.25105">
        <ele>219.9</ele>
        <time>2025-02-05T14:16:53.000Z</time>
      </trkpt>
      <trkpt lat="43.51588" lon="6.25103">
        <ele>219.3</ele>
        <time>2025-02-05T14:16:59.000Z</time>
      </trkpt>
      <trkpt lat="43.51584" lon="6.25101">
        <ele>218.9</ele>
        <time>2025-02-05T14:17:04.000Z</time>
      </trkpt>
      <trkpt lat="43.51578" lon="6.251">
        <ele>218.7</ele>
        <time>2025-02-05T14:17:09.000Z</time>
      </trkpt>
      <trkpt lat="43.51573" lon="6.25099">
        <ele>218.3</ele>
        <time>2025-02-05T14:17:14.000Z</time>
      </trkpt>
      <trkpt lat="43.51568" lon="6.25097">
        <ele>218.1</ele>
        <time>2025-02-05T14:17:20.000Z</time>
      </trkpt>
      <trkpt lat="43.51562" lon="6.25098">
        <ele>217.9</ele>
        <time>2025-02-05T14:17:25.000Z</time>
      </trkpt>
      <trkpt lat="43.51557" lon="6.25098">
        <ele>217.6</ele>
        <time>2025-02-05T14:17:30.000Z</time>
      </trkpt>
      <trkpt lat="43.51551" lon="6.251">
        <ele>216.8</ele>
        <time>2025-02-05T14:17:36.000Z</time>
      </trkpt>
      <trkpt lat="43.51547" lon="6.25098">
        <ele>216.3</ele>
        <time>2025-02-05T14:17:41.000Z</time>
      </trkpt>
      <trkpt lat="43.51542" lon="6.25096">
        <ele>215.8</ele>
        <time>2025-02-05T14:17:45.000Z</time>
      </trkpt>
      <trkpt lat="43.51538" lon="6.25092">
        <ele>215</ele>
        <time>2025-02-05T14:17:51.000Z</time>
      </trkpt>
      <trkpt lat="43.51536" lon="6.25087">
        <ele>214.6</ele>
        <time>2025-02-05T14:18:00.000Z</time>
      </trkpt>
      <trkpt lat="43.51536" lon="6.2508">
        <ele>214.1</ele>
        <time>2025-02-05T14:18:07.000Z</time>
      </trkpt>
      <trkpt lat="43.51533" lon="6.25074">
        <ele>213.7</ele>
        <time>2025-02-05T14:18:11.000Z</time>
      </trkpt>
      <trkpt lat="43.51534" lon="6.25066">
        <ele>213.2</ele>
        <time>2025-02-05T14:18:17.000Z</time>
      </trkpt>
      <trkpt lat="43.51534" lon="6.25059">
        <ele>213</ele>
        <time>2025-02-05T14:18:22.000Z</time>
      </trkpt>
      <trkpt lat="43.51535" lon="6.25053">
        <ele>212.8</ele>
        <time>2025-02-05T14:18:27.000Z</time>
      </trkpt>
      <trkpt lat="43.51537" lon="6.25046">
        <ele>212.2</ele>
        <time>2025-02-05T14:18:34.000Z</time>
      </trkpt>
      <trkpt lat="43.51538" lon="6.25039">
        <ele>211.9</ele>
        <time>2025-02-05T14:18:40.000Z</time>
      </trkpt>
      <trkpt lat="43.5154" lon="6.25032">
        <ele>211.3</ele>
        <time>2025-02-05T14:18:46.000Z</time>
      </trkpt>
      <trkpt lat="43.51541" lon="6.25026">
        <ele>210.9</ele>
        <time>2025-02-05T14:18:50.000Z</time>
      </trkpt>
      <trkpt lat="43.51543" lon="6.2502">
        <ele>210.6</ele>
        <time>2025-02-05T14:18:55.000Z</time>
      </trkpt>
      <trkpt lat="43.51544" lon="6.25013">
        <ele>210.5</ele>
        <time>2025-02-05T14:19:01.000Z</time>
      </trkpt>
      <trkpt lat="43.51546" lon="6.25007">
        <ele>209.7</ele>
        <time>2025-02-05T14:19:07.000Z</time>
      </trkpt>
      <trkpt lat="43.51546" lon="6.25">
        <ele>209.4</ele>
        <time>2025-02-05T14:19:12.000Z</time>
      </trkpt>
      <trkpt lat="43.51547" lon="6.24993">
        <ele>209.2</ele>
        <time>2025-02-05T14:19:18.000Z</time>
      </trkpt>
      <trkpt lat="43.51549" lon="6.24986">
        <ele>208.9</ele>
        <time>2025-02-05T14:19:23.000Z</time>
      </trkpt>
      <trkpt lat="43.51551" lon="6.2498">
        <ele>208.5</ele>
        <time>2025-02-05T14:19:29.000Z</time>
      </trkpt>
      <trkpt lat="43.51551" lon="6.24973">
        <ele>208</ele>
        <time>2025-02-05T14:19:35.000Z</time>
      </trkpt>
      <trkpt lat="43.51553" lon="6.24967">
        <ele>207.5</ele>
        <time>2025-02-05T14:19:40.000Z</time>
      </trkpt>
      <trkpt lat="43.51554" lon="6.2496">
        <ele>207</ele>
        <time>2025-02-05T14:19:45.000Z</time>
      </trkpt>
      <trkpt lat="43.51556" lon="6.24953">
        <ele>206.3</ele>
        <time>2025-02-05T14:19:52.000Z</time>
      </trkpt>
      <trkpt lat="43.51557" lon="6.24946">
        <ele>205.6</ele>
        <time>2025-02-05T14:19:58.000Z</time>
      </trkpt>
      <trkpt lat="43.51557" lon="6.24938">
        <ele>205</ele>
        <time>2025-02-05T14:20:04.000Z</time>
      </trkpt>
      <trkpt lat="43.51556" lon="6.24932">
        <ele>204.7</ele>
        <time>2025-02-05T14:20:10.000Z</time>
      </trkpt>
      <trkpt lat="43.51556" lon="6.24925">
        <ele>204.5</ele>
        <time>2025-02-05T14:20:15.000Z</time>
      </trkpt>
      <trkpt lat="43.51556" lon="6.24918">
        <ele>203.7</ele>
        <time>2025-02-05T14:20:21.000Z</time>
      </trkpt>
      <trkpt lat="43.51555" lon="6.24911">
        <ele>203</ele>
        <time>2025-02-05T14:20:27.000Z</time>
      </trkpt>
      <trkpt lat="43.51553" lon="6.24905">
        <ele>202.7</ele>
        <time>2025-02-05T14:20:33.000Z</time>
      </trkpt>
      <trkpt lat="43.51551" lon="6.24899">
        <ele>202.3</ele>
        <time>2025-02-05T14:20:38.000Z</time>
      </trkpt>
      <trkpt lat="43.51551" lon="6.24893">
        <ele>201.5</ele>
        <time>2025-02-05T14:20:44.000Z</time>
      </trkpt>
      <trkpt lat="43.5155" lon="6.24886">
        <ele>200.8</ele>
        <time>2025-02-05T14:20:51.000Z</time>
      </trkpt>
      <trkpt lat="43.51551" lon="6.2488">
        <ele>200.4</ele>
        <time>2025-02-05T14:20:57.000Z</time>
      </trkpt>
      <trkpt lat="43.5155" lon="6.24873">
        <ele>199.7</ele>
        <time>2025-02-05T14:21:04.000Z</time>
      </trkpt>
      <trkpt lat="43.51549" lon="6.24866">
        <ele>199.4</ele>
        <time>2025-02-05T14:21:09.000Z</time>
      </trkpt>
      <trkpt lat="43.51548" lon="6.2486">
        <ele>199</ele>
        <time>2025-02-05T14:21:13.000Z</time>
      </trkpt>
      <trkpt lat="43.51547" lon="6.24853">
        <ele>198.7</ele>
        <time>2025-02-05T14:21:17.000Z</time>
      </trkpt>
      <trkpt lat="43.51546" lon="6.24847">
        <ele>198.3</ele>
        <time>2025-02-05T14:21:22.000Z</time>
      </trkpt>
      <trkpt lat="43.51546" lon="6.2484">
        <ele>198.1</ele>
        <time>2025-02-05T14:21:28.000Z</time>
      </trkpt>
      <trkpt lat="43.51548" lon="6.24834">
        <ele>197.8</ele>
        <time>2025-02-05T14:21:34.000Z</time>
      </trkpt>
      <trkpt lat="43.51551" lon="6.24829">
        <ele>197.1</ele>
        <time>2025-02-05T14:21:41.000Z</time>
      </trkpt>
      <trkpt lat="43.51554" lon="6.24823">
        <ele>196.6</ele>
        <time>2025-02-05T14:21:47.000Z</time>
      </trkpt>
      <trkpt lat="43.51556" lon="6.24817">
        <ele>196.5</ele>
        <time>2025-02-05T14:21:52.000Z</time>
      </trkpt>
      <trkpt lat="43.51558" lon="6.24811">
        <ele>196</ele>
        <time>2025-02-05T14:21:57.000Z</time>
      </trkpt>
      <trkpt lat="43.51562" lon="6.24806">
        <ele>195.6</ele>
        <time>2025-02-05T14:22:02.000Z</time>
      </trkpt>
      <trkpt lat="43.51565" lon="6.24801">
        <ele>195.1</ele>
        <time>2025-02-05T14:22:09.000Z</time>
      </trkpt>
      <trkpt lat="43.51568" lon="6.24796">
        <ele>193.7</ele>
        <time>2025-02-05T14:22:43.000Z</time>
      </trkpt>
      <trkpt lat="43.51569" lon="6.2479">
        <ele>193.9</ele>
        <time>2025-02-05T14:23:38.000Z</time>
      </trkpt>
      <trkpt lat="43.51573" lon="6.24788">
        <ele>192.5</ele>
        <time>2025-02-05T14:25:00.000Z</time>
      </trkpt>
      <trkpt lat="43.51577" lon="6.24792">
        <ele>192.2</ele>
        <time>2025-02-05T14:25:10.000Z</time>
      </trkpt>
      <trkpt lat="43.5158" lon="6.24797">
        <ele>191.4</ele>
        <time>2025-02-05T14:25:20.000Z</time>
      </trkpt>
      <trkpt lat="43.5158" lon="6.24805">
        <ele>191</ele>
        <time>2025-02-05T14:25:29.000Z</time>
      </trkpt>
      <trkpt lat="43.5158" lon="6.24812">
        <ele>190.6</ele>
        <time>2025-02-05T14:25:35.000Z</time>
      </trkpt>
      <trkpt lat="43.51583" lon="6.24818">
        <ele>190.4</ele>
        <time>2025-02-05T14:25:41.000Z</time>
      </trkpt>
      <trkpt lat="43.51587" lon="6.2482">
        <ele>190.2</ele>
        <time>2025-02-05T14:25:48.000Z</time>
      </trkpt>
      <trkpt lat="43.51591" lon="6.24817">
        <ele>189.9</ele>
        <time>2025-02-05T14:25:53.000Z</time>
      </trkpt>
      <trkpt lat="43.51594" lon="6.24812">
        <ele>189.4</ele>
        <time>2025-02-05T14:26:01.000Z</time>
      </trkpt>
      <trkpt lat="43.51595" lon="6.24805">
        <ele>188.8</ele>
        <time>2025-02-05T14:26:07.000Z</time>
      </trkpt>
      <trkpt lat="43.51594" lon="6.24799">
        <ele>188.2</ele>
        <time>2025-02-05T14:26:13.000Z</time>
      </trkpt>
      <trkpt lat="43.51594" lon="6.24792">
        <ele>187.5</ele>
        <time>2025-02-05T14:26:18.000Z</time>
      </trkpt>
      <trkpt lat="43.51593" lon="6.24785">
        <ele>186.6</ele>
        <time>2025-02-05T14:26:25.000Z</time>
      </trkpt>
      <trkpt lat="43.51592" lon="6.24779">
        <ele>186.1</ele>
        <time>2025-02-05T14:26:31.000Z</time>
      </trkpt>
      <trkpt lat="43.51593" lon="6.24772">
        <ele>185.4</ele>
        <time>2025-02-05T14:26:36.000Z</time>
      </trkpt>
      <trkpt lat="43.51593" lon="6.24765">
        <ele>184.9</ele>
        <time>2025-02-05T14:26:41.000Z</time>
      </trkpt>
      <trkpt lat="43.51595" lon="6.24758">
        <ele>184.5</ele>
        <time>2025-02-05T14:26:46.000Z</time>
      </trkpt>
      <trkpt lat="43.51596" lon="6.24752">
        <ele>184.2</ele>
        <time>2025-02-05T14:26:51.000Z</time>
      </trkpt>
      <trkpt lat="43.51597" lon="6.24745">
        <ele>183.7</ele>
        <time>2025-02-05T14:26:56.000Z</time>
      </trkpt>
      <trkpt lat="43.51597" lon="6.24738">
        <ele>183.2</ele>
        <time>2025-02-05T14:27:01.000Z</time>
      </trkpt>
      <trkpt lat="43.51596" lon="6.24731">
        <ele>183</ele>
        <time>2025-02-05T14:27:07.000Z</time>
      </trkpt>
      <trkpt lat="43.51596" lon="6.24724">
        <ele>182.5</ele>
        <time>2025-02-05T14:27:13.000Z</time>
      </trkpt>
      <trkpt lat="43.51595" lon="6.24716">
        <ele>181.8</ele>
        <time>2025-02-05T14:27:19.000Z</time>
      </trkpt>
      <trkpt lat="43.51596" lon="6.2471">
        <ele>181.6</ele>
        <time>2025-02-05T14:27:23.000Z</time>
      </trkpt>
      <trkpt lat="43.51596" lon="6.24704">
        <ele>181.5</ele>
        <time>2025-02-05T14:27:28.000Z</time>
      </trkpt>
      <trkpt lat="43.51596" lon="6.24696">
        <ele>181.1</ele>
        <time>2025-02-05T14:27:33.000Z</time>
      </trkpt>
      <trkpt lat="43.51596" lon="6.2469">
        <ele>180.4</ele>
        <time>2025-02-05T14:27:39.000Z</time>
      </trkpt>
      <trkpt lat="43.51596" lon="6.24683">
        <ele>179.5</ele>
        <time>2025-02-05T14:27:45.000Z</time>
      </trkpt>
      <trkpt lat="43.51596" lon="6.24676">
        <ele>178.9</ele>
        <time>2025-02-05T14:27:51.000Z</time>
      </trkpt>
      <trkpt lat="43.51596" lon="6.24669">
        <ele>178.1</ele>
        <time>2025-02-05T14:27:56.000Z</time>
      </trkpt>
      <trkpt lat="43.51596" lon="6.24663">
        <ele>177.6</ele>
        <time>2025-02-05T14:28:01.000Z</time>
      </trkpt>
      <trkpt lat="43.51598" lon="6.24656">
        <ele>177</ele>
        <time>2025-02-05T14:28:06.000Z</time>
      </trkpt>
      <trkpt lat="43.51599" lon="6.24648">
        <ele>176.7</ele>
        <time>2025-02-05T14:28:11.000Z</time>
      </trkpt>
      <trkpt lat="43.516" lon="6.24642">
        <ele>176</ele>
        <time>2025-02-05T14:28:15.000Z</time>
      </trkpt>
      <trkpt lat="43.516" lon="6.24635">
        <ele>175.1</ele>
        <time>2025-02-05T14:28:20.000Z</time>
      </trkpt>
      <trkpt lat="43.51599" lon="6.24628">
        <ele>174.1</ele>
        <time>2025-02-05T14:28:25.000Z</time>
      </trkpt>
      <trkpt lat="43.51598" lon="6.24621">
        <ele>173.6</ele>
        <time>2025-02-05T14:28:30.000Z</time>
      </trkpt>
      <trkpt lat="43.51599" lon="6.24614">
        <ele>173</ele>
        <time>2025-02-05T14:28:35.000Z</time>
      </trkpt>
      <trkpt lat="43.51597" lon="6.24607">
        <ele>172.1</ele>
        <time>2025-02-05T14:28:41.000Z</time>
      </trkpt>
      <trkpt lat="43.51597" lon="6.24601">
        <ele>171.4</ele>
        <time>2025-02-05T14:28:47.000Z</time>
      </trkpt>
      <trkpt lat="43.51596" lon="6.24594">
        <ele>170.4</ele>
        <time>2025-02-05T14:28:53.000Z</time>
      </trkpt>
      <trkpt lat="43.51595" lon="6.24587">
        <ele>169.5</ele>
        <time>2025-02-05T14:28:58.000Z</time>
      </trkpt>
      <trkpt lat="43.51594" lon="6.2458">
        <ele>168.7</ele>
        <time>2025-02-05T14:29:02.000Z</time>
      </trkpt>
      <trkpt lat="43.51591" lon="6.24575">
        <ele>168.2</ele>
        <time>2025-02-05T14:29:06.000Z</time>
      </trkpt>
      <trkpt lat="43.51588" lon="6.2457">
        <ele>167.4</ele>
        <time>2025-02-05T14:29:11.000Z</time>
      </trkpt>
      <trkpt lat="43.51588" lon="6.24563">
        <ele>166.7</ele>
        <time>2025-02-05T14:29:16.000Z</time>
      </trkpt>
      <trkpt lat="43.51588" lon="6.24556">
        <ele>165.7</ele>
        <time>2025-02-05T14:29:22.000Z</time>
      </trkpt>
      <trkpt lat="43.51589" lon="6.24549">
        <ele>164.7</ele>
        <time>2025-02-05T14:29:27.000Z</time>
      </trkpt>
      <trkpt lat="43.5159" lon="6.24542">
        <ele>164</ele>
        <time>2025-02-05T14:29:32.000Z</time>
      </trkpt>
      <trkpt lat="43.51588" lon="6.24536">
        <ele>162.6</ele>
        <time>2025-02-05T14:29:39.000Z</time>
      </trkpt>
      <trkpt lat="43.51586" lon="6.24529">
        <ele>161.8</ele>
        <time>2025-02-05T14:29:45.000Z</time>
      </trkpt>
      <trkpt lat="43.51585" lon="6.24523">
        <ele>161.1</ele>
        <time>2025-02-05T14:29:49.000Z</time>
      </trkpt>
      <trkpt lat="43.51583" lon="6.24517">
        <ele>160.7</ele>
        <time>2025-02-05T14:29:52.000Z</time>
      </trkpt>
      <trkpt lat="43.51581" lon="6.2451">
        <ele>160.3</ele>
        <time>2025-02-05T14:29:56.000Z</time>
      </trkpt>
      <trkpt lat="43.5158" lon="6.24504">
        <ele>159.7</ele>
        <time>2025-02-05T14:30:00.000Z</time>
      </trkpt>
      <trkpt lat="43.51578" lon="6.24497">
        <ele>159</ele>
        <time>2025-02-05T14:30:06.000Z</time>
      </trkpt>
      <trkpt lat="43.51577" lon="6.24491">
        <ele>157.5</ele>
        <time>2025-02-05T14:30:53.000Z</time>
      </trkpt>
      <trkpt lat="43.51577" lon="6.24484">
        <ele>157.2</ele>
        <time>2025-02-05T14:31:10.000Z</time>
      </trkpt>
      <trkpt lat="43.51575" lon="6.24478">
        <ele>157.1</ele>
        <time>2025-02-05T14:31:32.000Z</time>
      </trkpt>
      <trkpt lat="43.5158" lon="6.24478">
        <ele>158.2</ele>
        <time>2025-02-05T14:31:54.000Z</time>
      </trkpt>
      <trkpt lat="43.51578" lon="6.24472">
        <ele>158.9</ele>
        <time>2025-02-05T14:32:15.000Z</time>
      </trkpt>
      <trkpt lat="43.51576" lon="6.24466">
        <ele>158.3</ele>
        <time>2025-02-05T14:32:50.000Z</time>
      </trkpt>
      <trkpt lat="43.51575" lon="6.2446">
        <ele>157.8</ele>
        <time>2025-02-05T14:33:14.000Z</time>
      </trkpt>
      <trkpt lat="43.51576" lon="6.24453">
        <ele>157.8</ele>
        <time>2025-02-05T14:33:22.000Z</time>
      </trkpt>
      <trkpt lat="43.51577" lon="6.24447">
        <ele>157.7</ele>
        <time>2025-02-05T14:33:32.000Z</time>
      </trkpt>
      <trkpt lat="43.51574" lon="6.24441">
        <ele>157.6</ele>
        <time>2025-02-05T14:33:49.000Z</time>
      </trkpt>
      <trkpt lat="43.51572" lon="6.24434">
        <ele>157.6</ele>
        <time>2025-02-05T14:33:59.000Z</time>
      </trkpt>
      <trkpt lat="43.5157" lon="6.24429">
        <ele>157.6</ele>
        <time>2025-02-05T14:34:07.000Z</time>
      </trkpt>
      <trkpt lat="43.51566" lon="6.24424">
        <ele>157.8</ele>
        <time>2025-02-05T14:34:14.000Z</time>
      </trkpt>
      <trkpt lat="43.51564" lon="6.24419">
        <ele>158.4</ele>
        <time>2025-02-05T14:34:24.000Z</time>
      </trkpt>
      <trkpt lat="43.51561" lon="6.24413">
        <ele>158.5</ele>
        <time>2025-02-05T14:34:33.000Z</time>
      </trkpt>
      <trkpt lat="43.5156" lon="6.24406">
        <ele>158.4</ele>
        <time>2025-02-05T14:34:44.000Z</time>
      </trkpt>
      <trkpt lat="43.51559" lon="6.244">
        <ele>158.3</ele>
        <time>2025-02-05T14:34:50.000Z</time>
      </trkpt>
      <trkpt lat="43.51559" lon="6.24393">
        <ele>158.7</ele>
        <time>2025-02-05T14:34:57.000Z</time>
      </trkpt>
      <trkpt lat="43.51562" lon="6.24388">
        <ele>158.9</ele>
        <time>2025-02-05T14:35:04.000Z</time>
      </trkpt>
      <trkpt lat="43.51565" lon="6.24383">
        <ele>159.7</ele>
        <time>2025-02-05T14:35:12.000Z</time>
      </trkpt>
      <trkpt lat="43.51568" lon="6.24377">
        <ele>160.4</ele>
        <time>2025-02-05T14:35:18.000Z</time>
      </trkpt>
      <trkpt lat="43.51569" lon="6.2437">
        <ele>160.9</ele>
        <time>2025-02-05T14:35:24.000Z</time>
      </trkpt>
      <trkpt lat="43.51569" lon="6.24364">
        <ele>161.5</ele>
        <time>2025-02-05T14:35:30.000Z</time>
      </trkpt>
      <trkpt lat="43.51567" lon="6.24357">
        <ele>162.2</ele>
        <time>2025-02-05T14:35:37.000Z</time>
      </trkpt>
      <trkpt lat="43.51565" lon="6.24351">
        <ele>163.2</ele>
        <time>2025-02-05T14:35:44.000Z</time>
      </trkpt>
      <trkpt lat="43.51567" lon="6.24345">
        <ele>164.1</ele>
        <time>2025-02-05T14:35:52.000Z</time>
      </trkpt>
      <trkpt lat="43.5157" lon="6.24341">
        <ele>165.6</ele>
        <time>2025-02-05T14:36:05.000Z</time>
      </trkpt>
      <trkpt lat="43.51571" lon="6.24335">
        <ele>166.5</ele>
        <time>2025-02-05T14:36:13.000Z</time>
      </trkpt>
      <trkpt lat="43.5157" lon="6.24329">
        <ele>166.9</ele>
        <time>2025-02-05T14:36:26.000Z</time>
      </trkpt>
      <trkpt lat="43.51567" lon="6.24333">
        <ele>167.1</ele>
        <time>2025-02-05T14:36:46.000Z</time>
      </trkpt>
      <trkpt lat="43.51562" lon="6.24336">
        <ele>167.2</ele>
        <time>2025-02-05T14:36:52.000Z</time>
      </trkpt>
      <trkpt lat="43.51559" lon="6.24341">
        <ele>167.3</ele>
        <time>2025-02-05T14:37:00.000Z</time>
      </trkpt>
      <trkpt lat="43.51558" lon="6.24347">
        <ele>167.5</ele>
        <time>2025-02-05T14:37:08.000Z</time>
      </trkpt>
      <trkpt lat="43.51555" lon="6.24352">
        <ele>167.8</ele>
        <time>2025-02-05T14:37:15.000Z</time>
      </trkpt>
      <trkpt lat="43.51551" lon="6.24355">
        <ele>168.3</ele>
        <time>2025-02-05T14:37:22.000Z</time>
      </trkpt>
      <trkpt lat="43.51547" lon="6.24358">
        <ele>168.7</ele>
        <time>2025-02-05T14:37:26.000Z</time>
      </trkpt>
      <trkpt lat="43.51544" lon="6.24364">
        <ele>169.6</ele>
        <time>2025-02-05T14:37:34.000Z</time>
      </trkpt>
      <trkpt lat="43.51542" lon="6.24369">
        <ele>170.8</ele>
        <time>2025-02-05T14:37:44.000Z</time>
      </trkpt>
      <trkpt lat="43.5154" lon="6.24375">
        <ele>172.9</ele>
        <time>2025-02-05T14:38:03.000Z</time>
      </trkpt>
      <trkpt lat="43.51538" lon="6.24382">
        <ele>173.4</ele>
        <time>2025-02-05T14:38:17.000Z</time>
      </trkpt>
      <trkpt lat="43.51537" lon="6.24388">
        <ele>174.1</ele>
        <time>2025-02-05T14:38:30.000Z</time>
      </trkpt>
      <trkpt lat="43.51536" lon="6.24394">
        <ele>174.6</ele>
        <time>2025-02-05T14:38:37.000Z</time>
      </trkpt>
      <trkpt lat="43.51534" lon="6.244">
        <ele>175.3</ele>
        <time>2025-02-05T14:38:56.000Z</time>
      </trkpt>
      <trkpt lat="43.51531" lon="6.24406">
        <ele>175.5</ele>
        <time>2025-02-05T14:39:04.000Z</time>
      </trkpt>
      <trkpt lat="43.51527" lon="6.24405">
        <ele>175.9</ele>
        <time>2025-02-05T14:39:28.000Z</time>
      </trkpt>
      <trkpt lat="43.51522" lon="6.24405">
        <ele>175.9</ele>
        <time>2025-02-05T14:39:34.000Z</time>
      </trkpt>
      <trkpt lat="43.51524" lon="6.24416">
        <ele>175.7</ele>
        <time>2025-02-05T14:39:46.000Z</time>
      </trkpt>
      <trkpt lat="43.5152" lon="6.24419">
        <ele>175.8</ele>
        <time>2025-02-05T14:39:53.000Z</time>
      </trkpt>
      <trkpt lat="43.51516" lon="6.24422">
        <ele>175.8</ele>
        <time>2025-02-05T14:40:00.000Z</time>
      </trkpt>
      <trkpt lat="43.51511" lon="6.2442">
        <ele>175.9</ele>
        <time>2025-02-05T14:40:07.000Z</time>
      </trkpt>
      <trkpt lat="43.51508" lon="6.24415">
        <ele>176.2</ele>
        <time>2025-02-05T14:40:24.000Z</time>
      </trkpt>
      <trkpt lat="43.51509" lon="6.24408">
        <ele>176.5</ele>
        <time>2025-02-05T14:40:33.000Z</time>
      </trkpt>
      <trkpt lat="43.5151" lon="6.24402">
        <ele>176.2</ele>
        <time>2025-02-05T14:42:16.000Z</time>
      </trkpt>
      <trkpt lat="43.51511" lon="6.24395">
        <ele>176.5</ele>
        <time>2025-02-05T14:42:28.000Z</time>
      </trkpt>
      <trkpt lat="43.5151" lon="6.24388">
        <ele>176.8</ele>
        <time>2025-02-05T14:42:46.000Z</time>
      </trkpt>
      <trkpt lat="43.51514" lon="6.24384">
        <ele>177</ele>
        <time>2025-02-05T14:42:53.000Z</time>
      </trkpt>
      <trkpt lat="43.51517" lon="6.24379">
        <ele>177</ele>
        <time>2025-02-05T14:43:00.000Z</time>
      </trkpt>
      <trkpt lat="43.51519" lon="6.24373">
        <ele>177.3</ele>
        <time>2025-02-05T14:43:23.000Z</time>
      </trkpt>
      <trkpt lat="43.51522" lon="6.24367">
        <ele>177</ele>
        <time>2025-02-05T14:43:39.000Z</time>
      </trkpt>
      <trkpt lat="43.51526" lon="6.24362">
        <ele>176.9</ele>
        <time>2025-02-05T14:43:44.000Z</time>
      </trkpt>
      <trkpt lat="43.51529" lon="6.24357">
        <ele>176.9</ele>
        <time>2025-02-05T14:43:52.000Z</time>
      </trkpt>
      <trkpt lat="43.5153" lon="6.24351">
        <ele>177.1</ele>
        <time>2025-02-05T14:43:58.000Z</time>
      </trkpt>
      <trkpt lat="43.51534" lon="6.24348">
        <ele>176.7</ele>
        <time>2025-02-05T14:44:06.000Z</time>
      </trkpt>
      <trkpt lat="43.51539" lon="6.24347">
        <ele>176.4</ele>
        <time>2025-02-05T14:44:12.000Z</time>
      </trkpt>
      <trkpt lat="43.51534" lon="6.24348">
        <ele>176.1</ele>
        <time>2025-02-05T14:44:22.000Z</time>
      </trkpt>
      <trkpt lat="43.51529" lon="6.24349">
        <ele>175.6</ele>
        <time>2025-02-05T14:44:43.000Z</time>
      </trkpt>
      <trkpt lat="43.51527" lon="6.24343">
        <ele>175.9</ele>
        <time>2025-02-05T14:44:59.000Z</time>
      </trkpt>
      <trkpt lat="43.51526" lon="6.24337">
        <ele>175.6</ele>
        <time>2025-02-05T14:45:10.000Z</time>
      </trkpt>
      <trkpt lat="43.51522" lon="6.24334">
        <ele>174.7</ele>
        <time>2025-02-05T14:45:23.000Z</time>
      </trkpt>
      <trkpt lat="43.51518" lon="6.24329">
        <ele>173.9</ele>
        <time>2025-02-05T14:45:31.000Z</time>
      </trkpt>
      <trkpt lat="43.51514" lon="6.24326">
        <ele>173.5</ele>
        <time>2025-02-05T14:45:41.000Z</time>
      </trkpt>
      <trkpt lat="43.5151" lon="6.24323">
        <ele>172</ele>
        <time>2025-02-05T14:46:07.000Z</time>
      </trkpt>
      <trkpt lat="43.51505" lon="6.24321">
        <ele>171.6</ele>
        <time>2025-02-05T14:46:14.000Z</time>
      </trkpt>
      <trkpt lat="43.515" lon="6.2432">
        <ele>171.1</ele>
        <time>2025-02-05T14:46:20.000Z</time>
      </trkpt>
      <trkpt lat="43.51496" lon="6.24318">
        <ele>170.2</ele>
        <time>2025-02-05T14:46:27.000Z</time>
      </trkpt>
      <trkpt lat="43.51492" lon="6.24315">
        <ele>169.5</ele>
        <time>2025-02-05T14:46:33.000Z</time>
      </trkpt>
      <trkpt lat="43.51488" lon="6.24311">
        <ele>168.5</ele>
        <time>2025-02-05T14:46:41.000Z</time>
      </trkpt>
      <trkpt lat="43.51483" lon="6.24308">
        <ele>167.7</ele>
        <time>2025-02-05T14:46:48.000Z</time>
      </trkpt>
      <trkpt lat="43.51479" lon="6.24305">
        <ele>167.1</ele>
        <time>2025-02-05T14:46:54.000Z</time>
      </trkpt>
      <trkpt lat="43.51476" lon="6.24301">
        <ele>166.6</ele>
        <time>2025-02-05T14:47:04.000Z</time>
      </trkpt>
      <trkpt lat="43.51472" lon="6.24298">
        <ele>166.5</ele>
        <time>2025-02-05T14:47:14.000Z</time>
      </trkpt>
      <trkpt lat="43.51477" lon="6.24295">
        <ele>167.2</ele>
        <time>2025-02-05T14:48:11.000Z</time>
      </trkpt>
      <trkpt lat="43.51473" lon="6.24298">
        <ele>167</ele>
        <time>2025-02-05T14:48:18.000Z</time>
      </trkpt>
      <trkpt lat="43.5147" lon="6.24293">
        <ele>167.3</ele>
        <time>2025-02-05T14:48:36.000Z</time>
      </trkpt>
      <trkpt lat="43.51467" lon="6.24287">
        <ele>167.9</ele>
        <time>2025-02-05T14:48:41.000Z</time>
      </trkpt>
      <trkpt lat="43.51463" lon="6.24281">
        <ele>168.2</ele>
        <time>2025-02-05T14:48:45.000Z</time>
      </trkpt>
      <trkpt lat="43.51463" lon="6.24275">
        <ele>168.8</ele>
        <time>2025-02-05T14:48:55.000Z</time>
      </trkpt>
      <trkpt lat="43.51459" lon="6.24272">
        <ele>169.2</ele>
        <time>2025-02-05T14:49:10.000Z</time>
      </trkpt>
      <trkpt lat="43.51454" lon="6.2427">
        <ele>169.9</ele>
        <time>2025-02-05T14:49:16.000Z</time>
      </trkpt>
      <trkpt lat="43.5145" lon="6.24274">
        <ele>170.9</ele>
        <time>2025-02-05T14:49:24.000Z</time>
      </trkpt>
      <trkpt lat="43.51447" lon="6.24279">
        <ele>172.1</ele>
        <time>2025-02-05T14:49:36.000Z</time>
      </trkpt>
      <trkpt lat="43.51443" lon="6.24276">
        <ele>175.8</ele>
        <time>2025-02-05T14:50:24.000Z</time>
      </trkpt>
      <trkpt lat="43.51443" lon="6.24269">
        <ele>176.1</ele>
        <time>2025-02-05T14:50:28.000Z</time>
      </trkpt>
      <trkpt lat="43.51442" lon="6.24262">
        <ele>176.5</ele>
        <time>2025-02-05T14:50:35.000Z</time>
      </trkpt>
      <trkpt lat="43.51439" lon="6.24257">
        <ele>177.3</ele>
        <time>2025-02-05T14:50:42.000Z</time>
      </trkpt>
      <trkpt lat="43.51436" lon="6.24252">
        <ele>177.9</ele>
        <time>2025-02-05T14:50:47.000Z</time>
      </trkpt>
      <trkpt lat="43.51431" lon="6.24249">
        <ele>178.5</ele>
        <time>2025-02-05T14:50:53.000Z</time>
      </trkpt>
      <trkpt lat="43.51428" lon="6.24244">
        <ele>179.6</ele>
        <time>2025-02-05T14:51:02.000Z</time>
      </trkpt>
      <trkpt lat="43.51424" lon="6.2424">
        <ele>180.7</ele>
        <time>2025-02-05T14:51:09.000Z</time>
      </trkpt>
      <trkpt lat="43.51421" lon="6.24236">
        <ele>182</ele>
        <time>2025-02-05T14:51:16.000Z</time>
      </trkpt>
      <trkpt lat="43.51419" lon="6.2423">
        <ele>183.5</ele>
        <time>2025-02-05T14:51:27.000Z</time>
      </trkpt>
      <trkpt lat="43.51419" lon="6.24224">
        <ele>185.2</ele>
        <time>2025-02-05T14:51:37.000Z</time>
      </trkpt>
      <trkpt lat="43.51419" lon="6.24218">
        <ele>187</ele>
        <time>2025-02-05T14:51:49.000Z</time>
      </trkpt>
      <trkpt lat="43.5142" lon="6.24211">
        <ele>188</ele>
        <time>2025-02-05T14:51:57.000Z</time>
      </trkpt>
      <trkpt lat="43.51421" lon="6.24205">
        <ele>189.3</ele>
        <time>2025-02-05T14:52:05.000Z</time>
      </trkpt>
      <trkpt lat="43.51417" lon="6.24202">
        <ele>191.8</ele>
        <time>2025-02-05T14:52:20.000Z</time>
      </trkpt>
      <trkpt lat="43.51412" lon="6.24202">
        <ele>193.1</ele>
        <time>2025-02-05T14:52:29.000Z</time>
      </trkpt>
      <trkpt lat="43.51408" lon="6.242">
        <ele>194.3</ele>
        <time>2025-02-05T14:52:37.000Z</time>
      </trkpt>
      <trkpt lat="43.51404" lon="6.24196">
        <ele>196.3</ele>
        <time>2025-02-05T14:52:51.000Z</time>
      </trkpt>
      <trkpt lat="43.51401" lon="6.24192">
        <ele>197.1</ele>
        <time>2025-02-05T14:52:57.000Z</time>
      </trkpt>
      <trkpt lat="43.51397" lon="6.24187">
        <ele>198</ele>
        <time>2025-02-05T14:53:04.000Z</time>
      </trkpt>
      <trkpt lat="43.514" lon="6.24182">
        <ele>200.2</ele>
        <time>2025-02-05T14:53:20.000Z</time>
      </trkpt>
      <trkpt lat="43.51402" lon="6.24177">
        <ele>201.8</ele>
        <time>2025-02-05T14:53:33.000Z</time>
      </trkpt>
      <trkpt lat="43.51401" lon="6.2417">
        <ele>204.3</ele>
        <time>2025-02-05T14:53:48.000Z</time>
      </trkpt>
      <trkpt lat="43.51397" lon="6.24173">
        <ele>206</ele>
        <time>2025-02-05T14:54:00.000Z</time>
      </trkpt>
      <trkpt lat="43.51392" lon="6.24172">
        <ele>207.4</ele>
        <time>2025-02-05T14:54:11.000Z</time>
      </trkpt>
      <trkpt lat="43.51388" lon="6.24168">
        <ele>208.4</ele>
        <time>2025-02-05T14:54:18.000Z</time>
      </trkpt>
      <trkpt lat="43.51385" lon="6.24163">
        <ele>209.2</ele>
        <time>2025-02-05T14:54:25.000Z</time>
      </trkpt>
      <trkpt lat="43.51382" lon="6.24158">
        <ele>211.3</ele>
        <time>2025-02-05T14:54:37.000Z</time>
      </trkpt>
      <trkpt lat="43.51379" lon="6.24153">
        <ele>211.9</ele>
        <time>2025-02-05T14:54:43.000Z</time>
      </trkpt>
      <trkpt lat="43.51377" lon="6.24148">
        <ele>212.8</ele>
        <time>2025-02-05T14:54:50.000Z</time>
      </trkpt>
      <trkpt lat="43.51374" lon="6.24142">
        <ele>213.4</ele>
        <time>2025-02-05T14:54:56.000Z</time>
      </trkpt>
      <trkpt lat="43.51371" lon="6.24137">
        <ele>214.2</ele>
        <time>2025-02-05T14:55:04.000Z</time>
      </trkpt>
      <trkpt lat="43.51368" lon="6.24132">
        <ele>215.3</ele>
        <time>2025-02-05T14:55:13.000Z</time>
      </trkpt>
      <trkpt lat="43.51364" lon="6.24128">
        <ele>216.6</ele>
        <time>2025-02-05T14:55:22.000Z</time>
      </trkpt>
      <trkpt lat="43.51362" lon="6.24122">
        <ele>217.7</ele>
        <time>2025-02-05T14:55:30.000Z</time>
      </trkpt>
      <trkpt lat="43.51358" lon="6.24118">
        <ele>218.8</ele>
        <time>2025-02-05T14:55:38.000Z</time>
      </trkpt>
      <trkpt lat="43.51354" lon="6.24114">
        <ele>219.6</ele>
        <time>2025-02-05T14:55:45.000Z</time>
      </trkpt>
      <trkpt lat="43.51351" lon="6.24109">
        <ele>220.4</ele>
        <time>2025-02-05T14:55:53.000Z</time>
      </trkpt>
      <trkpt lat="43.51348" lon="6.24103">
        <ele>221.2</ele>
        <time>2025-02-05T14:56:00.000Z</time>
      </trkpt>
      <trkpt lat="43.51347" lon="6.24097">
        <ele>222.6</ele>
        <time>2025-02-05T14:56:09.000Z</time>
      </trkpt>
      <trkpt lat="43.51348" lon="6.24091">
        <ele>223.8</ele>
        <time>2025-02-05T14:56:20.000Z</time>
      </trkpt>
      <trkpt lat="43.51347" lon="6.24084">
        <ele>225.3</ele>
        <time>2025-02-05T14:56:28.000Z</time>
      </trkpt>
      <trkpt lat="43.51344" lon="6.24078">
        <ele>226.3</ele>
        <time>2025-02-05T14:56:36.000Z</time>
      </trkpt>
      <trkpt lat="43.51341" lon="6.24073">
        <ele>227.5</ele>
        <time>2025-02-05T14:56:46.000Z</time>
      </trkpt>
      <trkpt lat="43.51339" lon="6.24068">
        <ele>228.7</ele>
        <time>2025-02-05T14:56:54.000Z</time>
      </trkpt>
      <trkpt lat="43.51338" lon="6.24061">
        <ele>229.3</ele>
        <time>2025-02-05T14:57:00.000Z</time>
      </trkpt>
      <trkpt lat="43.51338" lon="6.24055">
        <ele>230.5</ele>
        <time>2025-02-05T14:57:08.000Z</time>
      </trkpt>
      <trkpt lat="43.51343" lon="6.24055">
        <ele>231.8</ele>
        <time>2025-02-05T14:57:17.000Z</time>
      </trkpt>
      <trkpt lat="43.51348" lon="6.24056">
        <ele>233</ele>
        <time>2025-02-05T14:57:27.000Z</time>
      </trkpt>
      <trkpt lat="43.51352" lon="6.24057">
        <ele>233.9</ele>
        <time>2025-02-05T14:57:36.000Z</time>
      </trkpt>
      <trkpt lat="43.51357" lon="6.2406">
        <ele>235.2</ele>
        <time>2025-02-05T14:57:46.000Z</time>
      </trkpt>
      <trkpt lat="43.51361" lon="6.2406">
        <ele>235.9</ele>
        <time>2025-02-05T14:57:52.000Z</time>
      </trkpt>
      <trkpt lat="43.5136" lon="6.24054">
        <ele>239.3</ele>
        <time>2025-02-05T14:58:16.000Z</time>
      </trkpt>
      <trkpt lat="43.5136" lon="6.24047">
        <ele>240.4</ele>
        <time>2025-02-05T14:58:27.000Z</time>
      </trkpt>
      <trkpt lat="43.51358" lon="6.24041">
        <ele>241.2</ele>
        <time>2025-02-05T14:58:45.000Z</time>
      </trkpt>
      <trkpt lat="43.51361" lon="6.24037">
        <ele>241.3</ele>
        <time>2025-02-05T14:59:07.000Z</time>
      </trkpt>
      <trkpt lat="43.51362" lon="6.2403">
        <ele>242</ele>
        <time>2025-02-05T14:59:37.000Z</time>
      </trkpt>
      <trkpt lat="43.51361" lon="6.24024">
        <ele>242.2</ele>
        <time>2025-02-05T14:59:56.000Z</time>
      </trkpt>
      <trkpt lat="43.51362" lon="6.2403">
        <ele>241.3</ele>
        <time>2025-02-05T15:01:14.000Z</time>
      </trkpt>
      <trkpt lat="43.51359" lon="6.24025">
        <ele>241.2</ele>
        <time>2025-02-05T15:01:54.000Z</time>
      </trkpt>
      <trkpt lat="43.51358" lon="6.24018">
        <ele>241.3</ele>
        <time>2025-02-05T15:02:08.000Z</time>
      </trkpt>
      <trkpt lat="43.5136" lon="6.24025">
        <ele>241</ele>
        <time>2025-02-05T15:02:41.000Z</time>
      </trkpt>
      <trkpt lat="43.51364" lon="6.24026">
        <ele>242.3</ele>
        <time>2025-02-05T15:03:17.000Z</time>
      </trkpt>
      <trkpt lat="43.51368" lon="6.24021">
        <ele>242.3</ele>
        <time>2025-02-05T15:03:25.000Z</time>
      </trkpt>
      <trkpt lat="43.51373" lon="6.24021">
        <ele>242.5</ele>
        <time>2025-02-05T15:03:32.000Z</time>
      </trkpt>
      <trkpt lat="43.51377" lon="6.24023">
        <ele>242.8</ele>
        <time>2025-02-05T15:03:38.000Z</time>
      </trkpt>
      <trkpt lat="43.5138" lon="6.24029">
        <ele>243</ele>
        <time>2025-02-05T15:03:43.000Z</time>
      </trkpt>
      <trkpt lat="43.51384" lon="6.24035">
        <ele>243.1</ele>
        <time>2025-02-05T15:03:48.000Z</time>
      </trkpt>
      <trkpt lat="43.51385" lon="6.24041">
        <ele>243.5</ele>
        <time>2025-02-05T15:03:55.000Z</time>
      </trkpt>
      <trkpt lat="43.51389" lon="6.24044">
        <ele>244.1</ele>
        <time>2025-02-05T15:04:39.000Z</time>
      </trkpt>
      <trkpt lat="43.51387" lon="6.2405">
        <ele>243.6</ele>
        <time>2025-02-05T15:07:02.000Z</time>
      </trkpt>
      <trkpt lat="43.5139" lon="6.24046">
        <ele>243.5</ele>
        <time>2025-02-05T15:08:21.000Z</time>
      </trkpt>
      <trkpt lat="43.51386" lon="6.24047">
        <ele>243.6</ele>
        <time>2025-02-05T15:09:32.000Z</time>
      </trkpt>
      <trkpt lat="43.51382" lon="6.2405">
        <ele>244.1</ele>
        <time>2025-02-05T15:09:41.000Z</time>
      </trkpt>
      <trkpt lat="43.51378" lon="6.24053">
        <ele>243.8</ele>
        <time>2025-02-05T15:09:49.000Z</time>
      </trkpt>
      <trkpt lat="43.51373" lon="6.24057">
        <ele>243.3</ele>
        <time>2025-02-05T15:10:00.000Z</time>
      </trkpt>
      <trkpt lat="43.51369" lon="6.24058">
        <ele>242.6</ele>
        <time>2025-02-05T15:10:11.000Z</time>
      </trkpt>
      <trkpt lat="43.51364" lon="6.24057">
        <ele>241.9</ele>
        <time>2025-02-05T15:10:18.000Z</time>
      </trkpt>
      <trkpt lat="43.51359" lon="6.24059">
        <ele>238</ele>
        <time>2025-02-05T15:10:49.000Z</time>
      </trkpt>
      <trkpt lat="43.51354" lon="6.24058">
        <ele>236.6</ele>
        <time>2025-02-05T15:10:59.000Z</time>
      </trkpt>
      <trkpt lat="43.51349" lon="6.24056">
        <ele>235.7</ele>
        <time>2025-02-05T15:11:05.000Z</time>
      </trkpt>
      <trkpt lat="43.51345" lon="6.24053">
        <ele>234.5</ele>
        <time>2025-02-05T15:11:12.000Z</time>
      </trkpt>
      <trkpt lat="43.5134" lon="6.24053">
        <ele>233.5</ele>
        <time>2025-02-05T15:11:19.000Z</time>
      </trkpt>
      <trkpt lat="43.51341" lon="6.2406">
        <ele>232.5</ele>
        <time>2025-02-05T15:11:26.000Z</time>
      </trkpt>
      <trkpt lat="43.51342" lon="6.24066">
        <ele>231.5</ele>
        <time>2025-02-05T15:11:34.000Z</time>
      </trkpt>
      <trkpt lat="43.51344" lon="6.24071">
        <ele>231</ele>
        <time>2025-02-05T15:11:43.000Z</time>
      </trkpt>
      <trkpt lat="43.51346" lon="6.24078">
        <ele>230.6</ele>
        <time>2025-02-05T15:11:50.000Z</time>
      </trkpt>
      <trkpt lat="43.51347" lon="6.24084">
        <ele>229.4</ele>
        <time>2025-02-05T15:12:02.000Z</time>
      </trkpt>
      <trkpt lat="43.51346" lon="6.2409">
        <ele>227.8</ele>
        <time>2025-02-05T15:12:12.000Z</time>
      </trkpt>
      <trkpt lat="43.51347" lon="6.24096">
        <ele>226.3</ele>
        <time>2025-02-05T15:12:21.000Z</time>
      </trkpt>
      <trkpt lat="43.51348" lon="6.24103">
        <ele>225.4</ele>
        <time>2025-02-05T15:12:28.000Z</time>
      </trkpt>
      <trkpt lat="43.5135" lon="6.24108">
        <ele>224.5</ele>
        <time>2025-02-05T15:12:37.000Z</time>
      </trkpt>
      <trkpt lat="43.51353" lon="6.24113">
        <ele>223.4</ele>
        <time>2025-02-05T15:12:46.000Z</time>
      </trkpt>
      <trkpt lat="43.51356" lon="6.24118">
        <ele>222.1</ele>
        <time>2025-02-05T15:12:55.000Z</time>
      </trkpt>
      <trkpt lat="43.5136" lon="6.24122">
        <ele>220.6</ele>
        <time>2025-02-05T15:13:06.000Z</time>
      </trkpt>
      <trkpt lat="43.51361" lon="6.2413">
        <ele>219.3</ele>
        <time>2025-02-05T15:13:15.000Z</time>
      </trkpt>
      <trkpt lat="43.51364" lon="6.24134">
        <ele>218.3</ele>
        <time>2025-02-05T15:13:22.000Z</time>
      </trkpt>
      <trkpt lat="43.51368" lon="6.24139">
        <ele>217.1</ele>
        <time>2025-02-05T15:13:32.000Z</time>
      </trkpt>
      <trkpt lat="43.51371" lon="6.24143">
        <ele>216.2</ele>
        <time>2025-02-05T15:13:39.000Z</time>
      </trkpt>
      <trkpt lat="43.51375" lon="6.24147">
        <ele>215.3</ele>
        <time>2025-02-05T15:13:47.000Z</time>
      </trkpt>
      <trkpt lat="43.51379" lon="6.2415">
        <ele>213.8</ele>
        <time>2025-02-05T15:13:57.000Z</time>
      </trkpt>
      <trkpt lat="43.51382" lon="6.24156">
        <ele>212.5</ele>
        <time>2025-02-05T15:14:08.000Z</time>
      </trkpt>
      <trkpt lat="43.51386" lon="6.2416">
        <ele>211.8</ele>
        <time>2025-02-05T15:14:13.000Z</time>
      </trkpt>
      <trkpt lat="43.5139" lon="6.2416">
        <ele>210.6</ele>
        <time>2025-02-05T15:14:22.000Z</time>
      </trkpt>
      <trkpt lat="43.51395" lon="6.2416">
        <ele>209.6</ele>
        <time>2025-02-05T15:14:29.000Z</time>
      </trkpt>
      <trkpt lat="43.51399" lon="6.24161">
        <ele>208.5</ele>
        <time>2025-02-05T15:14:38.000Z</time>
      </trkpt>
      <trkpt lat="43.514" lon="6.24167">
        <ele>206.9</ele>
        <time>2025-02-05T15:14:52.000Z</time>
      </trkpt>
      <trkpt lat="43.514" lon="6.24174">
        <ele>205.8</ele>
        <time>2025-02-05T15:15:01.000Z</time>
      </trkpt>
      <trkpt lat="43.51398" lon="6.2418">
        <ele>204.6</ele>
        <time>2025-02-05T15:15:13.000Z</time>
      </trkpt>
      <trkpt lat="43.51396" lon="6.24185">
        <ele>202.9</ele>
        <time>2025-02-05T15:15:27.899Z</time>
      </trkpt>
      <trkpt lat="43.51396" lon="6.24192">
        <ele>201.6</ele>
        <time>2025-02-05T15:15:41.000Z</time>
      </trkpt>
      <trkpt lat="43.51399" lon="6.24197">
        <ele>200.4</ele>
        <time>2025-02-05T15:15:53.000Z</time>
      </trkpt>
      <trkpt lat="43.51403" lon="6.24201">
        <ele>198.8</ele>
        <time>2025-02-05T15:16:05.000Z</time>
      </trkpt>
      <trkpt lat="43.51407" lon="6.24202">
        <ele>197.4</ele>
        <time>2025-02-05T15:16:13.000Z</time>
      </trkpt>
      <trkpt lat="43.51412" lon="6.24201">
        <ele>196.7</ele>
        <time>2025-02-05T15:16:19.000Z</time>
      </trkpt>
      <trkpt lat="43.51416" lon="6.24197">
        <ele>195.9</ele>
        <time>2025-02-05T15:16:27.000Z</time>
      </trkpt>
      <trkpt lat="43.5142" lon="6.24199">
        <ele>195.6</ele>
        <time>2025-02-05T15:16:33.000Z</time>
      </trkpt>
      <trkpt lat="43.51422" lon="6.24205">
        <ele>194.5</ele>
        <time>2025-02-05T15:16:43.000Z</time>
      </trkpt>
      <trkpt lat="43.51423" lon="6.24212">
        <ele>193</ele>
        <time>2025-02-05T15:16:53.000Z</time>
      </trkpt>
      <trkpt lat="43.51421" lon="6.24218">
        <ele>191</ele>
        <time>2025-02-05T15:17:02.000Z</time>
      </trkpt>
      <trkpt lat="43.5142" lon="6.24225">
        <ele>189.5</ele>
        <time>2025-02-05T15:17:11.000Z</time>
      </trkpt>
      <trkpt lat="43.51418" lon="6.24231">
        <ele>188.3</ele>
        <time>2025-02-05T15:17:18.000Z</time>
      </trkpt>
      <trkpt lat="43.51422" lon="6.24236">
        <ele>187</ele>
        <time>2025-02-05T15:17:27.000Z</time>
      </trkpt>
      <trkpt lat="43.51426" lon="6.2424">
        <ele>185.6</ele>
        <time>2025-02-05T15:17:35.000Z</time>
      </trkpt>
      <trkpt lat="43.5143" lon="6.24244">
        <ele>183.9</ele>
        <time>2025-02-05T15:17:45.000Z</time>
      </trkpt>
      <trkpt lat="43.51434" lon="6.24246">
        <ele>182.5</ele>
        <time>2025-02-05T15:17:52.000Z</time>
      </trkpt>
      <trkpt lat="43.5144" lon="6.24249">
        <ele>180.6</ele>
        <time>2025-02-05T15:18:11.000Z</time>
      </trkpt>
      <trkpt lat="43.51441" lon="6.24255">
        <ele>178.9</ele>
        <time>2025-02-05T15:19:45.000Z</time>
      </trkpt>
      <trkpt lat="43.51436" lon="6.2426">
        <ele>178</ele>
        <time>2025-02-05T15:20:13.000Z</time>
      </trkpt>
      <trkpt lat="43.51433" lon="6.24267">
        <ele>178</ele>
        <time>2025-02-05T15:20:22.000Z</time>
      </trkpt>
      <trkpt lat="43.51429" lon="6.24269">
        <ele>177.1</ele>
        <time>2025-02-05T15:20:34.000Z</time>
      </trkpt>
      <trkpt lat="43.51427" lon="6.24276">
        <ele>176</ele>
        <time>2025-02-05T15:20:47.000Z</time>
      </trkpt>
      <trkpt lat="43.51421" lon="6.24275">
        <ele>175.4</ele>
        <time>2025-02-05T15:20:53.000Z</time>
      </trkpt>
      <trkpt lat="43.51416" lon="6.24274">
        <ele>175.2</ele>
        <time>2025-02-05T15:20:58.000Z</time>
      </trkpt>
      <trkpt lat="43.51417" lon="6.24281">
        <ele>173.6</ele>
        <time>2025-02-05T15:21:10.000Z</time>
      </trkpt>
      <trkpt lat="43.51414" lon="6.24277">
        <ele>171.5</ele>
        <time>2025-02-05T15:21:26.000Z</time>
      </trkpt>
      <trkpt lat="43.5141" lon="6.24272">
        <ele>170.9</ele>
        <time>2025-02-05T15:21:30.000Z</time>
      </trkpt>
      <trkpt lat="43.51406" lon="6.24269">
        <ele>170.3</ele>
        <time>2025-02-05T15:21:36.000Z</time>
      </trkpt>
      <trkpt lat="43.51401" lon="6.2427">
        <ele>169.3</ele>
        <time>2025-02-05T15:21:43.000Z</time>
      </trkpt>
      <trkpt lat="43.51396" lon="6.24268">
        <ele>168.7</ele>
        <time>2025-02-05T15:21:50.000Z</time>
      </trkpt>
      <trkpt lat="43.51392" lon="6.24263">
        <ele>168.1</ele>
        <time>2025-02-05T15:21:57.000Z</time>
      </trkpt>
      <trkpt lat="43.51386" lon="6.24265">
        <ele>167.6</ele>
        <time>2025-02-05T15:22:01.000Z</time>
      </trkpt>
      <trkpt lat="43.51382" lon="6.24263">
        <ele>167.2</ele>
        <time>2025-02-05T15:22:04.000Z</time>
      </trkpt>
      <trkpt lat="43.51376" lon="6.24262">
        <ele>166.9</ele>
        <time>2025-02-05T15:22:07.000Z</time>
      </trkpt>
      <trkpt lat="43.51371" lon="6.24262">
        <ele>166.1</ele>
        <time>2025-02-05T15:22:11.000Z</time>
      </trkpt>
      <trkpt lat="43.51366" lon="6.24258">
        <ele>165</ele>
        <time>2025-02-05T15:22:16.000Z</time>
      </trkpt>
      <trkpt lat="43.51362" lon="6.24255">
        <ele>164.1</ele>
        <time>2025-02-05T15:22:22.000Z</time>
      </trkpt>
      <trkpt lat="43.51358" lon="6.24252">
        <ele>162.6</ele>
        <time>2025-02-05T15:22:33.000Z</time>
      </trkpt>
      <trkpt lat="43.5136" lon="6.24247">
        <ele>161.7</ele>
        <time>2025-02-05T15:22:44.000Z</time>
      </trkpt>
      <trkpt lat="43.51365" lon="6.2425">
        <ele>160.4</ele>
        <time>2025-02-05T15:23:08.000Z</time>
      </trkpt>
      <trkpt lat="43.51368" lon="6.24255">
        <ele>160.5</ele>
        <time>2025-02-05T15:23:16.000Z</time>
      </trkpt>
      <trkpt lat="43.51373" lon="6.24257">
        <ele>160.7</ele>
        <time>2025-02-05T15:23:22.000Z</time>
      </trkpt>
      <trkpt lat="43.51376" lon="6.24263">
        <ele>160.7</ele>
        <time>2025-02-05T15:23:28.000Z</time>
      </trkpt>
      <trkpt lat="43.5138" lon="6.24266">
        <ele>160.8</ele>
        <time>2025-02-05T15:23:31.000Z</time>
      </trkpt>
      <trkpt lat="43.51382" lon="6.24274">
        <ele>161</ele>
        <time>2025-02-05T15:23:35.000Z</time>
      </trkpt>
      <trkpt lat="43.51386" lon="6.24279">
        <ele>161.3</ele>
        <time>2025-02-05T15:23:39.000Z</time>
      </trkpt>
      <trkpt lat="43.51389" lon="6.24283">
        <ele>161.4</ele>
        <time>2025-02-05T15:23:43.000Z</time>
      </trkpt>
      <trkpt lat="43.51394" lon="6.24287">
        <ele>161.5</ele>
        <time>2025-02-05T15:23:48.000Z</time>
      </trkpt>
      <trkpt lat="43.51395" lon="6.24293">
        <ele>161.5</ele>
        <time>2025-02-05T15:23:52.000Z</time>
      </trkpt>
      <trkpt lat="43.51399" lon="6.24296">
        <ele>161.7</ele>
        <time>2025-02-05T15:23:57.000Z</time>
      </trkpt>
      <trkpt lat="43.51404" lon="6.24298">
        <ele>161.8</ele>
        <time>2025-02-05T15:24:02.000Z</time>
      </trkpt>
      <trkpt lat="43.51406" lon="6.24305">
        <ele>161.9</ele>
        <time>2025-02-05T15:24:09.000Z</time>
      </trkpt>
      <trkpt lat="43.51409" lon="6.2431">
        <ele>161.8</ele>
        <time>2025-02-05T15:24:14.000Z</time>
      </trkpt>
      <trkpt lat="43.51414" lon="6.24314">
        <ele>161.8</ele>
        <time>2025-02-05T15:24:19.000Z</time>
      </trkpt>
      <trkpt lat="43.51415" lon="6.2432">
        <ele>161.9</ele>
        <time>2025-02-05T15:24:27.000Z</time>
      </trkpt>
      <trkpt lat="43.51419" lon="6.24325">
        <ele>161.8</ele>
        <time>2025-02-05T15:24:35.000Z</time>
      </trkpt>
      <trkpt lat="43.51419" lon="6.24332">
        <ele>161.8</ele>
        <time>2025-02-05T15:24:38.000Z</time>
      </trkpt>
      <trkpt lat="43.51422" lon="6.24337">
        <ele>161.8</ele>
        <time>2025-02-05T15:24:46.000Z</time>
      </trkpt>
      <trkpt lat="43.51426" lon="6.24338">
        <ele>161.9</ele>
        <time>2025-02-05T15:24:51.000Z</time>
      </trkpt>
      <trkpt lat="43.5143" lon="6.24343">
        <ele>162.3</ele>
        <time>2025-02-05T15:24:58.000Z</time>
      </trkpt>
      <trkpt lat="43.51434" lon="6.24347">
        <ele>162.4</ele>
        <time>2025-02-05T15:25:05.000Z</time>
      </trkpt>
      <trkpt lat="43.51439" lon="6.24345">
        <ele>162.5</ele>
        <time>2025-02-05T15:25:10.000Z</time>
      </trkpt>
      <trkpt lat="43.51444" lon="6.24348">
        <ele>162.5</ele>
        <time>2025-02-05T15:25:15.000Z</time>
      </trkpt>
      <trkpt lat="43.51449" lon="6.24347">
        <ele>162.4</ele>
        <time>2025-02-05T15:25:20.000Z</time>
      </trkpt>
      <trkpt lat="43.51454" lon="6.24348">
        <ele>163.1</ele>
        <time>2025-02-05T15:25:27.000Z</time>
      </trkpt>
      <trkpt lat="43.51458" lon="6.24349">
        <ele>163.4</ele>
        <time>2025-02-05T15:25:35.000Z</time>
      </trkpt>
      <trkpt lat="43.51463" lon="6.24351">
        <ele>163.7</ele>
        <time>2025-02-05T15:25:41.000Z</time>
      </trkpt>
      <trkpt lat="43.51464" lon="6.24345">
        <ele>163.9</ele>
        <time>2025-02-05T15:25:48.000Z</time>
      </trkpt>
      <trkpt lat="43.51466" lon="6.24339">
        <ele>164</ele>
        <time>2025-02-05T15:25:53.000Z</time>
      </trkpt>
      <trkpt lat="43.51469" lon="6.24333">
        <ele>164.2</ele>
        <time>2025-02-05T15:25:59.000Z</time>
      </trkpt>
      <trkpt lat="43.5147" lon="6.24326">
        <ele>164.4</ele>
        <time>2025-02-05T15:26:05.000Z</time>
      </trkpt>
      <trkpt lat="43.51474" lon="6.24322">
        <ele>164.7</ele>
        <time>2025-02-05T15:26:13.000Z</time>
      </trkpt>
      <trkpt lat="43.51477" lon="6.24316">
        <ele>165</ele>
        <time>2025-02-05T15:26:18.000Z</time>
      </trkpt>
      <trkpt lat="43.51476" lon="6.24309">
        <ele>165</ele>
        <time>2025-02-05T15:26:23.000Z</time>
      </trkpt>
      <trkpt lat="43.51476" lon="6.24302">
        <ele>165.1</ele>
        <time>2025-02-05T15:26:28.000Z</time>
      </trkpt>
      <trkpt lat="43.51477" lon="6.24295">
        <ele>165.4</ele>
        <time>2025-02-05T15:26:33.000Z</time>
      </trkpt>
      <trkpt lat="43.51479" lon="6.24288">
        <ele>165.3</ele>
        <time>2025-02-05T15:26:38.000Z</time>
      </trkpt>
      <trkpt lat="43.51479" lon="6.24282">
        <ele>165.5</ele>
        <time>2025-02-05T15:26:42.000Z</time>
      </trkpt>
      <trkpt lat="43.51479" lon="6.24275">
        <ele>165.7</ele>
        <time>2025-02-05T15:26:47.000Z</time>
      </trkpt>
      <trkpt lat="43.5148" lon="6.24269">
        <ele>165.5</ele>
        <time>2025-02-05T15:26:52.000Z</time>
      </trkpt>
      <trkpt lat="43.51483" lon="6.24263">
        <ele>165.3</ele>
        <time>2025-02-05T15:26:56.000Z</time>
      </trkpt>
      <trkpt lat="43.51484" lon="6.24256">
        <ele>164.9</ele>
        <time>2025-02-05T15:27:14.000Z</time>
      </trkpt>
      <trkpt lat="43.51483" lon="6.2425">
        <ele>164.5</ele>
        <time>2025-02-05T15:27:22.000Z</time>
      </trkpt>
      <trkpt lat="43.51487" lon="6.24246">
        <ele>164</ele>
        <time>2025-02-05T15:27:30.000Z</time>
      </trkpt>
      <trkpt lat="43.51492" lon="6.24245">
        <ele>163.6</ele>
        <time>2025-02-05T15:27:36.000Z</time>
      </trkpt>
      <trkpt lat="43.51496" lon="6.24244">
        <ele>163.6</ele>
        <time>2025-02-05T15:27:41.000Z</time>
      </trkpt>
      <trkpt lat="43.51501" lon="6.24243">
        <ele>163.6</ele>
        <time>2025-02-05T15:27:46.000Z</time>
      </trkpt>
      <trkpt lat="43.51506" lon="6.24243">
        <ele>163.5</ele>
        <time>2025-02-05T15:27:50.000Z</time>
      </trkpt>
      <trkpt lat="43.51511" lon="6.24244">
        <ele>163.4</ele>
        <time>2025-02-05T15:27:56.000Z</time>
      </trkpt>
      <trkpt lat="43.51516" lon="6.24245">
        <ele>163.3</ele>
        <time>2025-02-05T15:28:01.000Z</time>
      </trkpt>
      <trkpt lat="43.51521" lon="6.24246">
        <ele>163.1</ele>
        <time>2025-02-05T15:28:07.000Z</time>
      </trkpt>
      <trkpt lat="43.51526" lon="6.24246">
        <ele>163</ele>
        <time>2025-02-05T15:28:12.000Z</time>
      </trkpt>
      <trkpt lat="43.5153" lon="6.24248">
        <ele>162.9</ele>
        <time>2025-02-05T15:28:22.000Z</time>
      </trkpt>
      <trkpt lat="43.51534" lon="6.24245">
        <ele>162.8</ele>
        <time>2025-02-05T15:28:33.000Z</time>
      </trkpt>
      <trkpt lat="43.51539" lon="6.24243">
        <ele>162.6</ele>
        <time>2025-02-05T15:28:43.000Z</time>
      </trkpt>
      <trkpt lat="43.51544" lon="6.24241">
        <ele>162.7</ele>
        <time>2025-02-05T15:28:46.000Z</time>
      </trkpt>
      <trkpt lat="43.51549" lon="6.24242">
        <ele>162.6</ele>
        <time>2025-02-05T15:28:49.000Z</time>
      </trkpt>
      <trkpt lat="43.51555" lon="6.24243">
        <ele>162.7</ele>
        <time>2025-02-05T15:28:52.000Z</time>
      </trkpt>
      <trkpt lat="43.5156" lon="6.24244">
        <ele>162.7</ele>
        <time>2025-02-05T15:28:55.000Z</time>
      </trkpt>
      <trkpt lat="43.51565" lon="6.24244">
        <ele>162.8</ele>
        <time>2025-02-05T15:28:58.000Z</time>
      </trkpt>
      <trkpt lat="43.51571" lon="6.24244">
        <ele>162.7</ele>
        <time>2025-02-05T15:29:02.000Z</time>
      </trkpt>
      <trkpt lat="43.51575" lon="6.24242">
        <ele>162.7</ele>
        <time>2025-02-05T15:29:05.000Z</time>
      </trkpt>
      <trkpt lat="43.5158" lon="6.2424">
        <ele>162.6</ele>
        <time>2025-02-05T15:29:08.000Z</time>
      </trkpt>
      <trkpt lat="43.51585" lon="6.24239">
        <ele>162.6</ele>
        <time>2025-02-05T15:29:12.000Z</time>
      </trkpt>
      <trkpt lat="43.5159" lon="6.24239">
        <ele>162.6</ele>
        <time>2025-02-05T15:29:19.000Z</time>
      </trkpt>
      <trkpt lat="43.51595" lon="6.24237">
        <ele>162.6</ele>
        <time>2025-02-05T15:29:24.000Z</time>
      </trkpt>
      <trkpt lat="43.516" lon="6.24236">
        <ele>162.7</ele>
        <time>2025-02-05T15:29:29.000Z</time>
      </trkpt>
      <trkpt lat="43.51604" lon="6.24234">
        <ele>162.7</ele>
        <time>2025-02-05T15:29:33.000Z</time>
      </trkpt>
      <trkpt lat="43.51609" lon="6.24232">
        <ele>162.9</ele>
        <time>2025-02-05T15:29:38.000Z</time>
      </trkpt>
      <trkpt lat="43.51614" lon="6.24232">
        <ele>162.6</ele>
        <time>2025-02-05T15:29:44.000Z</time>
      </trkpt>
      <trkpt lat="43.51618" lon="6.24235">
        <ele>163</ele>
        <time>2025-02-05T15:29:56.000Z</time>
      </trkpt>
      <trkpt lat="43.51617" lon="6.24241">
        <ele>162.7</ele>
        <time>2025-02-05T15:30:02.000Z</time>
      </trkpt>
      <trkpt lat="43.51617" lon="6.24248">
        <ele>162.6</ele>
        <time>2025-02-05T15:30:07.000Z</time>
      </trkpt>
      <trkpt lat="43.51615" lon="6.24254">
        <ele>162.2</ele>
        <time>2025-02-05T15:30:13.000Z</time>
      </trkpt>
      <trkpt lat="43.51613" lon="6.24261">
        <ele>161.8</ele>
        <time>2025-02-05T15:30:19.000Z</time>
      </trkpt>
      <trkpt lat="43.51613" lon="6.24268">
        <ele>161.7</ele>
        <time>2025-02-05T15:30:23.000Z</time>
      </trkpt>
      <trkpt lat="43.51611" lon="6.24274">
        <ele>161.5</ele>
        <time>2025-02-05T15:30:30.000Z</time>
      </trkpt>
      <trkpt lat="43.51609" lon="6.2428">
        <ele>161.2</ele>
        <time>2025-02-05T15:30:48.000Z</time>
      </trkpt>
      <trkpt lat="43.51606" lon="6.24286">
        <ele>161.5</ele>
        <time>2025-02-05T15:30:54.000Z</time>
      </trkpt>
      <trkpt lat="43.51603" lon="6.24292">
        <ele>161.7</ele>
        <time>2025-02-05T15:31:01.000Z</time>
      </trkpt>
      <trkpt lat="43.516" lon="6.24297">
        <ele>161.7</ele>
        <time>2025-02-05T15:31:07.000Z</time>
      </trkpt>
      <trkpt lat="43.51596" lon="6.24302">
        <ele>161.7</ele>
        <time>2025-02-05T15:31:12.000Z</time>
      </trkpt>
      <trkpt lat="43.51595" lon="6.24309">
        <ele>161.9</ele>
        <time>2025-02-05T15:31:16.000Z</time>
      </trkpt>
      <trkpt lat="43.51592" lon="6.24315">
        <ele>161.7</ele>
        <time>2025-02-05T15:31:21.000Z</time>
      </trkpt>
      <trkpt lat="43.51591" lon="6.24321">
        <ele>161.6</ele>
        <time>2025-02-05T15:31:25.000Z</time>
      </trkpt>
      <trkpt lat="43.51589" lon="6.24328">
        <ele>161.3</ele>
        <time>2025-02-05T15:31:30.000Z</time>
      </trkpt>
      <trkpt lat="43.51587" lon="6.24334">
        <ele>161.1</ele>
        <time>2025-02-05T15:31:35.000Z</time>
      </trkpt>
      <trkpt lat="43.51583" lon="6.24338">
        <ele>160.5</ele>
        <time>2025-02-05T15:31:40.000Z</time>
      </trkpt>
      <trkpt lat="43.51581" lon="6.24344">
        <ele>160.2</ele>
        <time>2025-02-05T15:31:44.000Z</time>
      </trkpt>
      <trkpt lat="43.51578" lon="6.2435">
        <ele>160.1</ele>
        <time>2025-02-05T15:31:49.000Z</time>
      </trkpt>
      <trkpt lat="43.51577" lon="6.24356">
        <ele>159.8</ele>
        <time>2025-02-05T15:31:53.000Z</time>
      </trkpt>
      <trkpt lat="43.51575" lon="6.24363">
        <ele>159.6</ele>
        <time>2025-02-05T15:31:58.000Z</time>
      </trkpt>
      <trkpt lat="43.51575" lon="6.2437">
        <ele>159.7</ele>
        <time>2025-02-05T15:32:03.000Z</time>
      </trkpt>
      <trkpt lat="43.51572" lon="6.24375">
        <ele>159.6</ele>
        <time>2025-02-05T15:32:08.000Z</time>
      </trkpt>
      <trkpt lat="43.51567" lon="6.24378">
        <ele>159.6</ele>
        <time>2025-02-05T15:32:12.000Z</time>
      </trkpt>
      <trkpt lat="43.51565" lon="6.24384">
        <ele>159.6</ele>
        <time>2025-02-05T15:32:17.000Z</time>
      </trkpt>
      <trkpt lat="43.5156" lon="6.24388">
        <ele>159.5</ele>
        <time>2025-02-05T15:32:22.000Z</time>
      </trkpt>
      <trkpt lat="43.51557" lon="6.24392">
        <ele>159.6</ele>
        <time>2025-02-05T15:32:26.000Z</time>
      </trkpt>
      <trkpt lat="43.51556" lon="6.24399">
        <ele>159.6</ele>
        <time>2025-02-05T15:32:31.000Z</time>
      </trkpt>
      <trkpt lat="43.51558" lon="6.24404">
        <ele>159.6</ele>
        <time>2025-02-05T15:32:35.000Z</time>
      </trkpt>
      <trkpt lat="43.51561" lon="6.2441">
        <ele>159.6</ele>
        <time>2025-02-05T15:32:40.000Z</time>
      </trkpt>
      <trkpt lat="43.51563" lon="6.24417">
        <ele>159.3</ele>
        <time>2025-02-05T15:32:45.000Z</time>
      </trkpt>
      <trkpt lat="43.51566" lon="6.24422">
        <ele>159.3</ele>
        <time>2025-02-05T15:32:49.000Z</time>
      </trkpt>
      <trkpt lat="43.51568" lon="6.24428">
        <ele>159.3</ele>
        <time>2025-02-05T15:32:53.000Z</time>
      </trkpt>
      <trkpt lat="43.51571" lon="6.24433">
        <ele>159.3</ele>
        <time>2025-02-05T15:32:57.000Z</time>
      </trkpt>
      <trkpt lat="43.51575" lon="6.24438">
        <ele>159.1</ele>
        <time>2025-02-05T15:33:01.000Z</time>
      </trkpt>
      <trkpt lat="43.51579" lon="6.24441">
        <ele>158.8</ele>
        <time>2025-02-05T15:33:06.000Z</time>
      </trkpt>
      <trkpt lat="43.51583" lon="6.24439">
        <ele>158.7</ele>
        <time>2025-02-05T15:33:11.000Z</time>
      </trkpt>
      <trkpt lat="43.51588" lon="6.24438">
        <ele>158.5</ele>
        <time>2025-02-05T15:33:15.000Z</time>
      </trkpt>
      <trkpt lat="43.51593" lon="6.24435">
        <ele>158.6</ele>
        <time>2025-02-05T15:33:21.000Z</time>
      </trkpt>
      <trkpt lat="43.51597" lon="6.24438">
        <ele>158.7</ele>
        <time>2025-02-05T15:33:25.000Z</time>
      </trkpt>
      <trkpt lat="43.51602" lon="6.2444">
        <ele>158.8</ele>
        <time>2025-02-05T15:33:28.000Z</time>
      </trkpt>
      <trkpt lat="43.51606" lon="6.24443">
        <ele>158.8</ele>
        <time>2025-02-05T15:33:31.000Z</time>
      </trkpt>
      <trkpt lat="43.51611" lon="6.24445">
        <ele>159</ele>
        <time>2025-02-05T15:33:35.000Z</time>
      </trkpt>
      <trkpt lat="43.51616" lon="6.24445">
        <ele>159.2</ele>
        <time>2025-02-05T15:33:39.000Z</time>
      </trkpt>
      <trkpt lat="43.51621" lon="6.24446">
        <ele>159.3</ele>
        <time>2025-02-05T15:33:43.000Z</time>
      </trkpt>
      <trkpt lat="43.51626" lon="6.24447">
        <ele>159.6</ele>
        <time>2025-02-05T15:33:47.000Z</time>
      </trkpt>
      <trkpt lat="43.51631" lon="6.24446">
        <ele>159.8</ele>
        <time>2025-02-05T15:33:53.000Z</time>
      </trkpt>
      <trkpt lat="43.51636" lon="6.24445">
        <ele>160</ele>
        <time>2025-02-05T15:33:58.000Z</time>
      </trkpt>
      <trkpt lat="43.51641" lon="6.24445">
        <ele>160.3</ele>
        <time>2025-02-05T15:34:04.000Z</time>
      </trkpt>
      <trkpt lat="43.51646" lon="6.24443">
        <ele>160.9</ele>
        <time>2025-02-05T15:34:10.000Z</time>
      </trkpt>
      <trkpt lat="43.51651" lon="6.24441">
        <ele>161.4</ele>
        <time>2025-02-05T15:34:15.000Z</time>
      </trkpt>
      <trkpt lat="43.51656" lon="6.2444">
        <ele>161.6</ele>
        <time>2025-02-05T15:34:19.000Z</time>
      </trkpt>
      <trkpt lat="43.5166" lon="6.24438">
        <ele>161.7</ele>
        <time>2025-02-05T15:34:23.000Z</time>
      </trkpt>
      <trkpt lat="43.51665" lon="6.24435">
        <ele>161.9</ele>
        <time>2025-02-05T15:34:29.000Z</time>
      </trkpt>
      <trkpt lat="43.51668" lon="6.24429">
        <ele>161.8</ele>
        <time>2025-02-05T15:34:35.000Z</time>
      </trkpt>
      <trkpt lat="43.5167" lon="6.24423">
        <ele>161.9</ele>
        <time>2025-02-05T15:34:40.000Z</time>
      </trkpt>
      <trkpt lat="43.51672" lon="6.24416">
        <ele>162.2</ele>
        <time>2025-02-05T15:34:45.000Z</time>
      </trkpt>
      <trkpt lat="43.51674" lon="6.2441">
        <ele>162.4</ele>
        <time>2025-02-05T15:34:50.000Z</time>
      </trkpt>
      <trkpt lat="43.51675" lon="6.24403">
        <ele>162.5</ele>
        <time>2025-02-05T15:34:56.000Z</time>
      </trkpt>
      <trkpt lat="43.51677" lon="6.24396">
        <ele>162.6</ele>
        <time>2025-02-05T15:35:01.000Z</time>
      </trkpt>
      <trkpt lat="43.51679" lon="6.24389">
        <ele>162.6</ele>
        <time>2025-02-05T15:35:06.000Z</time>
      </trkpt>
      <trkpt lat="43.5168" lon="6.24382">
        <ele>162.6</ele>
        <time>2025-02-05T15:35:11.000Z</time>
      </trkpt>
      <trkpt lat="43.51682" lon="6.24376">
        <ele>162.8</ele>
        <time>2025-02-05T15:35:15.000Z</time>
      </trkpt>
      <trkpt lat="43.51683" lon="6.24369">
        <ele>162.6</ele>
        <time>2025-02-05T15:35:20.000Z</time>
      </trkpt>
      <trkpt lat="43.51684" lon="6.24362">
        <ele>162.8</ele>
        <time>2025-02-05T15:35:25.000Z</time>
      </trkpt>
      <trkpt lat="43.51686" lon="6.24356">
        <ele>162.8</ele>
        <time>2025-02-05T15:35:29.000Z</time>
      </trkpt>
      <trkpt lat="43.51687" lon="6.2435">
        <ele>162.9</ele>
        <time>2025-02-05T15:35:33.000Z</time>
      </trkpt>
      <trkpt lat="43.51689" lon="6.24343">
        <ele>163.1</ele>
        <time>2025-02-05T15:35:38.000Z</time>
      </trkpt>
      <trkpt lat="43.51691" lon="6.24337">
        <ele>163.4</ele>
        <time>2025-02-05T15:35:48.000Z</time>
      </trkpt>
      <trkpt lat="43.51693" lon="6.24331">
        <ele>163.5</ele>
        <time>2025-02-05T15:35:56.000Z</time>
      </trkpt>
      <trkpt lat="43.51694" lon="6.24324">
        <ele>163.5</ele>
        <time>2025-02-05T15:36:03.000Z</time>
      </trkpt>
      <trkpt lat="43.51695" lon="6.24317">
        <ele>163.8</ele>
        <time>2025-02-05T15:36:09.000Z</time>
      </trkpt>
      <trkpt lat="43.51696" lon="6.24311">
        <ele>163.9</ele>
        <time>2025-02-05T15:36:14.000Z</time>
      </trkpt>
      <trkpt lat="43.51698" lon="6.24303">
        <ele>163.9</ele>
        <time>2025-02-05T15:36:20.000Z</time>
      </trkpt>
      <trkpt lat="43.51699" lon="6.24296">
        <ele>163.8</ele>
        <time>2025-02-05T15:36:25.000Z</time>
      </trkpt>
      <trkpt lat="43.51701" lon="6.24289">
        <ele>163.7</ele>
        <time>2025-02-05T15:36:29.000Z</time>
      </trkpt>
      <trkpt lat="43.51703" lon="6.24283">
        <ele>163.5</ele>
        <time>2025-02-05T15:36:34.000Z</time>
      </trkpt>
      <trkpt lat="43.51703" lon="6.24276">
        <ele>163.6</ele>
        <time>2025-02-05T15:36:39.000Z</time>
      </trkpt>
      <trkpt lat="43.51704" lon="6.24269">
        <ele>163.7</ele>
        <time>2025-02-05T15:36:44.000Z</time>
      </trkpt>
      <trkpt lat="43.51704" lon="6.24262">
        <ele>163.7</ele>
        <time>2025-02-05T15:36:49.000Z</time>
      </trkpt>
      <trkpt lat="43.51705" lon="6.24256">
        <ele>163.6</ele>
        <time>2025-02-05T15:36:54.000Z</time>
      </trkpt>
      <trkpt lat="43.51706" lon="6.24248">
        <ele>163.7</ele>
        <time>2025-02-05T15:36:59.000Z</time>
      </trkpt>
      <trkpt lat="43.51707" lon="6.24241">
        <ele>163.7</ele>
        <time>2025-02-05T15:37:04.000Z</time>
      </trkpt>
      <trkpt lat="43.51708" lon="6.24234">
        <ele>163.5</ele>
        <time>2025-02-05T15:37:09.000Z</time>
      </trkpt>
      <trkpt lat="43.51709" lon="6.24228">
        <ele>163.3</ele>
        <time>2025-02-05T15:37:13.000Z</time>
      </trkpt>
      <trkpt lat="43.51711" lon="6.24222">
        <ele>163.4</ele>
        <time>2025-02-05T15:37:17.000Z</time>
      </trkpt>
      <trkpt lat="43.51712" lon="6.24215">
        <ele>163.5</ele>
        <time>2025-02-05T15:37:22.000Z</time>
      </trkpt>
      <trkpt lat="43.51715" lon="6.24207">
        <ele>163.5</ele>
        <time>2025-02-05T15:37:27.000Z</time>
      </trkpt>
      <trkpt lat="43.51717" lon="6.24201">
        <ele>163.5</ele>
        <time>2025-02-05T15:37:31.000Z</time>
      </trkpt>
      <trkpt lat="43.51718" lon="6.24193">
        <ele>163.5</ele>
        <time>2025-02-05T15:37:37.000Z</time>
      </trkpt>
      <trkpt lat="43.5172" lon="6.24186">
        <ele>163.5</ele>
        <time>2025-02-05T15:37:42.000Z</time>
      </trkpt>
      <trkpt lat="43.51721" lon="6.24179">
        <ele>163.6</ele>
        <time>2025-02-05T15:37:47.000Z</time>
      </trkpt>
      <trkpt lat="43.51723" lon="6.24173">
        <ele>163.7</ele>
        <time>2025-02-05T15:37:52.000Z</time>
      </trkpt>
      <trkpt lat="43.51724" lon="6.24166">
        <ele>163.7</ele>
        <time>2025-02-05T15:37:57.000Z</time>
      </trkpt>
      <trkpt lat="43.51725" lon="6.24159">
        <ele>163.7</ele>
        <time>2025-02-05T15:38:02.000Z</time>
      </trkpt>
      <trkpt lat="43.51725" lon="6.24152">
        <ele>163.6</ele>
        <time>2025-02-05T15:38:07.000Z</time>
      </trkpt>
      <trkpt lat="43.51724" lon="6.24146">
        <ele>163.6</ele>
        <time>2025-02-05T15:38:12.000Z</time>
      </trkpt>
      <trkpt lat="43.51723" lon="6.24139">
        <ele>163.6</ele>
        <time>2025-02-05T15:38:18.000Z</time>
      </trkpt>
      <trkpt lat="43.51723" lon="6.24132">
        <ele>163.7</ele>
        <time>2025-02-05T15:38:23.000Z</time>
      </trkpt>
    </trkseg>
  </trk>
</gpx>